<?xml version="1.0" encoding="UTF-8" standalone="no" ?>
<gpx xmlns="http://www.topografix.com/GPX/1/1" xmlns:xsi="http://www.w3.org/2001/XMLSchema-instance" xsi:schemaLocation="http://www.topografix.com/GPX/1/1 http://www.topografix.com/GPX/1/1/gpx.xsd" version="1.1" creator="VisuGPX - https://www.visugpx.com">
  <metadata>
    <name>Sortie du dimanche</name>
  </metadata>
  <trk>
    <name><![CDATA[AllTrails Route on AllTrails]]></name>
    <trkseg>
      <trkpt lat="43.45564" lon="5.84955">
        <ele>290</ele>
        <time>2010-01-01T00:00:00Z</time>
      </trkpt>
      <trkpt lat="43.45564" lon="5.84957">
        <ele>290</ele>
        <time>2010-01-01T00:00:00Z</time>
      </trkpt>
      <trkpt lat="43.45573" lon="5.84953">
        <ele>290</ele>
        <time>2010-01-01T00:00:02Z</time>
      </trkpt>
      <trkpt lat="43.45582" lon="5.84955">
        <ele>289</ele>
        <time>2010-01-01T00:00:04Z</time>
      </trkpt>
      <trkpt lat="43.45592" lon="5.84961">
        <ele>288</ele>
        <time>2010-01-01T00:00:06Z</time>
      </trkpt>
      <trkpt lat="43.45613" lon="5.84978">
        <ele>287</ele>
        <time>2010-01-01T00:00:11Z</time>
      </trkpt>
      <trkpt lat="43.4564" lon="5.85011">
        <ele>288</ele>
        <time>2010-01-01T00:00:18Z</time>
      </trkpt>
      <trkpt lat="43.45647" lon="5.85023">
        <ele>288</ele>
        <time>2010-01-01T00:00:20Z</time>
      </trkpt>
      <trkpt lat="43.45663" lon="5.8505">
        <ele>288</ele>
        <time>2010-01-01T00:00:25Z</time>
      </trkpt>
      <trkpt lat="43.45677" lon="5.85085">
        <ele>288</ele>
        <time>2010-01-01T00:00:31Z</time>
      </trkpt>
      <trkpt lat="43.45689" lon="5.8512">
        <ele>289</ele>
        <time>2010-01-01T00:00:37Z</time>
      </trkpt>
      <trkpt lat="43.45701" lon="5.85169">
        <ele>290</ele>
        <time>2010-01-01T00:00:44Z</time>
      </trkpt>
      <trkpt lat="43.4571" lon="5.85214">
        <ele>289</ele>
        <time>2010-01-01T00:00:51Z</time>
      </trkpt>
      <trkpt lat="43.45715" lon="5.85261">
        <ele>288</ele>
        <time>2010-01-01T00:00:58Z</time>
      </trkpt>
      <trkpt lat="43.45718" lon="5.85313">
        <ele>288</ele>
        <time>2010-01-01T00:01:05Z</time>
      </trkpt>
      <trkpt lat="43.45714" lon="5.85382">
        <ele>287</ele>
        <time>2010-01-01T00:01:15Z</time>
      </trkpt>
      <trkpt lat="43.45709" lon="5.854">
        <ele>287</ele>
        <time>2010-01-01T00:01:18Z</time>
      </trkpt>
      <trkpt lat="43.45703" lon="5.85405">
        <ele>287</ele>
        <time>2010-01-01T00:01:20Z</time>
      </trkpt>
      <trkpt lat="43.45699" lon="5.85413">
        <ele>287</ele>
        <time>2010-01-01T00:01:21Z</time>
      </trkpt>
      <trkpt lat="43.45697" lon="5.85421">
        <ele>288</ele>
        <time>2010-01-01T00:01:22Z</time>
      </trkpt>
      <trkpt lat="43.45697" lon="5.85431">
        <ele>288</ele>
        <time>2010-01-01T00:01:24Z</time>
      </trkpt>
      <trkpt lat="43.45699" lon="5.8544">
        <ele>289</ele>
        <time>2010-01-01T00:01:25Z</time>
      </trkpt>
      <trkpt lat="43.45703" lon="5.85448">
        <ele>289</ele>
        <time>2010-01-01T00:01:26Z</time>
      </trkpt>
      <trkpt lat="43.45708" lon="5.85454">
        <ele>289</ele>
        <time>2010-01-01T00:01:28Z</time>
      </trkpt>
      <trkpt lat="43.45715" lon="5.85457">
        <ele>289</ele>
        <time>2010-01-01T00:01:29Z</time>
      </trkpt>
      <trkpt lat="43.45724" lon="5.85482">
        <ele>289</ele>
        <time>2010-01-01T00:01:33Z</time>
      </trkpt>
      <trkpt lat="43.4574" lon="5.85547">
        <ele>291</ele>
        <time>2010-01-01T00:01:43Z</time>
      </trkpt>
      <trkpt lat="43.45772" lon="5.85633">
        <ele>288</ele>
        <time>2010-01-01T00:01:57Z</time>
      </trkpt>
      <trkpt lat="43.45804" lon="5.85738">
        <ele>288</ele>
        <time>2010-01-01T00:02:14Z</time>
      </trkpt>
      <trkpt lat="43.45861" lon="5.85938">
        <ele>289</ele>
        <time>2010-01-01T00:02:45Z</time>
      </trkpt>
      <trkpt lat="43.45866" lon="5.85968">
        <ele>287</ele>
        <time>2010-01-01T00:02:50Z</time>
      </trkpt>
      <trkpt lat="43.45863" lon="5.85979">
        <ele>287</ele>
        <time>2010-01-01T00:02:51Z</time>
      </trkpt>
      <trkpt lat="43.45864" lon="5.85989">
        <ele>287</ele>
        <time>2010-01-01T00:02:53Z</time>
      </trkpt>
      <trkpt lat="43.45869" lon="5.85998">
        <ele>287</ele>
        <time>2010-01-01T00:02:54Z</time>
      </trkpt>
      <trkpt lat="43.45876" lon="5.86003">
        <ele>287</ele>
        <time>2010-01-01T00:02:56Z</time>
      </trkpt>
      <trkpt lat="43.45881" lon="5.86013">
        <ele>287</ele>
        <time>2010-01-01T00:02:58Z</time>
      </trkpt>
      <trkpt lat="43.45883" lon="5.86021">
        <ele>287</ele>
        <time>2010-01-01T00:02:59Z</time>
      </trkpt>
      <trkpt lat="43.45884" lon="5.86038">
        <ele>287</ele>
        <time>2010-01-01T00:03:01Z</time>
      </trkpt>
      <trkpt lat="43.45883" lon="5.86066">
        <ele>287</ele>
        <time>2010-01-01T00:03:05Z</time>
      </trkpt>
      <trkpt lat="43.4587" lon="5.86218">
        <ele>287</ele>
        <time>2010-01-01T00:03:28Z</time>
      </trkpt>
      <trkpt lat="43.45866" lon="5.86251">
        <ele>287</ele>
        <time>2010-01-01T00:03:33Z</time>
      </trkpt>
      <trkpt lat="43.4586" lon="5.86254">
        <ele>288</ele>
        <time>2010-01-01T00:03:34Z</time>
      </trkpt>
      <trkpt lat="43.45855" lon="5.8626">
        <ele>288</ele>
        <time>2010-01-01T00:03:35Z</time>
      </trkpt>
      <trkpt lat="43.4585" lon="5.86274">
        <ele>288</ele>
        <time>2010-01-01T00:03:37Z</time>
      </trkpt>
      <trkpt lat="43.45851" lon="5.86282">
        <ele>288</ele>
        <time>2010-01-01T00:03:39Z</time>
      </trkpt>
      <trkpt lat="43.45855" lon="5.86295">
        <ele>288</ele>
        <time>2010-01-01T00:03:41Z</time>
      </trkpt>
      <trkpt lat="43.45864" lon="5.86303">
        <ele>288</ele>
        <time>2010-01-01T00:03:43Z</time>
      </trkpt>
      <trkpt lat="43.4587" lon="5.86305">
        <ele>288</ele>
        <time>2010-01-01T00:03:44Z</time>
      </trkpt>
      <trkpt lat="43.45877" lon="5.86303">
        <ele>288</ele>
        <time>2010-01-01T00:03:45Z</time>
      </trkpt>
      <trkpt lat="43.45884" lon="5.86297">
        <ele>288</ele>
        <time>2010-01-01T00:03:47Z</time>
      </trkpt>
      <trkpt lat="43.4591" lon="5.86305">
        <ele>288</ele>
        <time>2010-01-01T00:03:52Z</time>
      </trkpt>
      <trkpt lat="43.46048" lon="5.86368">
        <ele>289</ele>
        <time>2010-01-01T00:04:22Z</time>
      </trkpt>
      <trkpt lat="43.46251" lon="5.86457">
        <ele>286</ele>
        <time>2010-01-01T00:05:04Z</time>
      </trkpt>
      <trkpt lat="43.4625" lon="5.86457">
        <ele>286</ele>
        <time>2010-01-01T00:05:04Z</time>
      </trkpt>
      <trkpt lat="43.46294" lon="5.86478">
        <ele>286</ele>
        <time>2010-01-01T00:05:14Z</time>
      </trkpt>
      <trkpt lat="43.46305" lon="5.86488">
        <ele>286</ele>
        <time>2010-01-01T00:05:16Z</time>
      </trkpt>
      <trkpt lat="43.46309" lon="5.865">
        <ele>286</ele>
        <time>2010-01-01T00:05:18Z</time>
      </trkpt>
      <trkpt lat="43.46315" lon="5.86505">
        <ele>286</ele>
        <time>2010-01-01T00:05:20Z</time>
      </trkpt>
      <trkpt lat="43.4632" lon="5.86508">
        <ele>286</ele>
        <time>2010-01-01T00:05:21Z</time>
      </trkpt>
      <trkpt lat="43.46327" lon="5.86507">
        <ele>286</ele>
        <time>2010-01-01T00:05:22Z</time>
      </trkpt>
      <trkpt lat="43.46336" lon="5.865">
        <ele>287</ele>
        <time>2010-01-01T00:05:24Z</time>
      </trkpt>
      <trkpt lat="43.46339" lon="5.86493">
        <ele>287</ele>
        <time>2010-01-01T00:05:25Z</time>
      </trkpt>
      <trkpt lat="43.46341" lon="5.86485">
        <ele>287</ele>
        <time>2010-01-01T00:05:27Z</time>
      </trkpt>
      <trkpt lat="43.46339" lon="5.86471">
        <ele>287</ele>
        <time>2010-01-01T00:05:29Z</time>
      </trkpt>
      <trkpt lat="43.46335" lon="5.86465">
        <ele>287</ele>
        <time>2010-01-01T00:05:30Z</time>
      </trkpt>
      <trkpt lat="43.46339" lon="5.86436">
        <ele>287</ele>
        <time>2010-01-01T00:05:34Z</time>
      </trkpt>
      <trkpt lat="43.46342" lon="5.86423">
        <ele>287</ele>
        <time>2010-01-01T00:05:36Z</time>
      </trkpt>
      <trkpt lat="43.46344" lon="5.86408">
        <ele>287</ele>
        <time>2010-01-01T00:05:38Z</time>
      </trkpt>
      <trkpt lat="43.46345" lon="5.86375">
        <ele>286</ele>
        <time>2010-01-01T00:05:43Z</time>
      </trkpt>
      <trkpt lat="43.46342" lon="5.86322">
        <ele>284</ele>
        <time>2010-01-01T00:05:51Z</time>
      </trkpt>
      <trkpt lat="43.46344" lon="5.86305">
        <ele>283</ele>
        <time>2010-01-01T00:05:53Z</time>
      </trkpt>
      <trkpt lat="43.46348" lon="5.8629">
        <ele>283</ele>
        <time>2010-01-01T00:05:56Z</time>
      </trkpt>
      <trkpt lat="43.46354" lon="5.86279">
        <ele>283</ele>
        <time>2010-01-01T00:05:58Z</time>
      </trkpt>
      <trkpt lat="43.46364" lon="5.86272">
        <ele>284</ele>
        <time>2010-01-01T00:06:00Z</time>
      </trkpt>
      <trkpt lat="43.46373" lon="5.86267">
        <ele>284</ele>
        <time>2010-01-01T00:06:02Z</time>
      </trkpt>
      <trkpt lat="43.46383" lon="5.86266">
        <ele>284</ele>
        <time>2010-01-01T00:06:04Z</time>
      </trkpt>
      <trkpt lat="43.46452" lon="5.86276">
        <ele>285</ele>
        <time>2010-01-01T00:06:18Z</time>
      </trkpt>
      <trkpt lat="43.46466" lon="5.86277">
        <ele>285</ele>
        <time>2010-01-01T00:06:21Z</time>
      </trkpt>
      <trkpt lat="43.46481" lon="5.86275">
        <ele>286</ele>
        <time>2010-01-01T00:06:24Z</time>
      </trkpt>
      <trkpt lat="43.46523" lon="5.86266">
        <ele>287</ele>
        <time>2010-01-01T00:06:32Z</time>
      </trkpt>
      <trkpt lat="43.46535" lon="5.86266">
        <ele>286</ele>
        <time>2010-01-01T00:06:35Z</time>
      </trkpt>
      <trkpt lat="43.46572" lon="5.86275">
        <ele>285</ele>
        <time>2010-01-01T00:06:42Z</time>
      </trkpt>
      <trkpt lat="43.46585" lon="5.86276">
        <ele>284</ele>
        <time>2010-01-01T00:06:45Z</time>
      </trkpt>
      <trkpt lat="43.46625" lon="5.8627">
        <ele>285</ele>
        <time>2010-01-01T00:06:53Z</time>
      </trkpt>
      <trkpt lat="43.46665" lon="5.86272">
        <ele>286</ele>
        <time>2010-01-01T00:07:01Z</time>
      </trkpt>
      <trkpt lat="43.46709" lon="5.8627">
        <ele>284</ele>
        <time>2010-01-01T00:07:10Z</time>
      </trkpt>
      <trkpt lat="43.46724" lon="5.86271">
        <ele>283</ele>
        <time>2010-01-01T00:07:13Z</time>
      </trkpt>
      <trkpt lat="43.46769" lon="5.86285">
        <ele>283</ele>
        <time>2010-01-01T00:07:22Z</time>
      </trkpt>
      <trkpt lat="43.46784" lon="5.86287">
        <ele>283</ele>
        <time>2010-01-01T00:07:25Z</time>
      </trkpt>
      <trkpt lat="43.46816" lon="5.86285">
        <ele>282</ele>
        <time>2010-01-01T00:07:31Z</time>
      </trkpt>
      <trkpt lat="43.46827" lon="5.86284">
        <ele>283</ele>
        <time>2010-01-01T00:07:33Z</time>
      </trkpt>
      <trkpt lat="43.46841" lon="5.86287">
        <ele>284</ele>
        <time>2010-01-01T00:07:36Z</time>
      </trkpt>
      <trkpt lat="43.46927" lon="5.86309">
        <ele>287</ele>
        <time>2010-01-01T00:07:54Z</time>
      </trkpt>
      <trkpt lat="43.46941" lon="5.86314">
        <ele>287</ele>
        <time>2010-01-01T00:07:57Z</time>
      </trkpt>
      <trkpt lat="43.46953" lon="5.86321">
        <ele>286</ele>
        <time>2010-01-01T00:07:59Z</time>
      </trkpt>
      <trkpt lat="43.46964" lon="5.8633">
        <ele>286</ele>
        <time>2010-01-01T00:08:02Z</time>
      </trkpt>
      <trkpt lat="43.46972" lon="5.86341">
        <ele>286</ele>
        <time>2010-01-01T00:08:04Z</time>
      </trkpt>
      <trkpt lat="43.46985" lon="5.86366">
        <ele>286</ele>
        <time>2010-01-01T00:08:09Z</time>
      </trkpt>
      <trkpt lat="43.46994" lon="5.86375">
        <ele>285</ele>
        <time>2010-01-01T00:08:11Z</time>
      </trkpt>
      <trkpt lat="43.47024" lon="5.86391">
        <ele>284</ele>
        <time>2010-01-01T00:08:17Z</time>
      </trkpt>
      <trkpt lat="43.47033" lon="5.86398">
        <ele>284</ele>
        <time>2010-01-01T00:08:19Z</time>
      </trkpt>
      <trkpt lat="43.47051" lon="5.86416">
        <ele>284</ele>
        <time>2010-01-01T00:08:24Z</time>
      </trkpt>
      <trkpt lat="43.4706" lon="5.86423">
        <ele>284</ele>
        <time>2010-01-01T00:08:26Z</time>
      </trkpt>
      <trkpt lat="43.47071" lon="5.86427">
        <ele>284</ele>
        <time>2010-01-01T00:08:28Z</time>
      </trkpt>
      <trkpt lat="43.47128" lon="5.86435">
        <ele>285</ele>
        <time>2010-01-01T00:08:40Z</time>
      </trkpt>
      <trkpt lat="43.4727" lon="5.8645">
        <ele>285</ele>
        <time>2010-01-01T00:09:08Z</time>
      </trkpt>
      <trkpt lat="43.47536" lon="5.86484">
        <ele>289</ele>
        <time>2010-01-01T00:10:02Z</time>
      </trkpt>
      <trkpt lat="43.47612" lon="5.86492">
        <ele>286</ele>
        <time>2010-01-01T00:10:17Z</time>
      </trkpt>
      <trkpt lat="43.47656" lon="5.86499">
        <ele>286</ele>
        <time>2010-01-01T00:10:26Z</time>
      </trkpt>
      <trkpt lat="43.47735" lon="5.86499">
        <ele>287</ele>
        <time>2010-01-01T00:10:41Z</time>
      </trkpt>
      <trkpt lat="43.47815" lon="5.86515">
        <ele>284</ele>
        <time>2010-01-01T00:10:58Z</time>
      </trkpt>
      <trkpt lat="43.4785" lon="5.86526">
        <ele>284</ele>
        <time>2010-01-01T00:11:05Z</time>
      </trkpt>
      <trkpt lat="43.4787" lon="5.86536">
        <ele>285</ele>
        <time>2010-01-01T00:11:09Z</time>
      </trkpt>
      <trkpt lat="43.47884" lon="5.86537">
        <ele>285</ele>
        <time>2010-01-01T00:11:12Z</time>
      </trkpt>
      <trkpt lat="43.47926" lon="5.86524">
        <ele>283</ele>
        <time>2010-01-01T00:11:21Z</time>
      </trkpt>
      <trkpt lat="43.47949" lon="5.86521">
        <ele>282</ele>
        <time>2010-01-01T00:11:25Z</time>
      </trkpt>
      <trkpt lat="43.48044" lon="5.86529">
        <ele>283</ele>
        <time>2010-01-01T00:11:44Z</time>
      </trkpt>
      <trkpt lat="43.48081" lon="5.86534">
        <ele>284</ele>
        <time>2010-01-01T00:11:52Z</time>
      </trkpt>
      <trkpt lat="43.48162" lon="5.8658">
        <ele>284</ele>
        <time>2010-01-01T00:12:09Z</time>
      </trkpt>
      <trkpt lat="43.48268" lon="5.86633">
        <ele>283</ele>
        <time>2010-01-01T00:12:32Z</time>
      </trkpt>
      <trkpt lat="43.48377" lon="5.86701">
        <ele>284</ele>
        <time>2010-01-01T00:12:56Z</time>
      </trkpt>
      <trkpt lat="43.48429" lon="5.86725">
        <ele>286</ele>
        <time>2010-01-01T00:13:07Z</time>
      </trkpt>
      <trkpt lat="43.4845" lon="5.86732">
        <ele>287</ele>
        <time>2010-01-01T00:13:11Z</time>
      </trkpt>
      <trkpt lat="43.4847" lon="5.86734">
        <ele>287</ele>
        <time>2010-01-01T00:13:15Z</time>
      </trkpt>
      <trkpt lat="43.48482" lon="5.8673">
        <ele>287</ele>
        <time>2010-01-01T00:13:17Z</time>
      </trkpt>
      <trkpt lat="43.48513" lon="5.86714">
        <ele>286</ele>
        <time>2010-01-01T00:13:24Z</time>
      </trkpt>
      <trkpt lat="43.48519" lon="5.86714">
        <ele>286</ele>
        <time>2010-01-01T00:13:25Z</time>
      </trkpt>
      <trkpt lat="43.48533" lon="5.86715">
        <ele>286</ele>
        <time>2010-01-01T00:13:28Z</time>
      </trkpt>
      <trkpt lat="43.48587" lon="5.86732">
        <ele>287</ele>
        <time>2010-01-01T00:13:39Z</time>
      </trkpt>
      <trkpt lat="43.48664" lon="5.86789">
        <ele>286</ele>
        <time>2010-01-01T00:13:57Z</time>
      </trkpt>
      <trkpt lat="43.48715" lon="5.8683">
        <ele>286</ele>
        <time>2010-01-01T00:14:08Z</time>
      </trkpt>
      <trkpt lat="43.48754" lon="5.86854">
        <ele>287</ele>
        <time>2010-01-01T00:14:17Z</time>
      </trkpt>
      <trkpt lat="43.48791" lon="5.86867">
        <ele>286</ele>
        <time>2010-01-01T00:14:25Z</time>
      </trkpt>
      <trkpt lat="43.48802" lon="5.86873">
        <ele>286</ele>
        <time>2010-01-01T00:14:27Z</time>
      </trkpt>
      <trkpt lat="43.4889" lon="5.86936">
        <ele>289</ele>
        <time>2010-01-01T00:14:47Z</time>
      </trkpt>
      <trkpt lat="43.48917" lon="5.86953">
        <ele>290</ele>
        <time>2010-01-01T00:14:53Z</time>
      </trkpt>
      <trkpt lat="43.48943" lon="5.86964">
        <ele>291</ele>
        <time>2010-01-01T00:14:58Z</time>
      </trkpt>
      <trkpt lat="43.49042" lon="5.86995">
        <ele>293</ele>
        <time>2010-01-01T00:15:19Z</time>
      </trkpt>
      <trkpt lat="43.49106" lon="5.87024">
        <ele>293</ele>
        <time>2010-01-01T00:15:32Z</time>
      </trkpt>
      <trkpt lat="43.49135" lon="5.87035">
        <ele>293</ele>
        <time>2010-01-01T00:15:38Z</time>
      </trkpt>
      <trkpt lat="43.49179" lon="5.87046">
        <ele>295</ele>
        <time>2010-01-01T00:15:47Z</time>
      </trkpt>
      <trkpt lat="43.49297" lon="5.8705">
        <ele>297</ele>
        <time>2010-01-01T00:16:11Z</time>
      </trkpt>
      <trkpt lat="43.49358" lon="5.87055">
        <ele>298</ele>
        <time>2010-01-01T00:16:23Z</time>
      </trkpt>
      <trkpt lat="43.49411" lon="5.87067">
        <ele>300</ele>
        <time>2010-01-01T00:16:34Z</time>
      </trkpt>
      <trkpt lat="43.49446" lon="5.87072">
        <ele>299</ele>
        <time>2010-01-01T00:16:41Z</time>
      </trkpt>
      <trkpt lat="43.49509" lon="5.87065">
        <ele>299</ele>
        <time>2010-01-01T00:16:53Z</time>
      </trkpt>
      <trkpt lat="43.4955" lon="5.87065">
        <ele>301</ele>
        <time>2010-01-01T00:17:02Z</time>
      </trkpt>
      <trkpt lat="43.49661" lon="5.8709">
        <ele>306</ele>
        <time>2010-01-01T00:17:24Z</time>
      </trkpt>
      <trkpt lat="43.49687" lon="5.87099">
        <ele>306</ele>
        <time>2010-01-01T00:17:29Z</time>
      </trkpt>
      <trkpt lat="43.49722" lon="5.87119">
        <ele>306</ele>
        <time>2010-01-01T00:17:37Z</time>
      </trkpt>
      <trkpt lat="43.4979" lon="5.87165">
        <ele>309</ele>
        <time>2010-01-01T00:17:52Z</time>
      </trkpt>
      <trkpt lat="43.49811" lon="5.87181">
        <ele>310</ele>
        <time>2010-01-01T00:17:57Z</time>
      </trkpt>
      <trkpt lat="43.49826" lon="5.87204">
        <ele>310</ele>
        <time>2010-01-01T00:18:01Z</time>
      </trkpt>
      <trkpt lat="43.49833" lon="5.87232">
        <ele>312</ele>
        <time>2010-01-01T00:18:06Z</time>
      </trkpt>
      <trkpt lat="43.49865" lon="5.87463">
        <ele>321</ele>
        <time>2010-01-01T00:18:40Z</time>
      </trkpt>
      <trkpt lat="43.49869" lon="5.87475">
        <ele>322</ele>
        <time>2010-01-01T00:18:42Z</time>
      </trkpt>
      <trkpt lat="43.4988" lon="5.87496">
        <ele>323</ele>
        <time>2010-01-01T00:18:46Z</time>
      </trkpt>
      <trkpt lat="43.49888" lon="5.87506">
        <ele>323</ele>
        <time>2010-01-01T00:18:48Z</time>
      </trkpt>
      <trkpt lat="43.49906" lon="5.87522">
        <ele>325</ele>
        <time>2010-01-01T00:18:52Z</time>
      </trkpt>
      <trkpt lat="43.49948" lon="5.8755">
        <ele>327</ele>
        <time>2010-01-01T00:19:01Z</time>
      </trkpt>
      <trkpt lat="43.4997" lon="5.87558">
        <ele>328</ele>
        <time>2010-01-01T00:19:06Z</time>
      </trkpt>
      <trkpt lat="43.49992" lon="5.8756">
        <ele>330</ele>
        <time>2010-01-01T00:19:10Z</time>
      </trkpt>
      <trkpt lat="43.50047" lon="5.8756">
        <ele>331</ele>
        <time>2010-01-01T00:19:21Z</time>
      </trkpt>
      <trkpt lat="43.50067" lon="5.87564">
        <ele>331</ele>
        <time>2010-01-01T00:19:25Z</time>
      </trkpt>
      <trkpt lat="43.50077" lon="5.87568">
        <ele>331</ele>
        <time>2010-01-01T00:19:27Z</time>
      </trkpt>
      <trkpt lat="43.50096" lon="5.8758">
        <ele>332</ele>
        <time>2010-01-01T00:19:32Z</time>
      </trkpt>
      <trkpt lat="43.50103" lon="5.87588">
        <ele>332</ele>
        <time>2010-01-01T00:19:33Z</time>
      </trkpt>
      <trkpt lat="43.50194" lon="5.87752">
        <ele>338</ele>
        <time>2010-01-01T00:20:03Z</time>
      </trkpt>
      <trkpt lat="43.50211" lon="5.87776">
        <ele>341</ele>
        <time>2010-01-01T00:20:08Z</time>
      </trkpt>
      <trkpt lat="43.50217" lon="5.8778">
        <ele>342</ele>
        <time>2010-01-01T00:20:10Z</time>
      </trkpt>
      <trkpt lat="43.50223" lon="5.87781">
        <ele>342</ele>
        <time>2010-01-01T00:20:11Z</time>
      </trkpt>
      <trkpt lat="43.50376" lon="5.87755">
        <ele>344</ele>
        <time>2010-01-01T00:20:42Z</time>
      </trkpt>
      <trkpt lat="43.50396" lon="5.87756">
        <ele>344</ele>
        <time>2010-01-01T00:20:46Z</time>
      </trkpt>
      <trkpt lat="43.50421" lon="5.87774">
        <ele>344</ele>
        <time>2010-01-01T00:20:51Z</time>
      </trkpt>
      <trkpt lat="43.50566" lon="5.8798">
        <ele>347</ele>
        <time>2010-01-01T00:21:33Z</time>
      </trkpt>
      <trkpt lat="43.50573" lon="5.87992">
        <ele>348</ele>
        <time>2010-01-01T00:21:35Z</time>
      </trkpt>
      <trkpt lat="43.50613" lon="5.88045">
        <ele>352</ele>
        <time>2010-01-01T00:21:46Z</time>
      </trkpt>
      <trkpt lat="43.50631" lon="5.88062">
        <ele>353</ele>
        <time>2010-01-01T00:21:51Z</time>
      </trkpt>
      <trkpt lat="43.50649" lon="5.88075">
        <ele>355</ele>
        <time>2010-01-01T00:21:55Z</time>
      </trkpt>
      <trkpt lat="43.5067" lon="5.88085">
        <ele>356</ele>
        <time>2010-01-01T00:21:59Z</time>
      </trkpt>
      <trkpt lat="43.50692" lon="5.8809">
        <ele>357</ele>
        <time>2010-01-01T00:22:04Z</time>
      </trkpt>
      <trkpt lat="43.50714" lon="5.88091">
        <ele>358</ele>
        <time>2010-01-01T00:22:08Z</time>
      </trkpt>
      <trkpt lat="43.50735" lon="5.88088">
        <ele>358</ele>
        <time>2010-01-01T00:22:12Z</time>
      </trkpt>
      <trkpt lat="43.5085" lon="5.88058">
        <ele>362</ele>
        <time>2010-01-01T00:22:36Z</time>
      </trkpt>
      <trkpt lat="43.50904" lon="5.88046">
        <ele>365</ele>
        <time>2010-01-01T00:22:47Z</time>
      </trkpt>
      <trkpt lat="43.51295" lon="5.88036">
        <ele>385</ele>
        <time>2010-01-01T00:24:05Z</time>
      </trkpt>
      <trkpt lat="43.51509" lon="5.88033">
        <ele>395</ele>
        <time>2010-01-01T00:24:48Z</time>
      </trkpt>
      <trkpt lat="43.5155" lon="5.8803">
        <ele>399</ele>
        <time>2010-01-01T00:24:56Z</time>
      </trkpt>
      <trkpt lat="43.51557" lon="5.88027">
        <ele>400</ele>
        <time>2010-01-01T00:24:58Z</time>
      </trkpt>
      <trkpt lat="43.51567" lon="5.88015">
        <ele>402</ele>
        <time>2010-01-01T00:25:00Z</time>
      </trkpt>
      <trkpt lat="43.51579" lon="5.87973">
        <ele>405</ele>
        <time>2010-01-01T00:25:07Z</time>
      </trkpt>
      <trkpt lat="43.51592" lon="5.87953">
        <ele>406</ele>
        <time>2010-01-01T00:25:11Z</time>
      </trkpt>
      <trkpt lat="43.5161" lon="5.87939">
        <ele>408</ele>
        <time>2010-01-01T00:25:15Z</time>
      </trkpt>
      <trkpt lat="43.51662" lon="5.87923">
        <ele>408</ele>
        <time>2010-01-01T00:25:25Z</time>
      </trkpt>
      <trkpt lat="43.51679" lon="5.87906">
        <ele>410</ele>
        <time>2010-01-01T00:25:30Z</time>
      </trkpt>
      <trkpt lat="43.51718" lon="5.8785">
        <ele>417</ele>
        <time>2010-01-01T00:25:41Z</time>
      </trkpt>
      <trkpt lat="43.51739" lon="5.87828">
        <ele>418</ele>
        <time>2010-01-01T00:25:46Z</time>
      </trkpt>
      <trkpt lat="43.51765" lon="5.8782">
        <ele>419</ele>
        <time>2010-01-01T00:25:52Z</time>
      </trkpt>
      <trkpt lat="43.51781" lon="5.87811">
        <ele>420</ele>
        <time>2010-01-01T00:25:55Z</time>
      </trkpt>
      <trkpt lat="43.51837" lon="5.87732">
        <ele>427</ele>
        <time>2010-01-01T00:26:11Z</time>
      </trkpt>
      <trkpt lat="43.51871" lon="5.87701">
        <ele>430</ele>
        <time>2010-01-01T00:26:19Z</time>
      </trkpt>
      <trkpt lat="43.51943" lon="5.87645">
        <ele>434</ele>
        <time>2010-01-01T00:26:36Z</time>
      </trkpt>
      <trkpt lat="43.51946" lon="5.87635">
        <ele>435</ele>
        <time>2010-01-01T00:26:37Z</time>
      </trkpt>
      <trkpt lat="43.51945" lon="5.8763">
        <ele>436</ele>
        <time>2010-01-01T00:26:38Z</time>
      </trkpt>
      <trkpt lat="43.51938" lon="5.87625">
        <ele>438</ele>
        <time>2010-01-01T00:26:40Z</time>
      </trkpt>
      <trkpt lat="43.51926" lon="5.87622">
        <ele>441</ele>
        <time>2010-01-01T00:26:42Z</time>
      </trkpt>
      <trkpt lat="43.5192" lon="5.87615">
        <ele>443</ele>
        <time>2010-01-01T00:26:44Z</time>
      </trkpt>
      <trkpt lat="43.51921" lon="5.87605">
        <ele>445</ele>
        <time>2010-01-01T00:26:45Z</time>
      </trkpt>
      <trkpt lat="43.51926" lon="5.87599">
        <ele>445</ele>
        <time>2010-01-01T00:26:46Z</time>
      </trkpt>
      <trkpt lat="43.51938" lon="5.87591">
        <ele>445</ele>
        <time>2010-01-01T00:26:49Z</time>
      </trkpt>
      <trkpt lat="43.51973" lon="5.87587">
        <ele>443</ele>
        <time>2010-01-01T00:26:56Z</time>
      </trkpt>
      <trkpt lat="43.51995" lon="5.87571">
        <ele>447</ele>
        <time>2010-01-01T00:27:01Z</time>
      </trkpt>
      <trkpt lat="43.51993" lon="5.87565">
        <ele>448</ele>
        <time>2010-01-01T00:27:02Z</time>
      </trkpt>
      <trkpt lat="43.51988" lon="5.8756">
        <ele>448</ele>
        <time>2010-01-01T00:27:03Z</time>
      </trkpt>
      <trkpt lat="43.51952" lon="5.87537">
        <ele>450</ele>
        <time>2010-01-01T00:27:11Z</time>
      </trkpt>
      <trkpt lat="43.51935" lon="5.87529">
        <ele>453</ele>
        <time>2010-01-01T00:27:15Z</time>
      </trkpt>
      <trkpt lat="43.51918" lon="5.87525">
        <ele>456</ele>
        <time>2010-01-01T00:27:18Z</time>
      </trkpt>
      <trkpt lat="43.51904" lon="5.87533">
        <ele>456</ele>
        <time>2010-01-01T00:27:21Z</time>
      </trkpt>
      <trkpt lat="43.51887" lon="5.87555">
        <ele>454</ele>
        <time>2010-01-01T00:27:26Z</time>
      </trkpt>
      <trkpt lat="43.51873" lon="5.87566">
        <ele>452</ele>
        <time>2010-01-01T00:27:29Z</time>
      </trkpt>
      <trkpt lat="43.51865" lon="5.87564">
        <ele>452</ele>
        <time>2010-01-01T00:27:31Z</time>
      </trkpt>
      <trkpt lat="43.51857" lon="5.87553">
        <ele>453</ele>
        <time>2010-01-01T00:27:33Z</time>
      </trkpt>
      <trkpt lat="43.51855" lon="5.87537">
        <ele>454</ele>
        <time>2010-01-01T00:27:35Z</time>
      </trkpt>
      <trkpt lat="43.51858" lon="5.87529">
        <ele>455</ele>
        <time>2010-01-01T00:27:37Z</time>
      </trkpt>
      <trkpt lat="43.51868" lon="5.87512">
        <ele>456</ele>
        <time>2010-01-01T00:27:40Z</time>
      </trkpt>
      <trkpt lat="43.51892" lon="5.87488">
        <ele>460</ele>
        <time>2010-01-01T00:27:46Z</time>
      </trkpt>
      <trkpt lat="43.5193" lon="5.87455">
        <ele>464</ele>
        <time>2010-01-01T00:27:55Z</time>
      </trkpt>
      <trkpt lat="43.51939" lon="5.87445">
        <ele>465</ele>
        <time>2010-01-01T00:27:57Z</time>
      </trkpt>
      <trkpt lat="43.51962" lon="5.87412">
        <ele>468</ele>
        <time>2010-01-01T00:28:04Z</time>
      </trkpt>
      <trkpt lat="43.51989" lon="5.87368">
        <ele>472</ele>
        <time>2010-01-01T00:28:12Z</time>
      </trkpt>
      <trkpt lat="43.52004" lon="5.87349">
        <ele>473</ele>
        <time>2010-01-01T00:28:16Z</time>
      </trkpt>
      <trkpt lat="43.52058" lon="5.87289">
        <ele>478</ele>
        <time>2010-01-01T00:28:30Z</time>
      </trkpt>
      <trkpt lat="43.5208" lon="5.87268">
        <ele>478</ele>
        <time>2010-01-01T00:28:35Z</time>
      </trkpt>
      <trkpt lat="43.52095" lon="5.87258">
        <ele>479</ele>
        <time>2010-01-01T00:28:39Z</time>
      </trkpt>
      <trkpt lat="43.52122" lon="5.87251">
        <ele>481</ele>
        <time>2010-01-01T00:28:44Z</time>
      </trkpt>
      <trkpt lat="43.52146" lon="5.87231">
        <ele>484</ele>
        <time>2010-01-01T00:28:50Z</time>
      </trkpt>
      <trkpt lat="43.52152" lon="5.87221">
        <ele>485</ele>
        <time>2010-01-01T00:28:52Z</time>
      </trkpt>
      <trkpt lat="43.52348" lon="5.86839">
        <ele>497</ele>
        <time>2010-01-01T00:30:00Z</time>
      </trkpt>
      <trkpt lat="43.52353" lon="5.86825">
        <ele>497</ele>
        <time>2010-01-01T00:30:02Z</time>
      </trkpt>
      <trkpt lat="43.52362" lon="5.86778">
        <ele>497</ele>
        <time>2010-01-01T00:30:09Z</time>
      </trkpt>
      <trkpt lat="43.52369" lon="5.86729">
        <ele>495</ele>
        <time>2010-01-01T00:30:16Z</time>
      </trkpt>
      <trkpt lat="43.52376" lon="5.86639">
        <ele>495</ele>
        <time>2010-01-01T00:30:29Z</time>
      </trkpt>
      <trkpt lat="43.52377" lon="5.86594">
        <ele>493</ele>
        <time>2010-01-01T00:30:36Z</time>
      </trkpt>
      <trkpt lat="43.5238" lon="5.86582">
        <ele>493</ele>
        <time>2010-01-01T00:30:38Z</time>
      </trkpt>
      <trkpt lat="43.52388" lon="5.86563">
        <ele>492</ele>
        <time>2010-01-01T00:30:41Z</time>
      </trkpt>
      <trkpt lat="43.52404" lon="5.86553">
        <ele>492</ele>
        <time>2010-01-01T00:30:45Z</time>
      </trkpt>
      <trkpt lat="43.52413" lon="5.8655">
        <ele>492</ele>
        <time>2010-01-01T00:30:46Z</time>
      </trkpt>
      <trkpt lat="43.52484" lon="5.86554">
        <ele>490</ele>
        <time>2010-01-01T00:31:01Z</time>
      </trkpt>
      <trkpt lat="43.52509" lon="5.86552">
        <ele>491</ele>
        <time>2010-01-01T00:31:06Z</time>
      </trkpt>
      <trkpt lat="43.52531" lon="5.86546">
        <ele>491</ele>
        <time>2010-01-01T00:31:10Z</time>
      </trkpt>
      <trkpt lat="43.5255" lon="5.86526">
        <ele>490</ele>
        <time>2010-01-01T00:31:15Z</time>
      </trkpt>
      <trkpt lat="43.52594" lon="5.86456">
        <ele>489</ele>
        <time>2010-01-01T00:31:28Z</time>
      </trkpt>
      <trkpt lat="43.52621" lon="5.86407">
        <ele>489</ele>
        <time>2010-01-01T00:31:37Z</time>
      </trkpt>
      <trkpt lat="43.52656" lon="5.86337">
        <ele>487</ele>
        <time>2010-01-01T00:31:50Z</time>
      </trkpt>
      <trkpt lat="43.52678" lon="5.86281">
        <ele>485</ele>
        <time>2010-01-01T00:31:59Z</time>
      </trkpt>
      <trkpt lat="43.52736" lon="5.86113">
        <ele>489</ele>
        <time>2010-01-01T00:32:26Z</time>
      </trkpt>
      <trkpt lat="43.5278" lon="5.86025">
        <ele>486</ele>
        <time>2010-01-01T00:32:41Z</time>
      </trkpt>
      <trkpt lat="43.53347" lon="5.85163">
        <ele>508</ele>
        <time>2010-01-01T00:35:30Z</time>
      </trkpt>
      <trkpt lat="43.53367" lon="5.85138">
        <ele>511</ele>
        <time>2010-01-01T00:35:36Z</time>
      </trkpt>
      <trkpt lat="43.53387" lon="5.85121">
        <ele>511</ele>
        <time>2010-01-01T00:35:40Z</time>
      </trkpt>
      <trkpt lat="43.53399" lon="5.85115">
        <ele>510</ele>
        <time>2010-01-01T00:35:43Z</time>
      </trkpt>
      <trkpt lat="43.53733" lon="5.85072">
        <ele>512</ele>
        <time>2010-01-01T00:36:50Z</time>
      </trkpt>
      <trkpt lat="43.53768" lon="5.85065">
        <ele>511</ele>
        <time>2010-01-01T00:36:57Z</time>
      </trkpt>
      <trkpt lat="43.53797" lon="5.85054">
        <ele>511</ele>
        <time>2010-01-01T00:37:03Z</time>
      </trkpt>
      <trkpt lat="43.53877" lon="5.85006">
        <ele>513</ele>
        <time>2010-01-01T00:37:21Z</time>
      </trkpt>
      <trkpt lat="43.53891" lon="5.85">
        <ele>512</ele>
        <time>2010-01-01T00:37:24Z</time>
      </trkpt>
      <trkpt lat="43.53919" lon="5.84992">
        <ele>510</ele>
        <time>2010-01-01T00:37:29Z</time>
      </trkpt>
      <trkpt lat="43.53934" lon="5.8499">
        <ele>511</ele>
        <time>2010-01-01T00:37:32Z</time>
      </trkpt>
      <trkpt lat="43.53998" lon="5.84988">
        <ele>510</ele>
        <time>2010-01-01T00:37:45Z</time>
      </trkpt>
      <trkpt lat="43.54278" lon="5.84966">
        <ele>511</ele>
        <time>2010-01-01T00:38:41Z</time>
      </trkpt>
      <trkpt lat="43.54463" lon="5.84955">
        <ele>511</ele>
        <time>2010-01-01T00:39:18Z</time>
      </trkpt>
      <trkpt lat="43.5505" lon="5.84934">
        <ele>515</ele>
        <time>2010-01-01T00:41:16Z</time>
      </trkpt>
      <trkpt lat="43.55204" lon="5.84931">
        <ele>518</ele>
        <time>2010-01-01T00:41:47Z</time>
      </trkpt>
      <trkpt lat="43.55251" lon="5.84928">
        <ele>518</ele>
        <time>2010-01-01T00:41:56Z</time>
      </trkpt>
      <trkpt lat="43.55271" lon="5.84923">
        <ele>518</ele>
        <time>2010-01-01T00:42:00Z</time>
      </trkpt>
      <trkpt lat="43.55281" lon="5.84917">
        <ele>518</ele>
        <time>2010-01-01T00:42:02Z</time>
      </trkpt>
      <trkpt lat="43.55299" lon="5.849">
        <ele>518</ele>
        <time>2010-01-01T00:42:07Z</time>
      </trkpt>
      <trkpt lat="43.55325" lon="5.84868">
        <ele>516</ele>
        <time>2010-01-01T00:42:14Z</time>
      </trkpt>
      <trkpt lat="43.5538" lon="5.8479">
        <ele>511</ele>
        <time>2010-01-01T00:42:29Z</time>
      </trkpt>
      <trkpt lat="43.55388" lon="5.84781">
        <ele>511</ele>
        <time>2010-01-01T00:42:32Z</time>
      </trkpt>
      <trkpt lat="43.55397" lon="5.84775">
        <ele>512</ele>
        <time>2010-01-01T00:42:34Z</time>
      </trkpt>
      <trkpt lat="43.55408" lon="5.84773">
        <ele>512</ele>
        <time>2010-01-01T00:42:36Z</time>
      </trkpt>
      <trkpt lat="43.55562" lon="5.84766">
        <ele>513</ele>
        <time>2010-01-01T00:43:07Z</time>
      </trkpt>
      <trkpt lat="43.55632" lon="5.84768">
        <ele>512</ele>
        <time>2010-01-01T00:43:21Z</time>
      </trkpt>
      <trkpt lat="43.55713" lon="5.84783">
        <ele>513</ele>
        <time>2010-01-01T00:43:37Z</time>
      </trkpt>
      <trkpt lat="43.55781" lon="5.84804">
        <ele>506</ele>
        <time>2010-01-01T00:43:51Z</time>
      </trkpt>
      <trkpt lat="43.558" lon="5.84808">
        <ele>504</ele>
        <time>2010-01-01T00:43:55Z</time>
      </trkpt>
      <trkpt lat="43.55817" lon="5.84808">
        <ele>503</ele>
        <time>2010-01-01T00:43:58Z</time>
      </trkpt>
      <trkpt lat="43.55847" lon="5.848">
        <ele>503</ele>
        <time>2010-01-01T00:44:04Z</time>
      </trkpt>
      <trkpt lat="43.55859" lon="5.84802">
        <ele>503</ele>
        <time>2010-01-01T00:44:07Z</time>
      </trkpt>
      <trkpt lat="43.55866" lon="5.84808">
        <ele>502</ele>
        <time>2010-01-01T00:44:08Z</time>
      </trkpt>
      <trkpt lat="43.55885" lon="5.84831">
        <ele>499</ele>
        <time>2010-01-01T00:44:13Z</time>
      </trkpt>
      <trkpt lat="43.55892" lon="5.84835">
        <ele>498</ele>
        <time>2010-01-01T00:44:15Z</time>
      </trkpt>
      <trkpt lat="43.55906" lon="5.84835">
        <ele>496</ele>
        <time>2010-01-01T00:44:18Z</time>
      </trkpt>
      <trkpt lat="43.55926" lon="5.84819">
        <ele>495</ele>
        <time>2010-01-01T00:44:22Z</time>
      </trkpt>
      <trkpt lat="43.55939" lon="5.84805">
        <ele>494</ele>
        <time>2010-01-01T00:44:26Z</time>
      </trkpt>
      <trkpt lat="43.55966" lon="5.84769">
        <ele>495</ele>
        <time>2010-01-01T00:44:33Z</time>
      </trkpt>
      <trkpt lat="43.56015" lon="5.84654">
        <ele>492</ele>
        <time>2010-01-01T00:44:52Z</time>
      </trkpt>
      <trkpt lat="43.56034" lon="5.84619">
        <ele>488</ele>
        <time>2010-01-01T00:44:59Z</time>
      </trkpt>
      <trkpt lat="43.56047" lon="5.84602">
        <ele>487</ele>
        <time>2010-01-01T00:45:02Z</time>
      </trkpt>
      <trkpt lat="43.5607" lon="5.84583">
        <ele>486</ele>
        <time>2010-01-01T00:45:08Z</time>
      </trkpt>
      <trkpt lat="43.5611" lon="5.84562">
        <ele>487</ele>
        <time>2010-01-01T00:45:16Z</time>
      </trkpt>
      <trkpt lat="43.56154" lon="5.84548">
        <ele>484</ele>
        <time>2010-01-01T00:45:25Z</time>
      </trkpt>
      <trkpt lat="43.56171" lon="5.84551">
        <ele>483</ele>
        <time>2010-01-01T00:45:29Z</time>
      </trkpt>
      <trkpt lat="43.56188" lon="5.84566">
        <ele>484</ele>
        <time>2010-01-01T00:45:33Z</time>
      </trkpt>
      <trkpt lat="43.56207" lon="5.84587">
        <ele>485</ele>
        <time>2010-01-01T00:45:38Z</time>
      </trkpt>
      <trkpt lat="43.56237" lon="5.8463">
        <ele>486</ele>
        <time>2010-01-01T00:45:46Z</time>
      </trkpt>
      <trkpt lat="43.56248" lon="5.84652">
        <ele>487</ele>
        <time>2010-01-01T00:45:50Z</time>
      </trkpt>
      <trkpt lat="43.56265" lon="5.84798">
        <ele>488</ele>
        <time>2010-01-01T00:46:12Z</time>
      </trkpt>
      <trkpt lat="43.56272" lon="5.84826">
        <ele>489</ele>
        <time>2010-01-01T00:46:16Z</time>
      </trkpt>
      <trkpt lat="43.56277" lon="5.84837">
        <ele>489</ele>
        <time>2010-01-01T00:46:18Z</time>
      </trkpt>
      <trkpt lat="43.56293" lon="5.84855">
        <ele>490</ele>
        <time>2010-01-01T00:46:22Z</time>
      </trkpt>
      <trkpt lat="43.56335" lon="5.8489">
        <ele>490</ele>
        <time>2010-01-01T00:46:32Z</time>
      </trkpt>
      <trkpt lat="43.564" lon="5.84931">
        <ele>496</ele>
        <time>2010-01-01T00:46:46Z</time>
      </trkpt>
      <trkpt lat="43.56419" lon="5.84951">
        <ele>496</ele>
        <time>2010-01-01T00:46:51Z</time>
      </trkpt>
      <trkpt lat="43.56544" lon="5.85098">
        <ele>497</ele>
        <time>2010-01-01T00:47:24Z</time>
      </trkpt>
      <trkpt lat="43.56576" lon="5.8513">
        <ele>494</ele>
        <time>2010-01-01T00:47:32Z</time>
      </trkpt>
      <trkpt lat="43.56585" lon="5.85134">
        <ele>494</ele>
        <time>2010-01-01T00:47:34Z</time>
      </trkpt>
      <trkpt lat="43.56594" lon="5.85134">
        <ele>493</ele>
        <time>2010-01-01T00:47:35Z</time>
      </trkpt>
      <trkpt lat="43.56612" lon="5.85128">
        <ele>493</ele>
        <time>2010-01-01T00:47:39Z</time>
      </trkpt>
      <trkpt lat="43.5662" lon="5.85122">
        <ele>492</ele>
        <time>2010-01-01T00:47:41Z</time>
      </trkpt>
      <trkpt lat="43.56632" lon="5.85103">
        <ele>492</ele>
        <time>2010-01-01T00:47:45Z</time>
      </trkpt>
      <trkpt lat="43.56645" lon="5.85067">
        <ele>492</ele>
        <time>2010-01-01T00:47:50Z</time>
      </trkpt>
      <trkpt lat="43.56657" lon="5.85043">
        <ele>492</ele>
        <time>2010-01-01T00:47:55Z</time>
      </trkpt>
      <trkpt lat="43.56678" lon="5.85007">
        <ele>491</ele>
        <time>2010-01-01T00:48:01Z</time>
      </trkpt>
      <trkpt lat="43.56694" lon="5.84968">
        <ele>489</ele>
        <time>2010-01-01T00:48:08Z</time>
      </trkpt>
      <trkpt lat="43.56702" lon="5.84917">
        <ele>490</ele>
        <time>2010-01-01T00:48:15Z</time>
      </trkpt>
      <trkpt lat="43.56706" lon="5.84907">
        <ele>490</ele>
        <time>2010-01-01T00:48:17Z</time>
      </trkpt>
      <trkpt lat="43.5672" lon="5.84895">
        <ele>489</ele>
        <time>2010-01-01T00:48:20Z</time>
      </trkpt>
      <trkpt lat="43.56728" lon="5.84894">
        <ele>488</ele>
        <time>2010-01-01T00:48:22Z</time>
      </trkpt>
      <trkpt lat="43.56737" lon="5.84896">
        <ele>487</ele>
        <time>2010-01-01T00:48:24Z</time>
      </trkpt>
      <trkpt lat="43.56776" lon="5.84926">
        <ele>483</ele>
        <time>2010-01-01T00:48:33Z</time>
      </trkpt>
      <trkpt lat="43.56795" lon="5.84927">
        <ele>481</ele>
        <time>2010-01-01T00:48:37Z</time>
      </trkpt>
      <trkpt lat="43.56805" lon="5.84924">
        <ele>480</ele>
        <time>2010-01-01T00:48:39Z</time>
      </trkpt>
      <trkpt lat="43.56839" lon="5.84897">
        <ele>481</ele>
        <time>2010-01-01T00:48:46Z</time>
      </trkpt>
      <trkpt lat="43.56855" lon="5.84888">
        <ele>482</ele>
        <time>2010-01-01T00:48:50Z</time>
      </trkpt>
      <trkpt lat="43.56869" lon="5.84891">
        <ele>483</ele>
        <time>2010-01-01T00:48:53Z</time>
      </trkpt>
      <trkpt lat="43.56875" lon="5.84897">
        <ele>483</ele>
        <time>2010-01-01T00:48:54Z</time>
      </trkpt>
      <trkpt lat="43.56882" lon="5.84913">
        <ele>484</ele>
        <time>2010-01-01T00:48:57Z</time>
      </trkpt>
      <trkpt lat="43.56889" lon="5.8495">
        <ele>482</ele>
        <time>2010-01-01T00:49:02Z</time>
      </trkpt>
      <trkpt lat="43.569" lon="5.84974">
        <ele>481</ele>
        <time>2010-01-01T00:49:07Z</time>
      </trkpt>
      <trkpt lat="43.56926" lon="5.85015">
        <ele>481</ele>
        <time>2010-01-01T00:49:14Z</time>
      </trkpt>
      <trkpt lat="43.5695" lon="5.85241">
        <ele>486</ele>
        <time>2010-01-01T00:49:48Z</time>
      </trkpt>
      <trkpt lat="43.56962" lon="5.85319">
        <ele>489</ele>
        <time>2010-01-01T00:49:59Z</time>
      </trkpt>
      <trkpt lat="43.56971" lon="5.85352">
        <ele>491</ele>
        <time>2010-01-01T00:50:04Z</time>
      </trkpt>
      <trkpt lat="43.57073" lon="5.85647">
        <ele>502</ele>
        <time>2010-01-01T00:50:52Z</time>
      </trkpt>
      <trkpt lat="43.57122" lon="5.85783">
        <ele>508</ele>
        <time>2010-01-01T00:51:14Z</time>
      </trkpt>
      <trkpt lat="43.5717" lon="5.85906">
        <ele>512</ele>
        <time>2010-01-01T00:51:34Z</time>
      </trkpt>
      <trkpt lat="43.57198" lon="5.85971">
        <ele>517</ele>
        <time>2010-01-01T00:51:45Z</time>
      </trkpt>
      <trkpt lat="43.57257" lon="5.86097">
        <ele>519</ele>
        <time>2010-01-01T00:52:07Z</time>
      </trkpt>
      <trkpt lat="43.57381" lon="5.86352">
        <ele>524</ele>
        <time>2010-01-01T00:52:51Z</time>
      </trkpt>
      <trkpt lat="43.57398" lon="5.86406">
        <ele>523</ele>
        <time>2010-01-01T00:53:00Z</time>
      </trkpt>
      <trkpt lat="43.57397" lon="5.86406">
        <ele>523</ele>
        <time>2010-01-01T00:53:00Z</time>
      </trkpt>
      <trkpt lat="43.57535" lon="5.86924">
        <ele>519</ele>
        <time>2010-01-01T00:54:20Z</time>
      </trkpt>
      <trkpt lat="43.57568" lon="5.87053">
        <ele>517</ele>
        <time>2010-01-01T00:54:40Z</time>
      </trkpt>
      <trkpt lat="43.57589" lon="5.87126">
        <ele>515</ele>
        <time>2010-01-01T00:54:51Z</time>
      </trkpt>
      <trkpt lat="43.57701" lon="5.87557">
        <ele>521</ele>
        <time>2010-01-01T00:55:58Z</time>
      </trkpt>
      <trkpt lat="43.57711" lon="5.87586">
        <ele>522</ele>
        <time>2010-01-01T00:56:02Z</time>
      </trkpt>
      <trkpt lat="43.57725" lon="5.8761">
        <ele>524</ele>
        <time>2010-01-01T00:56:07Z</time>
      </trkpt>
      <trkpt lat="43.57752" lon="5.87646">
        <ele>523</ele>
        <time>2010-01-01T00:56:14Z</time>
      </trkpt>
      <trkpt lat="43.57792" lon="5.87704">
        <ele>523</ele>
        <time>2010-01-01T00:56:26Z</time>
      </trkpt>
      <trkpt lat="43.578" lon="5.87727">
        <ele>523</ele>
        <time>2010-01-01T00:56:30Z</time>
      </trkpt>
      <trkpt lat="43.57802" lon="5.8774">
        <ele>522</ele>
        <time>2010-01-01T00:56:32Z</time>
      </trkpt>
      <trkpt lat="43.57799" lon="5.87792">
        <ele>520</ele>
        <time>2010-01-01T00:56:39Z</time>
      </trkpt>
      <trkpt lat="43.57792" lon="5.87873">
        <ele>520</ele>
        <time>2010-01-01T00:56:51Z</time>
      </trkpt>
      <trkpt lat="43.57784" lon="5.88017">
        <ele>520</ele>
        <time>2010-01-01T00:57:12Z</time>
      </trkpt>
      <trkpt lat="43.57784" lon="5.88046">
        <ele>521</ele>
        <time>2010-01-01T00:57:16Z</time>
      </trkpt>
      <trkpt lat="43.57791" lon="5.88071">
        <ele>521</ele>
        <time>2010-01-01T00:57:20Z</time>
      </trkpt>
      <trkpt lat="43.57798" lon="5.88082">
        <ele>521</ele>
        <time>2010-01-01T00:57:22Z</time>
      </trkpt>
      <trkpt lat="43.5782" lon="5.88105">
        <ele>519</ele>
        <time>2010-01-01T00:57:28Z</time>
      </trkpt>
      <trkpt lat="43.57873" lon="5.88151">
        <ele>513</ele>
        <time>2010-01-01T00:57:40Z</time>
      </trkpt>
      <trkpt lat="43.57943" lon="5.882">
        <ele>511</ele>
        <time>2010-01-01T00:57:56Z</time>
      </trkpt>
      <trkpt lat="43.57972" lon="5.88215">
        <ele>512</ele>
        <time>2010-01-01T00:58:02Z</time>
      </trkpt>
      <trkpt lat="43.58014" lon="5.88229">
        <ele>509</ele>
        <time>2010-01-01T00:58:11Z</time>
      </trkpt>
      <trkpt lat="43.58155" lon="5.88267">
        <ele>502</ele>
        <time>2010-01-01T00:58:39Z</time>
      </trkpt>
      <trkpt lat="43.58273" lon="5.88305">
        <ele>500</ele>
        <time>2010-01-01T00:59:04Z</time>
      </trkpt>
      <trkpt lat="43.58396" lon="5.88338">
        <ele>501</ele>
        <time>2010-01-01T00:59:29Z</time>
      </trkpt>
      <trkpt lat="43.5844" lon="5.88361">
        <ele>496</ele>
        <time>2010-01-01T00:59:38Z</time>
      </trkpt>
      <trkpt lat="43.58458" lon="5.88367">
        <ele>496</ele>
        <time>2010-01-01T00:59:42Z</time>
      </trkpt>
      <trkpt lat="43.58477" lon="5.88359">
        <ele>495</ele>
        <time>2010-01-01T00:59:46Z</time>
      </trkpt>
      <trkpt lat="43.58533" lon="5.88328">
        <ele>493</ele>
        <time>2010-01-01T00:59:58Z</time>
      </trkpt>
      <trkpt lat="43.58553" lon="5.88321">
        <ele>492</ele>
        <time>2010-01-01T01:00:02Z</time>
      </trkpt>
      <trkpt lat="43.58595" lon="5.88316">
        <ele>485</ele>
        <time>2010-01-01T01:00:10Z</time>
      </trkpt>
      <trkpt lat="43.58636" lon="5.88302">
        <ele>479</ele>
        <time>2010-01-01T01:00:19Z</time>
      </trkpt>
      <trkpt lat="43.58664" lon="5.88296">
        <ele>478</ele>
        <time>2010-01-01T01:00:25Z</time>
      </trkpt>
      <trkpt lat="43.58702" lon="5.88294">
        <ele>473</ele>
        <time>2010-01-01T01:00:32Z</time>
      </trkpt>
      <trkpt lat="43.58712" lon="5.88299">
        <ele>473</ele>
        <time>2010-01-01T01:00:34Z</time>
      </trkpt>
      <trkpt lat="43.58716" lon="5.88312">
        <ele>474</ele>
        <time>2010-01-01T01:00:36Z</time>
      </trkpt>
      <trkpt lat="43.58716" lon="5.8832">
        <ele>475</ele>
        <time>2010-01-01T01:00:38Z</time>
      </trkpt>
      <trkpt lat="43.58714" lon="5.88328">
        <ele>476</ele>
        <time>2010-01-01T01:00:39Z</time>
      </trkpt>
      <trkpt lat="43.58706" lon="5.88339">
        <ele>480</ele>
        <time>2010-01-01T01:00:41Z</time>
      </trkpt>
      <trkpt lat="43.58695" lon="5.88351">
        <ele>484</ele>
        <time>2010-01-01T01:00:44Z</time>
      </trkpt>
      <trkpt lat="43.58693" lon="5.88357">
        <ele>484</ele>
        <time>2010-01-01T01:00:45Z</time>
      </trkpt>
      <trkpt lat="43.58698" lon="5.88368">
        <ele>485</ele>
        <time>2010-01-01T01:00:47Z</time>
      </trkpt>
      <trkpt lat="43.58707" lon="5.88376">
        <ele>485</ele>
        <time>2010-01-01T01:00:49Z</time>
      </trkpt>
      <trkpt lat="43.58727" lon="5.88381">
        <ele>483</ele>
        <time>2010-01-01T01:00:53Z</time>
      </trkpt>
      <trkpt lat="43.58765" lon="5.88381">
        <ele>476</ele>
        <time>2010-01-01T01:01:01Z</time>
      </trkpt>
      <trkpt lat="43.5878" lon="5.88383">
        <ele>473</ele>
        <time>2010-01-01T01:01:04Z</time>
      </trkpt>
      <trkpt lat="43.58802" lon="5.884">
        <ele>476</ele>
        <time>2010-01-01T01:01:09Z</time>
      </trkpt>
      <trkpt lat="43.58812" lon="5.88401">
        <ele>476</ele>
        <time>2010-01-01T01:01:11Z</time>
      </trkpt>
      <trkpt lat="43.58817" lon="5.88397">
        <ele>475</ele>
        <time>2010-01-01T01:01:12Z</time>
      </trkpt>
      <trkpt lat="43.58823" lon="5.88376">
        <ele>470</ele>
        <time>2010-01-01T01:01:15Z</time>
      </trkpt>
      <trkpt lat="43.58831" lon="5.88355">
        <ele>466</ele>
        <time>2010-01-01T01:01:18Z</time>
      </trkpt>
      <trkpt lat="43.58842" lon="5.88344">
        <ele>463</ele>
        <time>2010-01-01T01:01:21Z</time>
      </trkpt>
      <trkpt lat="43.58846" lon="5.88344">
        <ele>463</ele>
        <time>2010-01-01T01:01:22Z</time>
      </trkpt>
      <trkpt lat="43.58891" lon="5.88374">
        <ele>465</ele>
        <time>2010-01-01T01:01:32Z</time>
      </trkpt>
      <trkpt lat="43.58918" lon="5.88388">
        <ele>465</ele>
        <time>2010-01-01T01:01:38Z</time>
      </trkpt>
      <trkpt lat="43.58925" lon="5.88401">
        <ele>466</ele>
        <time>2010-01-01T01:01:40Z</time>
      </trkpt>
      <trkpt lat="43.58932" lon="5.88407">
        <ele>465</ele>
        <time>2010-01-01T01:01:42Z</time>
      </trkpt>
      <trkpt lat="43.58936" lon="5.88402">
        <ele>464</ele>
        <time>2010-01-01T01:01:43Z</time>
      </trkpt>
      <trkpt lat="43.58934" lon="5.88384">
        <ele>461</ele>
        <time>2010-01-01T01:01:45Z</time>
      </trkpt>
      <trkpt lat="43.58926" lon="5.88362">
        <ele>458</ele>
        <time>2010-01-01T01:01:49Z</time>
      </trkpt>
      <trkpt lat="43.58914" lon="5.88338">
        <ele>454</ele>
        <time>2010-01-01T01:01:53Z</time>
      </trkpt>
      <trkpt lat="43.58899" lon="5.88323">
        <ele>452</ele>
        <time>2010-01-01T01:01:57Z</time>
      </trkpt>
      <trkpt lat="43.58864" lon="5.88298">
        <ele>450</ele>
        <time>2010-01-01T01:02:05Z</time>
      </trkpt>
      <trkpt lat="43.58841" lon="5.88286">
        <ele>450</ele>
        <time>2010-01-01T01:02:10Z</time>
      </trkpt>
      <trkpt lat="43.5881" lon="5.88276">
        <ele>451</ele>
        <time>2010-01-01T01:02:16Z</time>
      </trkpt>
      <trkpt lat="43.58798" lon="5.88268">
        <ele>452</ele>
        <time>2010-01-01T01:02:19Z</time>
      </trkpt>
      <trkpt lat="43.58795" lon="5.88261">
        <ele>452</ele>
        <time>2010-01-01T01:02:20Z</time>
      </trkpt>
      <trkpt lat="43.58794" lon="5.88253">
        <ele>452</ele>
        <time>2010-01-01T01:02:21Z</time>
      </trkpt>
      <trkpt lat="43.58798" lon="5.88238">
        <ele>454</ele>
        <time>2010-01-01T01:02:23Z</time>
      </trkpt>
      <trkpt lat="43.58802" lon="5.88231">
        <ele>454</ele>
        <time>2010-01-01T01:02:25Z</time>
      </trkpt>
      <trkpt lat="43.58823" lon="5.88219">
        <ele>457</ele>
        <time>2010-01-01T01:02:29Z</time>
      </trkpt>
      <trkpt lat="43.58842" lon="5.88201">
        <ele>461</ele>
        <time>2010-01-01T01:02:34Z</time>
      </trkpt>
      <trkpt lat="43.58876" lon="5.88157">
        <ele>459</ele>
        <time>2010-01-01T01:02:43Z</time>
      </trkpt>
      <trkpt lat="43.58899" lon="5.88131">
        <ele>457</ele>
        <time>2010-01-01T01:02:49Z</time>
      </trkpt>
      <trkpt lat="43.58917" lon="5.88124">
        <ele>454</ele>
        <time>2010-01-01T01:02:53Z</time>
      </trkpt>
      <trkpt lat="43.58954" lon="5.88123">
        <ele>447</ele>
        <time>2010-01-01T01:03:00Z</time>
      </trkpt>
      <trkpt lat="43.58962" lon="5.8812">
        <ele>445</ele>
        <time>2010-01-01T01:03:02Z</time>
      </trkpt>
      <trkpt lat="43.58987" lon="5.88106">
        <ele>443</ele>
        <time>2010-01-01T01:03:07Z</time>
      </trkpt>
      <trkpt lat="43.59023" lon="5.88078">
        <ele>439</ele>
        <time>2010-01-01T01:03:16Z</time>
      </trkpt>
      <trkpt lat="43.59036" lon="5.88071">
        <ele>438</ele>
        <time>2010-01-01T01:03:18Z</time>
      </trkpt>
      <trkpt lat="43.59042" lon="5.8807">
        <ele>437</ele>
        <time>2010-01-01T01:03:20Z</time>
      </trkpt>
      <trkpt lat="43.59058" lon="5.88084">
        <ele>433</ele>
        <time>2010-01-01T01:03:23Z</time>
      </trkpt>
      <trkpt lat="43.59078" lon="5.88126">
        <ele>427</ele>
        <time>2010-01-01T01:03:31Z</time>
      </trkpt>
      <trkpt lat="43.59085" lon="5.88136">
        <ele>426</ele>
        <time>2010-01-01T01:03:33Z</time>
      </trkpt>
      <trkpt lat="43.59108" lon="5.88162">
        <ele>423</ele>
        <time>2010-01-01T01:03:39Z</time>
      </trkpt>
      <trkpt lat="43.59143" lon="5.88193">
        <ele>418</ele>
        <time>2010-01-01T01:03:47Z</time>
      </trkpt>
      <trkpt lat="43.59176" lon="5.8821">
        <ele>417</ele>
        <time>2010-01-01T01:03:54Z</time>
      </trkpt>
      <trkpt lat="43.59191" lon="5.88211">
        <ele>416</ele>
        <time>2010-01-01T01:03:57Z</time>
      </trkpt>
      <trkpt lat="43.59213" lon="5.88187">
        <ele>417</ele>
        <time>2010-01-01T01:04:03Z</time>
      </trkpt>
      <trkpt lat="43.59223" lon="5.88183">
        <ele>417</ele>
        <time>2010-01-01T01:04:05Z</time>
      </trkpt>
      <trkpt lat="43.59226" lon="5.88184">
        <ele>417</ele>
        <time>2010-01-01T01:04:05Z</time>
      </trkpt>
      <trkpt lat="43.59231" lon="5.88192">
        <ele>417</ele>
        <time>2010-01-01T01:04:07Z</time>
      </trkpt>
      <trkpt lat="43.59233" lon="5.88197">
        <ele>416</ele>
        <time>2010-01-01T01:04:08Z</time>
      </trkpt>
      <trkpt lat="43.59235" lon="5.88204">
        <ele>416</ele>
        <time>2010-01-01T01:04:09Z</time>
      </trkpt>
      <trkpt lat="43.59236" lon="5.88236">
        <ele>416</ele>
        <time>2010-01-01T01:04:14Z</time>
      </trkpt>
      <trkpt lat="43.59239" lon="5.88244">
        <ele>415</ele>
        <time>2010-01-01T01:04:15Z</time>
      </trkpt>
      <trkpt lat="43.59242" lon="5.88249">
        <ele>415</ele>
        <time>2010-01-01T01:04:16Z</time>
      </trkpt>
      <trkpt lat="43.59268" lon="5.88271">
        <ele>414</ele>
        <time>2010-01-01T01:04:22Z</time>
      </trkpt>
      <trkpt lat="43.5927" lon="5.88244">
        <ele>413</ele>
        <time>2010-01-01T01:04:26Z</time>
      </trkpt>
      <trkpt lat="43.59268" lon="5.88271">
        <ele>414</ele>
        <time>2010-01-01T01:04:30Z</time>
      </trkpt>
      <trkpt lat="43.59268" lon="5.88292">
        <ele>414</ele>
        <time>2010-01-01T01:04:33Z</time>
      </trkpt>
      <trkpt lat="43.59274" lon="5.88477">
        <ele>409</ele>
        <time>2010-01-01T01:05:00Z</time>
      </trkpt>
      <trkpt lat="43.59288" lon="5.88774">
        <ele>402</ele>
        <time>2010-01-01T01:05:43Z</time>
      </trkpt>
      <trkpt lat="43.59285" lon="5.88811">
        <ele>402</ele>
        <time>2010-01-01T01:05:48Z</time>
      </trkpt>
      <trkpt lat="43.59273" lon="5.88859">
        <ele>402</ele>
        <time>2010-01-01T01:05:56Z</time>
      </trkpt>
      <trkpt lat="43.59234" lon="5.88986">
        <ele>400</ele>
        <time>2010-01-01T01:06:16Z</time>
      </trkpt>
      <trkpt lat="43.59231" lon="5.89002">
        <ele>399</ele>
        <time>2010-01-01T01:06:18Z</time>
      </trkpt>
      <trkpt lat="43.5923" lon="5.89018">
        <ele>401</ele>
        <time>2010-01-01T01:06:20Z</time>
      </trkpt>
      <trkpt lat="43.59231" lon="5.89034">
        <ele>402</ele>
        <time>2010-01-01T01:06:23Z</time>
      </trkpt>
      <trkpt lat="43.59235" lon="5.89049">
        <ele>402</ele>
        <time>2010-01-01T01:06:25Z</time>
      </trkpt>
      <trkpt lat="43.59271" lon="5.89137">
        <ele>403</ele>
        <time>2010-01-01T01:06:40Z</time>
      </trkpt>
      <trkpt lat="43.59282" lon="5.89158">
        <ele>401</ele>
        <time>2010-01-01T01:06:43Z</time>
      </trkpt>
      <trkpt lat="43.59337" lon="5.89236">
        <ele>391</ele>
        <time>2010-01-01T01:06:59Z</time>
      </trkpt>
      <trkpt lat="43.59343" lon="5.89248">
        <ele>391</ele>
        <time>2010-01-01T01:07:01Z</time>
      </trkpt>
      <trkpt lat="43.59346" lon="5.89263">
        <ele>390</ele>
        <time>2010-01-01T01:07:03Z</time>
      </trkpt>
      <trkpt lat="43.59354" lon="5.89318">
        <ele>387</ele>
        <time>2010-01-01T01:07:12Z</time>
      </trkpt>
      <trkpt lat="43.59359" lon="5.89339">
        <ele>386</ele>
        <time>2010-01-01T01:07:15Z</time>
      </trkpt>
      <trkpt lat="43.59367" lon="5.89355">
        <ele>384</ele>
        <time>2010-01-01T01:07:18Z</time>
      </trkpt>
      <trkpt lat="43.59389" lon="5.89381">
        <ele>382</ele>
        <time>2010-01-01T01:07:23Z</time>
      </trkpt>
      <trkpt lat="43.59397" lon="5.89396">
        <ele>381</ele>
        <time>2010-01-01T01:07:26Z</time>
      </trkpt>
      <trkpt lat="43.59402" lon="5.89412">
        <ele>381</ele>
        <time>2010-01-01T01:07:29Z</time>
      </trkpt>
      <trkpt lat="43.59406" lon="5.8943">
        <ele>381</ele>
        <time>2010-01-01T01:07:31Z</time>
      </trkpt>
      <trkpt lat="43.5941" lon="5.89472">
        <ele>381</ele>
        <time>2010-01-01T01:07:38Z</time>
      </trkpt>
      <trkpt lat="43.59413" lon="5.89491">
        <ele>381</ele>
        <time>2010-01-01T01:07:40Z</time>
      </trkpt>
      <trkpt lat="43.59419" lon="5.89509">
        <ele>380</ele>
        <time>2010-01-01T01:07:43Z</time>
      </trkpt>
      <trkpt lat="43.59446" lon="5.8955">
        <ele>380</ele>
        <time>2010-01-01T01:07:51Z</time>
      </trkpt>
      <trkpt lat="43.59461" lon="5.89587">
        <ele>381</ele>
        <time>2010-01-01T01:07:57Z</time>
      </trkpt>
      <trkpt lat="43.59496" lon="5.89738">
        <ele>379</ele>
        <time>2010-01-01T01:08:20Z</time>
      </trkpt>
      <trkpt lat="43.59505" lon="5.89783">
        <ele>376</ele>
        <time>2010-01-01T01:08:27Z</time>
      </trkpt>
      <trkpt lat="43.59512" lon="5.89831">
        <ele>375</ele>
        <time>2010-01-01T01:08:34Z</time>
      </trkpt>
      <trkpt lat="43.59514" lon="5.89856">
        <ele>375</ele>
        <time>2010-01-01T01:08:38Z</time>
      </trkpt>
      <trkpt lat="43.59516" lon="5.89905">
        <ele>374</ele>
        <time>2010-01-01T01:08:45Z</time>
      </trkpt>
      <trkpt lat="43.59513" lon="5.90027">
        <ele>369</ele>
        <time>2010-01-01T01:09:03Z</time>
      </trkpt>
      <trkpt lat="43.59514" lon="5.90051">
        <ele>369</ele>
        <time>2010-01-01T01:09:06Z</time>
      </trkpt>
      <trkpt lat="43.59518" lon="5.90074">
        <ele>370</ele>
        <time>2010-01-01T01:09:10Z</time>
      </trkpt>
      <trkpt lat="43.59525" lon="5.90095">
        <ele>370</ele>
        <time>2010-01-01T01:09:13Z</time>
      </trkpt>
      <trkpt lat="43.59573" lon="5.90216">
        <ele>369</ele>
        <time>2010-01-01T01:09:33Z</time>
      </trkpt>
      <trkpt lat="43.59583" lon="5.90234">
        <ele>368</ele>
        <time>2010-01-01T01:09:36Z</time>
      </trkpt>
      <trkpt lat="43.59594" lon="5.9025">
        <ele>367</ele>
        <time>2010-01-01T01:09:39Z</time>
      </trkpt>
      <trkpt lat="43.59644" lon="5.90295">
        <ele>365</ele>
        <time>2010-01-01T01:09:51Z</time>
      </trkpt>
      <trkpt lat="43.59654" lon="5.90307">
        <ele>365</ele>
        <time>2010-01-01T01:09:54Z</time>
      </trkpt>
      <trkpt lat="43.59662" lon="5.90321">
        <ele>365</ele>
        <time>2010-01-01T01:09:57Z</time>
      </trkpt>
      <trkpt lat="43.59669" lon="5.90337">
        <ele>364</ele>
        <time>2010-01-01T01:09:59Z</time>
      </trkpt>
      <trkpt lat="43.59685" lon="5.90387">
        <ele>364</ele>
        <time>2010-01-01T01:10:07Z</time>
      </trkpt>
      <trkpt lat="43.59691" lon="5.90423">
        <ele>365</ele>
        <time>2010-01-01T01:10:13Z</time>
      </trkpt>
      <trkpt lat="43.59692" lon="5.90441">
        <ele>365</ele>
        <time>2010-01-01T01:10:15Z</time>
      </trkpt>
      <trkpt lat="43.59691" lon="5.90512">
        <ele>367</ele>
        <time>2010-01-01T01:10:26Z</time>
      </trkpt>
      <trkpt lat="43.59692" lon="5.90583">
        <ele>368</ele>
        <time>2010-01-01T01:10:36Z</time>
      </trkpt>
      <trkpt lat="43.59688" lon="5.90618">
        <ele>367</ele>
        <time>2010-01-01T01:10:41Z</time>
      </trkpt>
      <trkpt lat="43.59682" lon="5.90651">
        <ele>368</ele>
        <time>2010-01-01T01:10:46Z</time>
      </trkpt>
      <trkpt lat="43.59679" lon="5.90686">
        <ele>368</ele>
        <time>2010-01-01T01:10:51Z</time>
      </trkpt>
      <trkpt lat="43.59681" lon="5.90705">
        <ele>368</ele>
        <time>2010-01-01T01:10:54Z</time>
      </trkpt>
      <trkpt lat="43.59695" lon="5.90795">
        <ele>367</ele>
        <time>2010-01-01T01:11:07Z</time>
      </trkpt>
      <trkpt lat="43.59704" lon="5.90827">
        <ele>366</ele>
        <time>2010-01-01T01:11:12Z</time>
      </trkpt>
      <trkpt lat="43.59704" lon="5.90826">
        <ele>366</ele>
        <time>2010-01-01T01:11:12Z</time>
      </trkpt>
      <trkpt lat="43.59761" lon="5.90992">
        <ele>357</ele>
        <time>2010-01-01T01:11:39Z</time>
      </trkpt>
      <trkpt lat="43.59775" lon="5.91024">
        <ele>356</ele>
        <time>2010-01-01T01:11:44Z</time>
      </trkpt>
      <trkpt lat="43.59792" lon="5.91051">
        <ele>354</ele>
        <time>2010-01-01T01:11:49Z</time>
      </trkpt>
      <trkpt lat="43.59814" lon="5.9107">
        <ele>353</ele>
        <time>2010-01-01T01:11:55Z</time>
      </trkpt>
      <trkpt lat="43.5984" lon="5.91086">
        <ele>353</ele>
        <time>2010-01-01T01:12:00Z</time>
      </trkpt>
      <trkpt lat="43.59848" lon="5.91101">
        <ele>355</ele>
        <time>2010-01-01T01:12:03Z</time>
      </trkpt>
      <trkpt lat="43.59851" lon="5.91114">
        <ele>355</ele>
        <time>2010-01-01T01:12:05Z</time>
      </trkpt>
      <trkpt lat="43.59852" lon="5.91128">
        <ele>355</ele>
        <time>2010-01-01T01:12:07Z</time>
      </trkpt>
      <trkpt lat="43.59844" lon="5.91179">
        <ele>354</ele>
        <time>2010-01-01T01:12:15Z</time>
      </trkpt>
      <trkpt lat="43.59841" lon="5.91221">
        <ele>353</ele>
        <time>2010-01-01T01:12:21Z</time>
      </trkpt>
      <trkpt lat="43.59831" lon="5.91485">
        <ele>349</ele>
        <time>2010-01-01T01:12:59Z</time>
      </trkpt>
      <trkpt lat="43.59832" lon="5.91534">
        <ele>347</ele>
        <time>2010-01-01T01:13:06Z</time>
      </trkpt>
      <trkpt lat="43.59839" lon="5.91678">
        <ele>345</ele>
        <time>2010-01-01T01:13:27Z</time>
      </trkpt>
      <trkpt lat="43.59845" lon="5.91722">
        <ele>346</ele>
        <time>2010-01-01T01:13:34Z</time>
      </trkpt>
      <trkpt lat="43.5985" lon="5.91743">
        <ele>347</ele>
        <time>2010-01-01T01:13:37Z</time>
      </trkpt>
      <trkpt lat="43.59881" lon="5.91825">
        <ele>347</ele>
        <time>2010-01-01T01:13:50Z</time>
      </trkpt>
      <trkpt lat="43.59886" lon="5.91848">
        <ele>347</ele>
        <time>2010-01-01T01:13:54Z</time>
      </trkpt>
      <trkpt lat="43.59914" lon="5.91993">
        <ele>345</ele>
        <time>2010-01-01T01:14:15Z</time>
      </trkpt>
      <trkpt lat="43.59917" lon="5.92018">
        <ele>345</ele>
        <time>2010-01-01T01:14:19Z</time>
      </trkpt>
      <trkpt lat="43.59918" lon="5.92043">
        <ele>345</ele>
        <time>2010-01-01T01:14:23Z</time>
      </trkpt>
      <trkpt lat="43.59917" lon="5.92094">
        <ele>344</ele>
        <time>2010-01-01T01:14:30Z</time>
      </trkpt>
      <trkpt lat="43.59894" lon="5.92359">
        <ele>340</ele>
        <time>2010-01-01T01:15:09Z</time>
      </trkpt>
      <trkpt lat="43.59893" lon="5.92381">
        <ele>339</ele>
        <time>2010-01-01T01:15:12Z</time>
      </trkpt>
      <trkpt lat="43.59894" lon="5.92401">
        <ele>338</ele>
        <time>2010-01-01T01:15:15Z</time>
      </trkpt>
      <trkpt lat="43.59898" lon="5.92418">
        <ele>337</ele>
        <time>2010-01-01T01:15:18Z</time>
      </trkpt>
      <trkpt lat="43.59947" lon="5.92512">
        <ele>339</ele>
        <time>2010-01-01T01:15:34Z</time>
      </trkpt>
      <trkpt lat="43.59978" lon="5.92591">
        <ele>339</ele>
        <time>2010-01-01T01:15:47Z</time>
      </trkpt>
      <trkpt lat="43.59987" lon="5.92609">
        <ele>339</ele>
        <time>2010-01-01T01:15:50Z</time>
      </trkpt>
      <trkpt lat="43.60008" lon="5.92643">
        <ele>340</ele>
        <time>2010-01-01T01:15:57Z</time>
      </trkpt>
      <trkpt lat="43.6002" lon="5.92658">
        <ele>341</ele>
        <time>2010-01-01T01:16:00Z</time>
      </trkpt>
      <trkpt lat="43.60033" lon="5.92669">
        <ele>341</ele>
        <time>2010-01-01T01:16:03Z</time>
      </trkpt>
      <trkpt lat="43.60071" lon="5.92696">
        <ele>342</ele>
        <time>2010-01-01T01:16:12Z</time>
      </trkpt>
      <trkpt lat="43.6008" lon="5.92706">
        <ele>343</ele>
        <time>2010-01-01T01:16:14Z</time>
      </trkpt>
      <trkpt lat="43.60087" lon="5.92719">
        <ele>344</ele>
        <time>2010-01-01T01:16:16Z</time>
      </trkpt>
      <trkpt lat="43.6009" lon="5.92733">
        <ele>343</ele>
        <time>2010-01-01T01:16:19Z</time>
      </trkpt>
      <trkpt lat="43.60091" lon="5.9278">
        <ele>341</ele>
        <time>2010-01-01T01:16:25Z</time>
      </trkpt>
      <trkpt lat="43.60091" lon="5.92796">
        <ele>341</ele>
        <time>2010-01-01T01:16:28Z</time>
      </trkpt>
      <trkpt lat="43.60094" lon="5.92812">
        <ele>341</ele>
        <time>2010-01-01T01:16:30Z</time>
      </trkpt>
      <trkpt lat="43.601" lon="5.92826">
        <ele>341</ele>
        <time>2010-01-01T01:16:32Z</time>
      </trkpt>
      <trkpt lat="43.60115" lon="5.92851">
        <ele>341</ele>
        <time>2010-01-01T01:16:37Z</time>
      </trkpt>
      <trkpt lat="43.60125" lon="5.9286">
        <ele>340</ele>
        <time>2010-01-01T01:16:40Z</time>
      </trkpt>
      <trkpt lat="43.60136" lon="5.92867">
        <ele>340</ele>
        <time>2010-01-01T01:16:42Z</time>
      </trkpt>
      <trkpt lat="43.60147" lon="5.92871">
        <ele>340</ele>
        <time>2010-01-01T01:16:44Z</time>
      </trkpt>
      <trkpt lat="43.60158" lon="5.92871">
        <ele>340</ele>
        <time>2010-01-01T01:16:46Z</time>
      </trkpt>
      <trkpt lat="43.60168" lon="5.92866">
        <ele>340</ele>
        <time>2010-01-01T01:16:49Z</time>
      </trkpt>
      <trkpt lat="43.60187" lon="5.92853">
        <ele>343</ele>
        <time>2010-01-01T01:16:53Z</time>
      </trkpt>
      <trkpt lat="43.60196" lon="5.92849">
        <ele>345</ele>
        <time>2010-01-01T01:16:55Z</time>
      </trkpt>
      <trkpt lat="43.60205" lon="5.9285">
        <ele>345</ele>
        <time>2010-01-01T01:16:57Z</time>
      </trkpt>
      <trkpt lat="43.60214" lon="5.92857">
        <ele>343</ele>
        <time>2010-01-01T01:16:59Z</time>
      </trkpt>
      <trkpt lat="43.60325" lon="5.92979">
        <ele>335</ele>
        <time>2010-01-01T01:17:27Z</time>
      </trkpt>
      <trkpt lat="43.60335" lon="5.92993">
        <ele>335</ele>
        <time>2010-01-01T01:17:30Z</time>
      </trkpt>
      <trkpt lat="43.60343" lon="5.93008">
        <ele>336</ele>
        <time>2010-01-01T01:17:33Z</time>
      </trkpt>
      <trkpt lat="43.6035" lon="5.93025">
        <ele>336</ele>
        <time>2010-01-01T01:17:35Z</time>
      </trkpt>
      <trkpt lat="43.60354" lon="5.93043">
        <ele>337</ele>
        <time>2010-01-01T01:17:38Z</time>
      </trkpt>
      <trkpt lat="43.60355" lon="5.93063">
        <ele>338</ele>
        <time>2010-01-01T01:17:41Z</time>
      </trkpt>
      <trkpt lat="43.60354" lon="5.93102">
        <ele>337</ele>
        <time>2010-01-01T01:17:47Z</time>
      </trkpt>
      <trkpt lat="43.6035" lon="5.93144">
        <ele>337</ele>
        <time>2010-01-01T01:17:53Z</time>
      </trkpt>
      <trkpt lat="43.60342" lon="5.93187">
        <ele>335</ele>
        <time>2010-01-01T01:17:59Z</time>
      </trkpt>
      <trkpt lat="43.60332" lon="5.93228">
        <ele>332</ele>
        <time>2010-01-01T01:18:06Z</time>
      </trkpt>
      <trkpt lat="43.60304" lon="5.93323">
        <ele>329</ele>
        <time>2010-01-01T01:18:20Z</time>
      </trkpt>
      <trkpt lat="43.603" lon="5.93341">
        <ele>329</ele>
        <time>2010-01-01T01:18:23Z</time>
      </trkpt>
      <trkpt lat="43.60298" lon="5.93358">
        <ele>329</ele>
        <time>2010-01-01T01:18:26Z</time>
      </trkpt>
      <trkpt lat="43.60299" lon="5.93376">
        <ele>329</ele>
        <time>2010-01-01T01:18:28Z</time>
      </trkpt>
      <trkpt lat="43.60304" lon="5.93392">
        <ele>330</ele>
        <time>2010-01-01T01:18:31Z</time>
      </trkpt>
      <trkpt lat="43.60317" lon="5.9342">
        <ele>329</ele>
        <time>2010-01-01T01:18:36Z</time>
      </trkpt>
      <trkpt lat="43.60323" lon="5.93436">
        <ele>329</ele>
        <time>2010-01-01T01:18:38Z</time>
      </trkpt>
      <trkpt lat="43.60327" lon="5.93454">
        <ele>330</ele>
        <time>2010-01-01T01:18:41Z</time>
      </trkpt>
      <trkpt lat="43.60329" lon="5.93472">
        <ele>331</ele>
        <time>2010-01-01T01:18:44Z</time>
      </trkpt>
      <trkpt lat="43.60331" lon="5.93554">
        <ele>330</ele>
        <time>2010-01-01T01:18:55Z</time>
      </trkpt>
      <trkpt lat="43.60336" lon="5.93597">
        <ele>328</ele>
        <time>2010-01-01T01:19:02Z</time>
      </trkpt>
      <trkpt lat="43.60344" lon="5.93662">
        <ele>328</ele>
        <time>2010-01-01T01:19:11Z</time>
      </trkpt>
      <trkpt lat="43.6036" lon="5.93749">
        <ele>325</ele>
        <time>2010-01-01T01:19:24Z</time>
      </trkpt>
      <trkpt lat="43.60371" lon="5.93788">
        <ele>325</ele>
        <time>2010-01-01T01:19:30Z</time>
      </trkpt>
      <trkpt lat="43.60379" lon="5.93806">
        <ele>324</ele>
        <time>2010-01-01T01:19:33Z</time>
      </trkpt>
      <trkpt lat="43.60414" lon="5.93869">
        <ele>323</ele>
        <time>2010-01-01T01:19:45Z</time>
      </trkpt>
      <trkpt lat="43.6042" lon="5.93886">
        <ele>324</ele>
        <time>2010-01-01T01:19:48Z</time>
      </trkpt>
      <trkpt lat="43.60425" lon="5.93904">
        <ele>324</ele>
        <time>2010-01-01T01:19:51Z</time>
      </trkpt>
      <trkpt lat="43.60427" lon="5.93924">
        <ele>325</ele>
        <time>2010-01-01T01:19:53Z</time>
      </trkpt>
      <trkpt lat="43.60426" lon="5.93966">
        <ele>324</ele>
        <time>2010-01-01T01:20:00Z</time>
      </trkpt>
      <trkpt lat="43.60421" lon="5.94006">
        <ele>322</ele>
        <time>2010-01-01T01:20:05Z</time>
      </trkpt>
      <trkpt lat="43.60408" lon="5.94065">
        <ele>322</ele>
        <time>2010-01-01T01:20:14Z</time>
      </trkpt>
      <trkpt lat="43.60406" lon="5.94084">
        <ele>322</ele>
        <time>2010-01-01T01:20:17Z</time>
      </trkpt>
      <trkpt lat="43.60407" lon="5.94103">
        <ele>323</ele>
        <time>2010-01-01T01:20:20Z</time>
      </trkpt>
      <trkpt lat="43.60411" lon="5.94121">
        <ele>324</ele>
        <time>2010-01-01T01:20:23Z</time>
      </trkpt>
      <trkpt lat="43.60429" lon="5.94172">
        <ele>325</ele>
        <time>2010-01-01T01:20:31Z</time>
      </trkpt>
      <trkpt lat="43.60434" lon="5.9419">
        <ele>324</ele>
        <time>2010-01-01T01:20:34Z</time>
      </trkpt>
      <trkpt lat="43.60436" lon="5.94208">
        <ele>323</ele>
        <time>2010-01-01T01:20:36Z</time>
      </trkpt>
      <trkpt lat="43.60435" lon="5.94226">
        <ele>322</ele>
        <time>2010-01-01T01:20:39Z</time>
      </trkpt>
      <trkpt lat="43.60431" lon="5.94243">
        <ele>322</ele>
        <time>2010-01-01T01:20:41Z</time>
      </trkpt>
      <trkpt lat="43.60417" lon="5.94276">
        <ele>323</ele>
        <time>2010-01-01T01:20:47Z</time>
      </trkpt>
      <trkpt lat="43.60408" lon="5.94291">
        <ele>325</ele>
        <time>2010-01-01T01:20:50Z</time>
      </trkpt>
      <trkpt lat="43.60398" lon="5.94304">
        <ele>326</ele>
        <time>2010-01-01T01:20:53Z</time>
      </trkpt>
      <trkpt lat="43.60387" lon="5.94314">
        <ele>326</ele>
        <time>2010-01-01T01:20:55Z</time>
      </trkpt>
      <trkpt lat="43.60375" lon="5.94319">
        <ele>325</ele>
        <time>2010-01-01T01:20:58Z</time>
      </trkpt>
      <trkpt lat="43.60349" lon="5.94326">
        <ele>323</ele>
        <time>2010-01-01T01:21:03Z</time>
      </trkpt>
      <trkpt lat="43.60338" lon="5.94331">
        <ele>323</ele>
        <time>2010-01-01T01:21:05Z</time>
      </trkpt>
      <trkpt lat="43.60329" lon="5.94339">
        <ele>322</ele>
        <time>2010-01-01T01:21:07Z</time>
      </trkpt>
      <trkpt lat="43.60322" lon="5.9435">
        <ele>322</ele>
        <time>2010-01-01T01:21:10Z</time>
      </trkpt>
      <trkpt lat="43.60293" lon="5.94431">
        <ele>321</ele>
        <time>2010-01-01T01:21:23Z</time>
      </trkpt>
      <trkpt lat="43.60259" lon="5.94499">
        <ele>322</ele>
        <time>2010-01-01T01:21:35Z</time>
      </trkpt>
      <trkpt lat="43.60243" lon="5.94534">
        <ele>322</ele>
        <time>2010-01-01T01:21:41Z</time>
      </trkpt>
      <trkpt lat="43.60219" lon="5.94609">
        <ele>321</ele>
        <time>2010-01-01T01:21:53Z</time>
      </trkpt>
      <trkpt lat="43.60207" lon="5.94668">
        <ele>319</ele>
        <time>2010-01-01T01:22:01Z</time>
      </trkpt>
      <trkpt lat="43.60206" lon="5.94687">
        <ele>318</ele>
        <time>2010-01-01T01:22:04Z</time>
      </trkpt>
      <trkpt lat="43.60207" lon="5.94706">
        <ele>317</ele>
        <time>2010-01-01T01:22:07Z</time>
      </trkpt>
      <trkpt lat="43.6021" lon="5.94725">
        <ele>316</ele>
        <time>2010-01-01T01:22:10Z</time>
      </trkpt>
      <trkpt lat="43.60235" lon="5.94828">
        <ele>317</ele>
        <time>2010-01-01T01:22:26Z</time>
      </trkpt>
      <trkpt lat="43.60235" lon="5.94844">
        <ele>318</ele>
        <time>2010-01-01T01:22:28Z</time>
      </trkpt>
      <trkpt lat="43.60232" lon="5.94859">
        <ele>319</ele>
        <time>2010-01-01T01:22:30Z</time>
      </trkpt>
      <trkpt lat="43.60225" lon="5.94872">
        <ele>320</ele>
        <time>2010-01-01T01:22:32Z</time>
      </trkpt>
      <trkpt lat="43.60216" lon="5.94883">
        <ele>320</ele>
        <time>2010-01-01T01:22:35Z</time>
      </trkpt>
      <trkpt lat="43.60136" lon="5.94957">
        <ele>318</ele>
        <time>2010-01-01T01:22:54Z</time>
      </trkpt>
      <trkpt lat="43.60056" lon="5.95035">
        <ele>317</ele>
        <time>2010-01-01T01:23:14Z</time>
      </trkpt>
      <trkpt lat="43.60046" lon="5.95049">
        <ele>317</ele>
        <time>2010-01-01T01:23:17Z</time>
      </trkpt>
      <trkpt lat="43.59978" lon="5.95173">
        <ele>322</ele>
        <time>2010-01-01T01:23:39Z</time>
      </trkpt>
      <trkpt lat="43.59935" lon="5.95219">
        <ele>320</ele>
        <time>2010-01-01T01:23:50Z</time>
      </trkpt>
      <trkpt lat="43.59933" lon="5.95224">
        <ele>320</ele>
        <time>2010-01-01T01:23:51Z</time>
      </trkpt>
      <trkpt lat="43.5993" lon="5.95238">
        <ele>321</ele>
        <time>2010-01-01T01:23:53Z</time>
      </trkpt>
      <trkpt lat="43.5993" lon="5.95246">
        <ele>322</ele>
        <time>2010-01-01T01:23:54Z</time>
      </trkpt>
      <trkpt lat="43.5994" lon="5.95299">
        <ele>327</ele>
        <time>2010-01-01T01:24:02Z</time>
      </trkpt>
      <trkpt lat="43.59941" lon="5.9533">
        <ele>329</ele>
        <time>2010-01-01T01:24:07Z</time>
      </trkpt>
      <trkpt lat="43.5994" lon="5.95347">
        <ele>329</ele>
        <time>2010-01-01T01:24:09Z</time>
      </trkpt>
      <trkpt lat="43.59936" lon="5.95378">
        <ele>330</ele>
        <time>2010-01-01T01:24:14Z</time>
      </trkpt>
      <trkpt lat="43.59933" lon="5.95391">
        <ele>330</ele>
        <time>2010-01-01T01:24:16Z</time>
      </trkpt>
      <trkpt lat="43.59928" lon="5.95404">
        <ele>330</ele>
        <time>2010-01-01T01:24:18Z</time>
      </trkpt>
      <trkpt lat="43.59901" lon="5.95447">
        <ele>331</ele>
        <time>2010-01-01T01:24:26Z</time>
      </trkpt>
      <trkpt lat="43.59889" lon="5.95459">
        <ele>332</ele>
        <time>2010-01-01T01:24:29Z</time>
      </trkpt>
      <trkpt lat="43.59876" lon="5.95467">
        <ele>331</ele>
        <time>2010-01-01T01:24:32Z</time>
      </trkpt>
      <trkpt lat="43.59849" lon="5.95476">
        <ele>329</ele>
        <time>2010-01-01T01:24:37Z</time>
      </trkpt>
      <trkpt lat="43.59838" lon="5.95484">
        <ele>329</ele>
        <time>2010-01-01T01:24:40Z</time>
      </trkpt>
      <trkpt lat="43.59827" lon="5.95497">
        <ele>329</ele>
        <time>2010-01-01T01:24:43Z</time>
      </trkpt>
      <trkpt lat="43.59775" lon="5.95614">
        <ele>334</ele>
        <time>2010-01-01T01:25:03Z</time>
      </trkpt>
      <trkpt lat="43.59759" lon="5.95656">
        <ele>340</ele>
        <time>2010-01-01T01:25:10Z</time>
      </trkpt>
      <trkpt lat="43.59749" lon="5.95685">
        <ele>343</ele>
        <time>2010-01-01T01:25:14Z</time>
      </trkpt>
      <trkpt lat="43.5975" lon="5.95728">
        <ele>348</ele>
        <time>2010-01-01T01:25:20Z</time>
      </trkpt>
      <trkpt lat="43.59758" lon="5.95752">
        <ele>349</ele>
        <time>2010-01-01T01:25:24Z</time>
      </trkpt>
      <trkpt lat="43.59789" lon="5.95804">
        <ele>353</ele>
        <time>2010-01-01T01:25:34Z</time>
      </trkpt>
      <trkpt lat="43.5979" lon="5.95818">
        <ele>354</ele>
        <time>2010-01-01T01:25:36Z</time>
      </trkpt>
      <trkpt lat="43.5977" lon="5.9596">
        <ele>355</ele>
        <time>2010-01-01T01:25:57Z</time>
      </trkpt>
      <trkpt lat="43.59741" lon="5.96027">
        <ele>356</ele>
        <time>2010-01-01T01:26:08Z</time>
      </trkpt>
      <trkpt lat="43.59736" lon="5.96046">
        <ele>356</ele>
        <time>2010-01-01T01:26:11Z</time>
      </trkpt>
      <trkpt lat="43.59736" lon="5.96055">
        <ele>356</ele>
        <time>2010-01-01T01:26:13Z</time>
      </trkpt>
      <trkpt lat="43.59747" lon="5.96109">
        <ele>359</ele>
        <time>2010-01-01T01:26:21Z</time>
      </trkpt>
      <trkpt lat="43.59747" lon="5.96121">
        <ele>359</ele>
        <time>2010-01-01T01:26:22Z</time>
      </trkpt>
      <trkpt lat="43.59744" lon="5.96134">
        <ele>358</ele>
        <time>2010-01-01T01:26:24Z</time>
      </trkpt>
      <trkpt lat="43.59738" lon="5.96148">
        <ele>358</ele>
        <time>2010-01-01T01:26:27Z</time>
      </trkpt>
      <trkpt lat="43.59434" lon="5.96558">
        <ele>366</ele>
        <time>2010-01-01T01:27:52Z</time>
      </trkpt>
      <trkpt lat="43.59319" lon="5.96718">
        <ele>370</ele>
        <time>2010-01-01T01:28:24Z</time>
      </trkpt>
      <trkpt lat="43.5931" lon="5.96732">
        <ele>369</ele>
        <time>2010-01-01T01:28:27Z</time>
      </trkpt>
      <trkpt lat="43.59303" lon="5.96749">
        <ele>369</ele>
        <time>2010-01-01T01:28:30Z</time>
      </trkpt>
      <trkpt lat="43.59285" lon="5.96815">
        <ele>367</ele>
        <time>2010-01-01T01:28:40Z</time>
      </trkpt>
      <trkpt lat="43.59243" lon="5.9692">
        <ele>362</ele>
        <time>2010-01-01T01:28:58Z</time>
      </trkpt>
      <trkpt lat="43.59238" lon="5.96937">
        <ele>363</ele>
        <time>2010-01-01T01:29:00Z</time>
      </trkpt>
      <trkpt lat="43.59236" lon="5.96952">
        <ele>364</ele>
        <time>2010-01-01T01:29:03Z</time>
      </trkpt>
      <trkpt lat="43.59238" lon="5.96965">
        <ele>366</ele>
        <time>2010-01-01T01:29:04Z</time>
      </trkpt>
      <trkpt lat="43.59258" lon="5.97034">
        <ele>376</ele>
        <time>2010-01-01T01:29:15Z</time>
      </trkpt>
      <trkpt lat="43.59262" lon="5.97052">
        <ele>377</ele>
        <time>2010-01-01T01:29:18Z</time>
      </trkpt>
      <trkpt lat="43.59266" lon="5.97088">
        <ele>374</ele>
        <time>2010-01-01T01:29:23Z</time>
      </trkpt>
      <trkpt lat="43.59266" lon="5.97105">
        <ele>373</ele>
        <time>2010-01-01T01:29:26Z</time>
      </trkpt>
      <trkpt lat="43.59264" lon="5.97121">
        <ele>371</ele>
        <time>2010-01-01T01:29:28Z</time>
      </trkpt>
      <trkpt lat="43.59259" lon="5.97136">
        <ele>370</ele>
        <time>2010-01-01T01:29:30Z</time>
      </trkpt>
      <trkpt lat="43.59227" lon="5.97192">
        <ele>370</ele>
        <time>2010-01-01T01:29:41Z</time>
      </trkpt>
      <trkpt lat="43.59204" lon="5.97238">
        <ele>371</ele>
        <time>2010-01-01T01:29:49Z</time>
      </trkpt>
      <trkpt lat="43.59194" lon="5.97268">
        <ele>373</ele>
        <time>2010-01-01T01:29:54Z</time>
      </trkpt>
      <trkpt lat="43.5919" lon="5.97301">
        <ele>376</ele>
        <time>2010-01-01T01:29:59Z</time>
      </trkpt>
      <trkpt lat="43.59183" lon="5.97419">
        <ele>380</ele>
        <time>2010-01-01T01:30:16Z</time>
      </trkpt>
      <trkpt lat="43.59185" lon="5.97433">
        <ele>380</ele>
        <time>2010-01-01T01:30:18Z</time>
      </trkpt>
      <trkpt lat="43.59189" lon="5.97446">
        <ele>380</ele>
        <time>2010-01-01T01:30:20Z</time>
      </trkpt>
      <trkpt lat="43.592" lon="5.97469">
        <ele>383</ele>
        <time>2010-01-01T01:30:24Z</time>
      </trkpt>
      <trkpt lat="43.59203" lon="5.97483">
        <ele>385</ele>
        <time>2010-01-01T01:30:26Z</time>
      </trkpt>
      <trkpt lat="43.59202" lon="5.97497">
        <ele>385</ele>
        <time>2010-01-01T01:30:28Z</time>
      </trkpt>
      <trkpt lat="43.59198" lon="5.97516">
        <ele>387</ele>
        <time>2010-01-01T01:30:31Z</time>
      </trkpt>
      <trkpt lat="43.59179" lon="5.9754">
        <ele>384</ele>
        <time>2010-01-01T01:30:36Z</time>
      </trkpt>
      <trkpt lat="43.59174" lon="5.97551">
        <ele>384</ele>
        <time>2010-01-01T01:30:38Z</time>
      </trkpt>
      <trkpt lat="43.59172" lon="5.97563">
        <ele>384</ele>
        <time>2010-01-01T01:30:40Z</time>
      </trkpt>
      <trkpt lat="43.59174" lon="5.97576">
        <ele>384</ele>
        <time>2010-01-01T01:30:42Z</time>
      </trkpt>
      <trkpt lat="43.59179" lon="5.97588">
        <ele>385</ele>
        <time>2010-01-01T01:30:44Z</time>
      </trkpt>
      <trkpt lat="43.59236" lon="5.97687">
        <ele>390</ele>
        <time>2010-01-01T01:31:02Z</time>
      </trkpt>
      <trkpt lat="43.59253" lon="5.97708">
        <ele>393</ele>
        <time>2010-01-01T01:31:06Z</time>
      </trkpt>
      <trkpt lat="43.59262" lon="5.97715">
        <ele>394</ele>
        <time>2010-01-01T01:31:09Z</time>
      </trkpt>
      <trkpt lat="43.59312" lon="5.97729">
        <ele>398</ele>
        <time>2010-01-01T01:31:19Z</time>
      </trkpt>
      <trkpt lat="43.59337" lon="5.97741">
        <ele>400</ele>
        <time>2010-01-01T01:31:24Z</time>
      </trkpt>
      <trkpt lat="43.59348" lon="5.97749">
        <ele>401</ele>
        <time>2010-01-01T01:31:27Z</time>
      </trkpt>
      <trkpt lat="43.59369" lon="5.97772">
        <ele>402</ele>
        <time>2010-01-01T01:31:32Z</time>
      </trkpt>
      <trkpt lat="43.59412" lon="5.97846">
        <ele>403</ele>
        <time>2010-01-01T01:31:46Z</time>
      </trkpt>
      <trkpt lat="43.59427" lon="5.97876">
        <ele>403</ele>
        <time>2010-01-01T01:31:51Z</time>
      </trkpt>
      <trkpt lat="43.59443" lon="5.97926">
        <ele>402</ele>
        <time>2010-01-01T01:31:59Z</time>
      </trkpt>
      <trkpt lat="43.59453" lon="5.97977">
        <ele>401</ele>
        <time>2010-01-01T01:32:07Z</time>
      </trkpt>
      <trkpt lat="43.59463" lon="5.98011">
        <ele>401</ele>
        <time>2010-01-01T01:32:12Z</time>
      </trkpt>
      <trkpt lat="43.59471" lon="5.98026">
        <ele>401</ele>
        <time>2010-01-01T01:32:15Z</time>
      </trkpt>
      <trkpt lat="43.59491" lon="5.98053">
        <ele>399</ele>
        <time>2010-01-01T01:32:20Z</time>
      </trkpt>
      <trkpt lat="43.59503" lon="5.98064">
        <ele>398</ele>
        <time>2010-01-01T01:32:23Z</time>
      </trkpt>
      <trkpt lat="43.59516" lon="5.98073">
        <ele>397</ele>
        <time>2010-01-01T01:32:26Z</time>
      </trkpt>
      <trkpt lat="43.59592" lon="5.981">
        <ele>401</ele>
        <time>2010-01-01T01:32:42Z</time>
      </trkpt>
      <trkpt lat="43.5962" lon="5.98113">
        <ele>403</ele>
        <time>2010-01-01T01:32:48Z</time>
      </trkpt>
      <trkpt lat="43.59632" lon="5.98123">
        <ele>405</ele>
        <time>2010-01-01T01:32:50Z</time>
      </trkpt>
      <trkpt lat="43.59642" lon="5.98136">
        <ele>406</ele>
        <time>2010-01-01T01:32:53Z</time>
      </trkpt>
      <trkpt lat="43.5965" lon="5.98152">
        <ele>406</ele>
        <time>2010-01-01T01:32:56Z</time>
      </trkpt>
      <trkpt lat="43.5966" lon="5.9819">
        <ele>407</ele>
        <time>2010-01-01T01:33:02Z</time>
      </trkpt>
      <trkpt lat="43.59721" lon="5.98505">
        <ele>395</ele>
        <time>2010-01-01T01:33:49Z</time>
      </trkpt>
      <trkpt lat="43.59724" lon="5.98527">
        <ele>394</ele>
        <time>2010-01-01T01:33:52Z</time>
      </trkpt>
      <trkpt lat="43.59723" lon="5.98548">
        <ele>394</ele>
        <time>2010-01-01T01:33:55Z</time>
      </trkpt>
      <trkpt lat="43.59718" lon="5.98568">
        <ele>394</ele>
        <time>2010-01-01T01:33:58Z</time>
      </trkpt>
      <trkpt lat="43.5971" lon="5.98587">
        <ele>393</ele>
        <time>2010-01-01T01:34:02Z</time>
      </trkpt>
      <trkpt lat="43.59701" lon="5.98605">
        <ele>392</ele>
        <time>2010-01-01T01:34:05Z</time>
      </trkpt>
      <trkpt lat="43.59551" lon="5.98842">
        <ele>385</ele>
        <time>2010-01-01T01:34:50Z</time>
      </trkpt>
      <trkpt lat="43.59544" lon="5.98853">
        <ele>385</ele>
        <time>2010-01-01T01:34:53Z</time>
      </trkpt>
      <trkpt lat="43.5954" lon="5.98865">
        <ele>385</ele>
        <time>2010-01-01T01:34:54Z</time>
      </trkpt>
      <trkpt lat="43.59539" lon="5.98878">
        <ele>385</ele>
        <time>2010-01-01T01:34:56Z</time>
      </trkpt>
      <trkpt lat="43.59542" lon="5.9889">
        <ele>385</ele>
        <time>2010-01-01T01:34:58Z</time>
      </trkpt>
      <trkpt lat="43.59548" lon="5.98901">
        <ele>384</ele>
        <time>2010-01-01T01:35:00Z</time>
      </trkpt>
      <trkpt lat="43.59567" lon="5.9892">
        <ele>382</ele>
        <time>2010-01-01T01:35:05Z</time>
      </trkpt>
      <trkpt lat="43.5964" lon="5.98984">
        <ele>377</ele>
        <time>2010-01-01T01:35:22Z</time>
      </trkpt>
      <trkpt lat="43.5965" lon="5.98995">
        <ele>376</ele>
        <time>2010-01-01T01:35:25Z</time>
      </trkpt>
      <trkpt lat="43.59659" lon="5.99008">
        <ele>375</ele>
        <time>2010-01-01T01:35:27Z</time>
      </trkpt>
      <trkpt lat="43.59664" lon="5.99023">
        <ele>375</ele>
        <time>2010-01-01T01:35:30Z</time>
      </trkpt>
      <trkpt lat="43.59668" lon="5.99041">
        <ele>376</ele>
        <time>2010-01-01T01:35:32Z</time>
      </trkpt>
      <trkpt lat="43.59668" lon="5.99107">
        <ele>376</ele>
        <time>2010-01-01T01:35:42Z</time>
      </trkpt>
      <trkpt lat="43.59665" lon="5.99129">
        <ele>374</ele>
        <time>2010-01-01T01:35:45Z</time>
      </trkpt>
      <trkpt lat="43.59573" lon="5.99538">
        <ele>368</ele>
        <time>2010-01-01T01:36:47Z</time>
      </trkpt>
      <trkpt lat="43.59547" lon="5.99545">
        <ele>368</ele>
        <time>2010-01-01T01:36:53Z</time>
      </trkpt>
      <trkpt lat="43.59437" lon="5.996">
        <ele>366</ele>
        <time>2010-01-01T01:37:16Z</time>
      </trkpt>
      <trkpt lat="43.59381" lon="5.9963">
        <ele>366</ele>
        <time>2010-01-01T01:37:28Z</time>
      </trkpt>
      <trkpt lat="43.59354" lon="5.9965">
        <ele>365</ele>
        <time>2010-01-01T01:37:34Z</time>
      </trkpt>
      <trkpt lat="43.59328" lon="5.99674">
        <ele>365</ele>
        <time>2010-01-01T01:37:40Z</time>
      </trkpt>
      <trkpt lat="43.59265" lon="5.99766">
        <ele>364</ele>
        <time>2010-01-01T01:37:59Z</time>
      </trkpt>
      <trkpt lat="43.59231" lon="5.99826">
        <ele>362</ele>
        <time>2010-01-01T01:38:10Z</time>
      </trkpt>
      <trkpt lat="43.59218" lon="5.99844">
        <ele>361</ele>
        <time>2010-01-01T01:38:14Z</time>
      </trkpt>
      <trkpt lat="43.59162" lon="5.99899">
        <ele>361</ele>
        <time>2010-01-01T01:38:27Z</time>
      </trkpt>
      <trkpt lat="43.59071" lon="5.99957">
        <ele>359</ele>
        <time>2010-01-01T01:38:47Z</time>
      </trkpt>
      <trkpt lat="43.59043" lon="5.99982">
        <ele>358</ele>
        <time>2010-01-01T01:38:54Z</time>
      </trkpt>
      <trkpt lat="43.5902" lon="6.0001">
        <ele>357</ele>
        <time>2010-01-01T01:39:00Z</time>
      </trkpt>
      <trkpt lat="43.58993" lon="6.00062">
        <ele>355</ele>
        <time>2010-01-01T01:39:09Z</time>
      </trkpt>
      <trkpt lat="43.58954" lon="6.00152">
        <ele>354</ele>
        <time>2010-01-01T01:39:25Z</time>
      </trkpt>
      <trkpt lat="43.58907" lon="6.00267">
        <ele>350</ele>
        <time>2010-01-01T01:39:44Z</time>
      </trkpt>
      <trkpt lat="43.58888" lon="6.003">
        <ele>350</ele>
        <time>2010-01-01T01:39:50Z</time>
      </trkpt>
      <trkpt lat="43.58842" lon="6.00368">
        <ele>350</ele>
        <time>2010-01-01T01:40:03Z</time>
      </trkpt>
      <trkpt lat="43.58755" lon="6.0047">
        <ele>347</ele>
        <time>2010-01-01T01:40:26Z</time>
      </trkpt>
      <trkpt lat="43.58621" lon="6.00644">
        <ele>345</ele>
        <time>2010-01-01T01:41:03Z</time>
      </trkpt>
      <trkpt lat="43.58618" lon="6.0065">
        <ele>345</ele>
        <time>2010-01-01T01:41:04Z</time>
      </trkpt>
      <trkpt lat="43.58584" lon="6.00729">
        <ele>345</ele>
        <time>2010-01-01T01:41:17Z</time>
      </trkpt>
      <trkpt lat="43.58562" lon="6.00795">
        <ele>341</ele>
        <time>2010-01-01T01:41:28Z</time>
      </trkpt>
      <trkpt lat="43.58533" lon="6.00891">
        <ele>338</ele>
        <time>2010-01-01T01:41:43Z</time>
      </trkpt>
      <trkpt lat="43.58513" lon="6.00967">
        <ele>338</ele>
        <time>2010-01-01T01:41:55Z</time>
      </trkpt>
      <trkpt lat="43.58502" lon="6.00999">
        <ele>338</ele>
        <time>2010-01-01T01:42:00Z</time>
      </trkpt>
      <trkpt lat="43.5849" lon="6.01022">
        <ele>338</ele>
        <time>2010-01-01T01:42:04Z</time>
      </trkpt>
      <trkpt lat="43.58461" lon="6.01057">
        <ele>337</ele>
        <time>2010-01-01T01:42:12Z</time>
      </trkpt>
      <trkpt lat="43.58427" lon="6.01088">
        <ele>337</ele>
        <time>2010-01-01T01:42:20Z</time>
      </trkpt>
      <trkpt lat="43.5838" lon="6.01143">
        <ele>336</ele>
        <time>2010-01-01T01:42:32Z</time>
      </trkpt>
      <trkpt lat="43.58271" lon="6.01253">
        <ele>334</ele>
        <time>2010-01-01T01:42:59Z</time>
      </trkpt>
      <trkpt lat="43.58241" lon="6.0129">
        <ele>334</ele>
        <time>2010-01-01T01:43:07Z</time>
      </trkpt>
      <trkpt lat="43.58211" lon="6.01318">
        <ele>334</ele>
        <time>2010-01-01T01:43:15Z</time>
      </trkpt>
      <trkpt lat="43.58169" lon="6.01344">
        <ele>333</ele>
        <time>2010-01-01T01:43:24Z</time>
      </trkpt>
      <trkpt lat="43.58133" lon="6.01362">
        <ele>330</ele>
        <time>2010-01-01T01:43:31Z</time>
      </trkpt>
      <trkpt lat="43.58044" lon="6.01388">
        <ele>327</ele>
        <time>2010-01-01T01:43:50Z</time>
      </trkpt>
      <trkpt lat="43.58001" lon="6.0141">
        <ele>331</ele>
        <time>2010-01-01T01:43:59Z</time>
      </trkpt>
      <trkpt lat="43.5797" lon="6.0144">
        <ele>331</ele>
        <time>2010-01-01T01:44:06Z</time>
      </trkpt>
      <trkpt lat="43.57954" lon="6.0146">
        <ele>331</ele>
        <time>2010-01-01T01:44:11Z</time>
      </trkpt>
      <trkpt lat="43.57943" lon="6.01478">
        <ele>331</ele>
        <time>2010-01-01T01:44:14Z</time>
      </trkpt>
      <trkpt lat="43.57937" lon="6.01496">
        <ele>331</ele>
        <time>2010-01-01T01:44:17Z</time>
      </trkpt>
      <trkpt lat="43.57929" lon="6.0154">
        <ele>330</ele>
        <time>2010-01-01T01:44:24Z</time>
      </trkpt>
      <trkpt lat="43.57833" lon="6.01557">
        <ele>332</ele>
        <time>2010-01-01T01:44:43Z</time>
      </trkpt>
      <trkpt lat="43.57792" lon="6.0158">
        <ele>335</ele>
        <time>2010-01-01T01:44:52Z</time>
      </trkpt>
      <trkpt lat="43.57715" lon="6.01639">
        <ele>332</ele>
        <time>2010-01-01T01:45:09Z</time>
      </trkpt>
      <trkpt lat="43.57689" lon="6.01648">
        <ele>332</ele>
        <time>2010-01-01T01:45:15Z</time>
      </trkpt>
      <trkpt lat="43.57663" lon="6.01649">
        <ele>332</ele>
        <time>2010-01-01T01:45:20Z</time>
      </trkpt>
      <trkpt lat="43.57583" lon="6.01632">
        <ele>330</ele>
        <time>2010-01-01T01:45:36Z</time>
      </trkpt>
      <trkpt lat="43.57558" lon="6.01635">
        <ele>329</ele>
        <time>2010-01-01T01:45:41Z</time>
      </trkpt>
      <trkpt lat="43.57424" lon="6.017">
        <ele>330</ele>
        <time>2010-01-01T01:46:10Z</time>
      </trkpt>
      <trkpt lat="43.57377" lon="6.0171">
        <ele>326</ele>
        <time>2010-01-01T01:46:19Z</time>
      </trkpt>
      <trkpt lat="43.57352" lon="6.01708">
        <ele>326</ele>
        <time>2010-01-01T01:46:24Z</time>
      </trkpt>
      <trkpt lat="43.57323" lon="6.01695">
        <ele>325</ele>
        <time>2010-01-01T01:46:30Z</time>
      </trkpt>
      <trkpt lat="43.573" lon="6.01677">
        <ele>324</ele>
        <time>2010-01-01T01:46:36Z</time>
      </trkpt>
      <trkpt lat="43.57281" lon="6.01652">
        <ele>323</ele>
        <time>2010-01-01T01:46:41Z</time>
      </trkpt>
      <trkpt lat="43.57268" lon="6.01621">
        <ele>324</ele>
        <time>2010-01-01T01:46:46Z</time>
      </trkpt>
      <trkpt lat="43.57261" lon="6.01588">
        <ele>323</ele>
        <time>2010-01-01T01:46:51Z</time>
      </trkpt>
      <trkpt lat="43.5725" lon="6.01482">
        <ele>326</ele>
        <time>2010-01-01T01:47:07Z</time>
      </trkpt>
      <trkpt lat="43.5724" lon="6.01426">
        <ele>325</ele>
        <time>2010-01-01T01:47:15Z</time>
      </trkpt>
      <trkpt lat="43.57228" lon="6.01388">
        <ele>323</ele>
        <time>2010-01-01T01:47:21Z</time>
      </trkpt>
      <trkpt lat="43.57211" lon="6.01358">
        <ele>324</ele>
        <time>2010-01-01T01:47:26Z</time>
      </trkpt>
      <trkpt lat="43.57186" lon="6.01325">
        <ele>323</ele>
        <time>2010-01-01T01:47:33Z</time>
      </trkpt>
      <trkpt lat="43.57168" lon="6.01311">
        <ele>322</ele>
        <time>2010-01-01T01:47:37Z</time>
      </trkpt>
      <trkpt lat="43.57139" lon="6.01296">
        <ele>321</ele>
        <time>2010-01-01T01:47:44Z</time>
      </trkpt>
      <trkpt lat="43.5712" lon="6.0129">
        <ele>321</ele>
        <time>2010-01-01T01:47:48Z</time>
      </trkpt>
      <trkpt lat="43.5709" lon="6.01286">
        <ele>320</ele>
        <time>2010-01-01T01:47:54Z</time>
      </trkpt>
      <trkpt lat="43.5705" lon="6.01293">
        <ele>317</ele>
        <time>2010-01-01T01:48:02Z</time>
      </trkpt>
      <trkpt lat="43.56982" lon="6.01309">
        <ele>319</ele>
        <time>2010-01-01T01:48:16Z</time>
      </trkpt>
      <trkpt lat="43.56955" lon="6.01307">
        <ele>323</ele>
        <time>2010-01-01T01:48:21Z</time>
      </trkpt>
      <trkpt lat="43.56933" lon="6.01299">
        <ele>326</ele>
        <time>2010-01-01T01:48:25Z</time>
      </trkpt>
      <trkpt lat="43.569" lon="6.01274">
        <ele>324</ele>
        <time>2010-01-01T01:48:33Z</time>
      </trkpt>
      <trkpt lat="43.56843" lon="6.01215">
        <ele>319</ele>
        <time>2010-01-01T01:48:47Z</time>
      </trkpt>
      <trkpt lat="43.56817" lon="6.01198">
        <ele>319</ele>
        <time>2010-01-01T01:48:53Z</time>
      </trkpt>
      <trkpt lat="43.56786" lon="6.01189">
        <ele>319</ele>
        <time>2010-01-01T01:48:59Z</time>
      </trkpt>
      <trkpt lat="43.56697" lon="6.01205">
        <ele>315</ele>
        <time>2010-01-01T01:49:17Z</time>
      </trkpt>
      <trkpt lat="43.56684" lon="6.01205">
        <ele>314</ele>
        <time>2010-01-01T01:49:20Z</time>
      </trkpt>
      <trkpt lat="43.56652" lon="6.01199">
        <ele>312</ele>
        <time>2010-01-01T01:49:26Z</time>
      </trkpt>
      <trkpt lat="43.56644" lon="6.0119">
        <ele>311</ele>
        <time>2010-01-01T01:49:28Z</time>
      </trkpt>
      <trkpt lat="43.56637" lon="6.01171">
        <ele>310</ele>
        <time>2010-01-01T01:49:32Z</time>
      </trkpt>
      <trkpt lat="43.56605" lon="6.01146">
        <ele>311</ele>
        <time>2010-01-01T01:49:39Z</time>
      </trkpt>
      <trkpt lat="43.56548" lon="6.01028">
        <ele>315</ele>
        <time>2010-01-01T01:49:59Z</time>
      </trkpt>
      <trkpt lat="43.56534" lon="6.01012">
        <ele>315</ele>
        <time>2010-01-01T01:50:03Z</time>
      </trkpt>
      <trkpt lat="43.56512" lon="6.00999">
        <ele>316</ele>
        <time>2010-01-01T01:50:08Z</time>
      </trkpt>
      <trkpt lat="43.56369" lon="6.00904">
        <ele>311</ele>
        <time>2010-01-01T01:50:40Z</time>
      </trkpt>
      <trkpt lat="43.56281" lon="6.00865">
        <ele>310</ele>
        <time>2010-01-01T01:50:58Z</time>
      </trkpt>
      <trkpt lat="43.56275" lon="6.00858">
        <ele>309</ele>
        <time>2010-01-01T01:51:00Z</time>
      </trkpt>
      <trkpt lat="43.56269" lon="6.00858">
        <ele>309</ele>
        <time>2010-01-01T01:51:01Z</time>
      </trkpt>
      <trkpt lat="43.56266" lon="6.00861">
        <ele>309</ele>
        <time>2010-01-01T01:51:02Z</time>
      </trkpt>
      <trkpt lat="43.56251" lon="6.0086">
        <ele>308</ele>
        <time>2010-01-01T01:51:05Z</time>
      </trkpt>
      <trkpt lat="43.56232" lon="6.00863">
        <ele>307</ele>
        <time>2010-01-01T01:51:09Z</time>
      </trkpt>
      <trkpt lat="43.56201" lon="6.00877">
        <ele>306</ele>
        <time>2010-01-01T01:51:15Z</time>
      </trkpt>
      <trkpt lat="43.56194" lon="6.00878">
        <ele>306</ele>
        <time>2010-01-01T01:51:16Z</time>
      </trkpt>
      <trkpt lat="43.5618" lon="6.00875">
        <ele>305</ele>
        <time>2010-01-01T01:51:19Z</time>
      </trkpt>
      <trkpt lat="43.56156" lon="6.00856">
        <ele>303</ele>
        <time>2010-01-01T01:51:25Z</time>
      </trkpt>
      <trkpt lat="43.56148" lon="6.00852">
        <ele>303</ele>
        <time>2010-01-01T01:51:27Z</time>
      </trkpt>
      <trkpt lat="43.56137" lon="6.00849">
        <ele>302</ele>
        <time>2010-01-01T01:51:29Z</time>
      </trkpt>
      <trkpt lat="43.56122" lon="6.00851">
        <ele>301</ele>
        <time>2010-01-01T01:51:32Z</time>
      </trkpt>
      <trkpt lat="43.56084" lon="6.00863">
        <ele>301</ele>
        <time>2010-01-01T01:51:40Z</time>
      </trkpt>
      <trkpt lat="43.5607" lon="6.00864">
        <ele>300</ele>
        <time>2010-01-01T01:51:42Z</time>
      </trkpt>
      <trkpt lat="43.56041" lon="6.00864">
        <ele>299</ele>
        <time>2010-01-01T01:51:48Z</time>
      </trkpt>
      <trkpt lat="43.56031" lon="6.00862">
        <ele>299</ele>
        <time>2010-01-01T01:51:50Z</time>
      </trkpt>
      <trkpt lat="43.56019" lon="6.00852">
        <ele>298</ele>
        <time>2010-01-01T01:51:53Z</time>
      </trkpt>
      <trkpt lat="43.56017" lon="6.00848">
        <ele>298</ele>
        <time>2010-01-01T01:51:54Z</time>
      </trkpt>
      <trkpt lat="43.5601" lon="6.00824">
        <ele>298</ele>
        <time>2010-01-01T01:51:57Z</time>
      </trkpt>
      <trkpt lat="43.56013" lon="6.00757">
        <ele>294</ele>
        <time>2010-01-01T01:52:07Z</time>
      </trkpt>
      <trkpt lat="43.56011" lon="6.00745">
        <ele>294</ele>
        <time>2010-01-01T01:52:09Z</time>
      </trkpt>
      <trkpt lat="43.56002" lon="6.00731">
        <ele>294</ele>
        <time>2010-01-01T01:52:12Z</time>
      </trkpt>
      <trkpt lat="43.5599" lon="6.00722">
        <ele>294</ele>
        <time>2010-01-01T01:52:14Z</time>
      </trkpt>
      <trkpt lat="43.55998" lon="6.00709">
        <ele>292</ele>
        <time>2010-01-01T01:52:17Z</time>
      </trkpt>
      <trkpt lat="43.56009" lon="6.00729">
        <ele>293</ele>
        <time>2010-01-01T01:52:21Z</time>
      </trkpt>
      <trkpt lat="43.56014" lon="6.00732">
        <ele>293</ele>
        <time>2010-01-01T01:52:22Z</time>
      </trkpt>
      <trkpt lat="43.56017" lon="6.00728">
        <ele>292</ele>
        <time>2010-01-01T01:52:23Z</time>
      </trkpt>
      <trkpt lat="43.56018" lon="6.00722">
        <ele>292</ele>
        <time>2010-01-01T01:52:23Z</time>
      </trkpt>
      <trkpt lat="43.56019" lon="6.00635">
        <ele>286</ele>
        <time>2010-01-01T01:52:36Z</time>
      </trkpt>
      <trkpt lat="43.56016" lon="6.00621">
        <ele>285</ele>
        <time>2010-01-01T01:52:38Z</time>
      </trkpt>
      <trkpt lat="43.56006" lon="6.00598">
        <ele>283</ele>
        <time>2010-01-01T01:52:42Z</time>
      </trkpt>
      <trkpt lat="43.55997" lon="6.00566">
        <ele>278</ele>
        <time>2010-01-01T01:52:47Z</time>
      </trkpt>
      <trkpt lat="43.55996" lon="6.00545">
        <ele>276</ele>
        <time>2010-01-01T01:52:50Z</time>
      </trkpt>
      <trkpt lat="43.56012" lon="6.00499">
        <ele>270</ele>
        <time>2010-01-01T01:52:57Z</time>
      </trkpt>
      <trkpt lat="43.56011" lon="6.00493">
        <ele>269</ele>
        <time>2010-01-01T01:52:58Z</time>
      </trkpt>
      <trkpt lat="43.56002" lon="6.00488">
        <ele>269</ele>
        <time>2010-01-01T01:53:00Z</time>
      </trkpt>
      <trkpt lat="43.56005" lon="6.00476">
        <ele>268</ele>
        <time>2010-01-01T01:53:02Z</time>
      </trkpt>
      <trkpt lat="43.56004" lon="6.00466">
        <ele>267</ele>
        <time>2010-01-01T01:53:04Z</time>
      </trkpt>
      <trkpt lat="43.55986" lon="6.00418">
        <ele>266</ele>
        <time>2010-01-01T01:53:11Z</time>
      </trkpt>
      <trkpt lat="43.55983" lon="6.00416">
        <ele>266</ele>
        <time>2010-01-01T01:53:12Z</time>
      </trkpt>
      <trkpt lat="43.55978" lon="6.00416">
        <ele>266</ele>
        <time>2010-01-01T01:53:13Z</time>
      </trkpt>
      <trkpt lat="43.55964" lon="6.00423">
        <ele>266</ele>
        <time>2010-01-01T01:53:16Z</time>
      </trkpt>
      <trkpt lat="43.55957" lon="6.00405">
        <ele>268</ele>
        <time>2010-01-01T01:53:19Z</time>
      </trkpt>
      <trkpt lat="43.55949" lon="6.00403">
        <ele>269</ele>
        <time>2010-01-01T01:53:21Z</time>
      </trkpt>
      <trkpt lat="43.5594" lon="6.00407">
        <ele>270</ele>
        <time>2010-01-01T01:53:23Z</time>
      </trkpt>
      <trkpt lat="43.55771" lon="6.00489">
        <ele>261</ele>
        <time>2010-01-01T01:53:58Z</time>
      </trkpt>
      <trkpt lat="43.55718" lon="6.00504">
        <ele>260</ele>
        <time>2010-01-01T01:54:09Z</time>
      </trkpt>
      <trkpt lat="43.5571" lon="6.00501">
        <ele>260</ele>
        <time>2010-01-01T01:54:11Z</time>
      </trkpt>
      <trkpt lat="43.55695" lon="6.00499">
        <ele>261</ele>
        <time>2010-01-01T01:54:14Z</time>
      </trkpt>
      <trkpt lat="43.55673" lon="6.0051">
        <ele>259</ele>
        <time>2010-01-01T01:54:19Z</time>
      </trkpt>
      <trkpt lat="43.55665" lon="6.00513">
        <ele>258</ele>
        <time>2010-01-01T01:54:20Z</time>
      </trkpt>
      <trkpt lat="43.55656" lon="6.00513">
        <ele>257</ele>
        <time>2010-01-01T01:54:22Z</time>
      </trkpt>
      <trkpt lat="43.55628" lon="6.00504">
        <ele>258</ele>
        <time>2010-01-01T01:54:28Z</time>
      </trkpt>
      <trkpt lat="43.55608" lon="6.00501">
        <ele>260</ele>
        <time>2010-01-01T01:54:32Z</time>
      </trkpt>
      <trkpt lat="43.55599" lon="6.00504">
        <ele>260</ele>
        <time>2010-01-01T01:54:34Z</time>
      </trkpt>
      <trkpt lat="43.55586" lon="6.00518">
        <ele>259</ele>
        <time>2010-01-01T01:54:37Z</time>
      </trkpt>
      <trkpt lat="43.55509" lon="6.00622">
        <ele>253</ele>
        <time>2010-01-01T01:54:59Z</time>
      </trkpt>
      <trkpt lat="43.55499" lon="6.00628">
        <ele>253</ele>
        <time>2010-01-01T01:55:01Z</time>
      </trkpt>
      <trkpt lat="43.55488" lon="6.00631">
        <ele>252</ele>
        <time>2010-01-01T01:55:03Z</time>
      </trkpt>
      <trkpt lat="43.55467" lon="6.00627">
        <ele>253</ele>
        <time>2010-01-01T01:55:07Z</time>
      </trkpt>
      <trkpt lat="43.55414" lon="6.00604">
        <ele>253</ele>
        <time>2010-01-01T01:55:18Z</time>
      </trkpt>
      <trkpt lat="43.55401" lon="6.006">
        <ele>253</ele>
        <time>2010-01-01T01:55:21Z</time>
      </trkpt>
      <trkpt lat="43.55359" lon="6.00598">
        <ele>251</ele>
        <time>2010-01-01T01:55:29Z</time>
      </trkpt>
      <trkpt lat="43.55346" lon="6.00593">
        <ele>249</ele>
        <time>2010-01-01T01:55:32Z</time>
      </trkpt>
      <trkpt lat="43.55338" lon="6.00587">
        <ele>249</ele>
        <time>2010-01-01T01:55:34Z</time>
      </trkpt>
      <trkpt lat="43.55329" lon="6.00577">
        <ele>249</ele>
        <time>2010-01-01T01:55:36Z</time>
      </trkpt>
      <trkpt lat="43.55281" lon="6.00513">
        <ele>248</ele>
        <time>2010-01-01T01:55:50Z</time>
      </trkpt>
      <trkpt lat="43.55261" lon="6.00491">
        <ele>249</ele>
        <time>2010-01-01T01:55:55Z</time>
      </trkpt>
      <trkpt lat="43.55245" lon="6.0048">
        <ele>250</ele>
        <time>2010-01-01T01:55:58Z</time>
      </trkpt>
      <trkpt lat="43.55214" lon="6.00468">
        <ele>250</ele>
        <time>2010-01-01T01:56:05Z</time>
      </trkpt>
      <trkpt lat="43.55137" lon="6.00452">
        <ele>251</ele>
        <time>2010-01-01T01:56:20Z</time>
      </trkpt>
      <trkpt lat="43.55117" lon="6.00446">
        <ele>251</ele>
        <time>2010-01-01T01:56:24Z</time>
      </trkpt>
      <trkpt lat="43.55112" lon="6.00442">
        <ele>251</ele>
        <time>2010-01-01T01:56:26Z</time>
      </trkpt>
      <trkpt lat="43.551" lon="6.00432">
        <ele>249</ele>
        <time>2010-01-01T01:56:28Z</time>
      </trkpt>
      <trkpt lat="43.55084" lon="6.00406">
        <ele>246</ele>
        <time>2010-01-01T01:56:33Z</time>
      </trkpt>
      <trkpt lat="43.55078" lon="6.0039">
        <ele>244</ele>
        <time>2010-01-01T01:56:36Z</time>
      </trkpt>
      <trkpt lat="43.55072" lon="6.00369">
        <ele>242</ele>
        <time>2010-01-01T01:56:39Z</time>
      </trkpt>
      <trkpt lat="43.55072" lon="6.00368">
        <ele>242</ele>
        <time>2010-01-01T01:56:39Z</time>
      </trkpt>
      <trkpt lat="43.5507" lon="6.00342">
        <ele>241</ele>
        <time>2010-01-01T01:56:43Z</time>
      </trkpt>
      <trkpt lat="43.55082" lon="6.00274">
        <ele>242</ele>
        <time>2010-01-01T01:56:53Z</time>
      </trkpt>
      <trkpt lat="43.55084" lon="6.00259">
        <ele>242</ele>
        <time>2010-01-01T01:56:56Z</time>
      </trkpt>
      <trkpt lat="43.55084" lon="6.00243">
        <ele>241</ele>
        <time>2010-01-01T01:56:58Z</time>
      </trkpt>
      <trkpt lat="43.55081" lon="6.00227">
        <ele>240</ele>
        <time>2010-01-01T01:57:00Z</time>
      </trkpt>
      <trkpt lat="43.55074" lon="6.00195">
        <ele>240</ele>
        <time>2010-01-01T01:57:05Z</time>
      </trkpt>
      <trkpt lat="43.55037" lon="6.00053">
        <ele>244</ele>
        <time>2010-01-01T01:57:27Z</time>
      </trkpt>
      <trkpt lat="43.55033" lon="6.0002">
        <ele>243</ele>
        <time>2010-01-01T01:57:32Z</time>
      </trkpt>
      <trkpt lat="43.55034" lon="6.00004">
        <ele>243</ele>
        <time>2010-01-01T01:57:34Z</time>
      </trkpt>
      <trkpt lat="43.55037" lon="5.9999">
        <ele>243</ele>
        <time>2010-01-01T01:57:36Z</time>
      </trkpt>
      <trkpt lat="43.5505" lon="5.99969">
        <ele>243</ele>
        <time>2010-01-01T01:57:40Z</time>
      </trkpt>
      <trkpt lat="43.55059" lon="5.99963">
        <ele>244</ele>
        <time>2010-01-01T01:57:42Z</time>
      </trkpt>
      <trkpt lat="43.55127" lon="5.99931">
        <ele>247</ele>
        <time>2010-01-01T01:57:57Z</time>
      </trkpt>
      <trkpt lat="43.55226" lon="5.9988">
        <ele>251</ele>
        <time>2010-01-01T01:58:18Z</time>
      </trkpt>
      <trkpt lat="43.55254" lon="5.99873">
        <ele>252</ele>
        <time>2010-01-01T01:58:24Z</time>
      </trkpt>
      <trkpt lat="43.55303" lon="5.99876">
        <ele>254</ele>
        <time>2010-01-01T01:58:33Z</time>
      </trkpt>
      <trkpt lat="43.55311" lon="5.99871">
        <ele>253</ele>
        <time>2010-01-01T01:58:35Z</time>
      </trkpt>
      <trkpt lat="43.5532" lon="5.99864">
        <ele>250</ele>
        <time>2010-01-01T01:58:37Z</time>
      </trkpt>
      <trkpt lat="43.55324" lon="5.99856">
        <ele>248</ele>
        <time>2010-01-01T01:58:39Z</time>
      </trkpt>
      <trkpt lat="43.55326" lon="5.99841">
        <ele>243</ele>
        <time>2010-01-01T01:58:41Z</time>
      </trkpt>
      <trkpt lat="43.55325" lon="5.99802">
        <ele>238</ele>
        <time>2010-01-01T01:58:46Z</time>
      </trkpt>
      <trkpt lat="43.55316" lon="5.99772">
        <ele>237</ele>
        <time>2010-01-01T01:58:51Z</time>
      </trkpt>
      <trkpt lat="43.55308" lon="5.99761">
        <ele>239</ele>
        <time>2010-01-01T01:58:53Z</time>
      </trkpt>
      <trkpt lat="43.55291" lon="5.99753">
        <ele>240</ele>
        <time>2010-01-01T01:58:57Z</time>
      </trkpt>
      <trkpt lat="43.55278" lon="5.99744">
        <ele>241</ele>
        <time>2010-01-01T01:59:00Z</time>
      </trkpt>
      <trkpt lat="43.5526" lon="5.99729">
        <ele>245</ele>
        <time>2010-01-01T01:59:04Z</time>
      </trkpt>
      <trkpt lat="43.55258" lon="5.99725">
        <ele>246</ele>
        <time>2010-01-01T01:59:05Z</time>
      </trkpt>
      <trkpt lat="43.55257" lon="5.99725">
        <ele>246</ele>
        <time>2010-01-01T01:59:05Z</time>
      </trkpt>
      <trkpt lat="43.55253" lon="5.99718">
        <ele>248</ele>
        <time>2010-01-01T01:59:06Z</time>
      </trkpt>
      <trkpt lat="43.55239" lon="5.9968">
        <ele>258</ele>
        <time>2010-01-01T01:59:13Z</time>
      </trkpt>
      <trkpt lat="43.55233" lon="5.99669">
        <ele>259</ele>
        <time>2010-01-01T01:59:15Z</time>
      </trkpt>
      <trkpt lat="43.55224" lon="5.99662">
        <ele>259</ele>
        <time>2010-01-01T01:59:17Z</time>
      </trkpt>
      <trkpt lat="43.55213" lon="5.99658">
        <ele>260</ele>
        <time>2010-01-01T01:59:19Z</time>
      </trkpt>
      <trkpt lat="43.5519" lon="5.99658">
        <ele>260</ele>
        <time>2010-01-01T01:59:23Z</time>
      </trkpt>
      <trkpt lat="43.55137" lon="5.99667">
        <ele>270</ele>
        <time>2010-01-01T01:59:34Z</time>
      </trkpt>
      <trkpt lat="43.55125" lon="5.99674">
        <ele>270</ele>
        <time>2010-01-01T01:59:37Z</time>
      </trkpt>
      <trkpt lat="43.55115" lon="5.99684">
        <ele>268</ele>
        <time>2010-01-01T01:59:39Z</time>
      </trkpt>
      <trkpt lat="43.551" lon="5.99706">
        <ele>260</ele>
        <time>2010-01-01T01:59:44Z</time>
      </trkpt>
      <trkpt lat="43.55092" lon="5.99713">
        <ele>257</ele>
        <time>2010-01-01T01:59:46Z</time>
      </trkpt>
      <trkpt lat="43.55083" lon="5.99715">
        <ele>257</ele>
        <time>2010-01-01T01:59:47Z</time>
      </trkpt>
      <trkpt lat="43.55061" lon="5.99711">
        <ele>260</ele>
        <time>2010-01-01T01:59:52Z</time>
      </trkpt>
      <trkpt lat="43.55035" lon="5.99704">
        <ele>264</ele>
        <time>2010-01-01T01:59:57Z</time>
      </trkpt>
      <trkpt lat="43.55021" lon="5.99698">
        <ele>266</ele>
        <time>2010-01-01T02:00:00Z</time>
      </trkpt>
      <trkpt lat="43.54969" lon="5.99669">
        <ele>267</ele>
        <time>2010-01-01T02:00:11Z</time>
      </trkpt>
      <trkpt lat="43.54954" lon="5.99667">
        <ele>265</ele>
        <time>2010-01-01T02:00:14Z</time>
      </trkpt>
      <trkpt lat="43.54939" lon="5.9967">
        <ele>264</ele>
        <time>2010-01-01T02:00:17Z</time>
      </trkpt>
      <trkpt lat="43.54893" lon="5.99682">
        <ele>271</ele>
        <time>2010-01-01T02:00:27Z</time>
      </trkpt>
      <trkpt lat="43.54864" lon="5.99682">
        <ele>271</ele>
        <time>2010-01-01T02:00:32Z</time>
      </trkpt>
      <trkpt lat="43.54848" lon="5.99673">
        <ele>272</ele>
        <time>2010-01-01T02:00:36Z</time>
      </trkpt>
      <trkpt lat="43.54755" lon="5.99584">
        <ele>275</ele>
        <time>2010-01-01T02:00:59Z</time>
      </trkpt>
      <trkpt lat="43.54676" lon="5.99503">
        <ele>278</ele>
        <time>2010-01-01T02:01:18Z</time>
      </trkpt>
      <trkpt lat="43.54664" lon="5.99488">
        <ele>280</ele>
        <time>2010-01-01T02:01:22Z</time>
      </trkpt>
      <trkpt lat="43.54641" lon="5.99449">
        <ele>282</ele>
        <time>2010-01-01T02:01:29Z</time>
      </trkpt>
      <trkpt lat="43.54562" lon="5.99295">
        <ele>289</ele>
        <time>2010-01-01T02:01:56Z</time>
      </trkpt>
      <trkpt lat="43.54545" lon="5.9925">
        <ele>289</ele>
        <time>2010-01-01T02:02:04Z</time>
      </trkpt>
      <trkpt lat="43.54542" lon="5.9923">
        <ele>289</ele>
        <time>2010-01-01T02:02:07Z</time>
      </trkpt>
      <trkpt lat="43.54544" lon="5.99179">
        <ele>290</ele>
        <time>2010-01-01T02:02:14Z</time>
      </trkpt>
      <trkpt lat="43.54564" lon="5.98987">
        <ele>293</ele>
        <time>2010-01-01T02:02:42Z</time>
      </trkpt>
      <trkpt lat="43.54564" lon="5.98958">
        <ele>293</ele>
        <time>2010-01-01T02:02:46Z</time>
      </trkpt>
      <trkpt lat="43.54562" lon="5.98934">
        <ele>293</ele>
        <time>2010-01-01T02:02:50Z</time>
      </trkpt>
      <trkpt lat="43.54546" lon="5.98839">
        <ele>294</ele>
        <time>2010-01-01T02:03:04Z</time>
      </trkpt>
      <trkpt lat="43.54538" lon="5.988">
        <ele>291</ele>
        <time>2010-01-01T02:03:10Z</time>
      </trkpt>
      <trkpt lat="43.54526" lon="5.98754">
        <ele>286</ele>
        <time>2010-01-01T02:03:17Z</time>
      </trkpt>
      <trkpt lat="43.54516" lon="5.98728">
        <ele>287</ele>
        <time>2010-01-01T02:03:21Z</time>
      </trkpt>
      <trkpt lat="43.54494" lon="5.98697">
        <ele>286</ele>
        <time>2010-01-01T02:03:27Z</time>
      </trkpt>
      <trkpt lat="43.54479" lon="5.98685">
        <ele>286</ele>
        <time>2010-01-01T02:03:31Z</time>
      </trkpt>
      <trkpt lat="43.54463" lon="5.98677">
        <ele>284</ele>
        <time>2010-01-01T02:03:34Z</time>
      </trkpt>
      <trkpt lat="43.54446" lon="5.98675">
        <ele>282</ele>
        <time>2010-01-01T02:03:38Z</time>
      </trkpt>
      <trkpt lat="43.54428" lon="5.98678">
        <ele>280</ele>
        <time>2010-01-01T02:03:41Z</time>
      </trkpt>
      <trkpt lat="43.54341" lon="5.98728">
        <ele>273</ele>
        <time>2010-01-01T02:04:00Z</time>
      </trkpt>
      <trkpt lat="43.54307" lon="5.98745">
        <ele>273</ele>
        <time>2010-01-01T02:04:07Z</time>
      </trkpt>
      <trkpt lat="43.5429" lon="5.9875">
        <ele>274</ele>
        <time>2010-01-01T02:04:11Z</time>
      </trkpt>
      <trkpt lat="43.54274" lon="5.98751">
        <ele>274</ele>
        <time>2010-01-01T02:04:14Z</time>
      </trkpt>
      <trkpt lat="43.54259" lon="5.98748">
        <ele>273</ele>
        <time>2010-01-01T02:04:17Z</time>
      </trkpt>
      <trkpt lat="43.54245" lon="5.98739">
        <ele>272</ele>
        <time>2010-01-01T02:04:20Z</time>
      </trkpt>
      <trkpt lat="43.54233" lon="5.98726">
        <ele>271</ele>
        <time>2010-01-01T02:04:23Z</time>
      </trkpt>
      <trkpt lat="43.54203" lon="5.98678">
        <ele>266</ele>
        <time>2010-01-01T02:04:33Z</time>
      </trkpt>
      <trkpt lat="43.5419" lon="5.98662">
        <ele>264</ele>
        <time>2010-01-01T02:04:36Z</time>
      </trkpt>
      <trkpt lat="43.54169" lon="5.98647">
        <ele>262</ele>
        <time>2010-01-01T02:04:41Z</time>
      </trkpt>
      <trkpt lat="43.54156" lon="5.98641">
        <ele>259</ele>
        <time>2010-01-01T02:04:44Z</time>
      </trkpt>
      <trkpt lat="43.54141" lon="5.98639">
        <ele>257</ele>
        <time>2010-01-01T02:04:47Z</time>
      </trkpt>
      <trkpt lat="43.5411" lon="5.98645">
        <ele>254</ele>
        <time>2010-01-01T02:04:53Z</time>
      </trkpt>
      <trkpt lat="43.54081" lon="5.98667">
        <ele>254</ele>
        <time>2010-01-01T02:04:59Z</time>
      </trkpt>
      <trkpt lat="43.54056" lon="5.98691">
        <ele>250</ele>
        <time>2010-01-01T02:05:06Z</time>
      </trkpt>
      <trkpt lat="43.54038" lon="5.98704">
        <ele>247</ele>
        <time>2010-01-01T02:05:10Z</time>
      </trkpt>
      <trkpt lat="43.54023" lon="5.98712">
        <ele>247</ele>
        <time>2010-01-01T02:05:13Z</time>
      </trkpt>
      <trkpt lat="43.54008" lon="5.98715">
        <ele>248</ele>
        <time>2010-01-01T02:05:16Z</time>
      </trkpt>
      <trkpt lat="43.53993" lon="5.98713">
        <ele>248</ele>
        <time>2010-01-01T02:05:19Z</time>
      </trkpt>
      <trkpt lat="43.53978" lon="5.98707">
        <ele>246</ele>
        <time>2010-01-01T02:05:22Z</time>
      </trkpt>
      <trkpt lat="43.53964" lon="5.98696">
        <ele>244</ele>
        <time>2010-01-01T02:05:25Z</time>
      </trkpt>
      <trkpt lat="43.53953" lon="5.98681">
        <ele>243</ele>
        <time>2010-01-01T02:05:28Z</time>
      </trkpt>
      <trkpt lat="43.53944" lon="5.98662">
        <ele>242</ele>
        <time>2010-01-01T02:05:32Z</time>
      </trkpt>
      <trkpt lat="43.53935" lon="5.98639">
        <ele>243</ele>
        <time>2010-01-01T02:05:35Z</time>
      </trkpt>
      <trkpt lat="43.53918" lon="5.98575">
        <ele>243</ele>
        <time>2010-01-01T02:05:45Z</time>
      </trkpt>
      <trkpt lat="43.53908" lon="5.98547">
        <ele>243</ele>
        <time>2010-01-01T02:05:50Z</time>
      </trkpt>
      <trkpt lat="43.53901" lon="5.98533">
        <ele>243</ele>
        <time>2010-01-01T02:05:52Z</time>
      </trkpt>
      <trkpt lat="43.53889" lon="5.98517">
        <ele>242</ele>
        <time>2010-01-01T02:05:56Z</time>
      </trkpt>
      <trkpt lat="43.53874" lon="5.98505">
        <ele>241</ele>
        <time>2010-01-01T02:05:59Z</time>
      </trkpt>
      <trkpt lat="43.53859" lon="5.98498">
        <ele>240</ele>
        <time>2010-01-01T02:06:02Z</time>
      </trkpt>
      <trkpt lat="43.53799" lon="5.9849">
        <ele>238</ele>
        <time>2010-01-01T02:06:14Z</time>
      </trkpt>
      <trkpt lat="43.53785" lon="5.98486">
        <ele>237</ele>
        <time>2010-01-01T02:06:17Z</time>
      </trkpt>
      <trkpt lat="43.53773" lon="5.9848">
        <ele>238</ele>
        <time>2010-01-01T02:06:20Z</time>
      </trkpt>
      <trkpt lat="43.53759" lon="5.98468">
        <ele>238</ele>
        <time>2010-01-01T02:06:23Z</time>
      </trkpt>
      <trkpt lat="43.53749" lon="5.98454">
        <ele>238</ele>
        <time>2010-01-01T02:06:26Z</time>
      </trkpt>
      <trkpt lat="43.53708" lon="5.98377">
        <ele>234</ele>
        <time>2010-01-01T02:06:40Z</time>
      </trkpt>
      <trkpt lat="43.53696" lon="5.9836">
        <ele>233</ele>
        <time>2010-01-01T02:06:43Z</time>
      </trkpt>
      <trkpt lat="43.53666" lon="5.98329">
        <ele>232</ele>
        <time>2010-01-01T02:06:51Z</time>
      </trkpt>
      <trkpt lat="43.53604" lon="5.98277">
        <ele>226</ele>
        <time>2010-01-01T02:07:05Z</time>
      </trkpt>
      <trkpt lat="43.53564" lon="5.98258">
        <ele>222</ele>
        <time>2010-01-01T02:07:14Z</time>
      </trkpt>
      <trkpt lat="43.53511" lon="5.98246">
        <ele>227</ele>
        <time>2010-01-01T02:07:24Z</time>
      </trkpt>
      <trkpt lat="43.53487" lon="5.98235">
        <ele>226</ele>
        <time>2010-01-01T02:07:29Z</time>
      </trkpt>
      <trkpt lat="43.53439" lon="5.98201">
        <ele>223</ele>
        <time>2010-01-01T02:07:40Z</time>
      </trkpt>
      <trkpt lat="43.53413" lon="5.98191">
        <ele>224</ele>
        <time>2010-01-01T02:07:46Z</time>
      </trkpt>
      <trkpt lat="43.53398" lon="5.9819">
        <ele>224</ele>
        <time>2010-01-01T02:07:49Z</time>
      </trkpt>
      <trkpt lat="43.53313" lon="5.98195">
        <ele>217</ele>
        <time>2010-01-01T02:08:06Z</time>
      </trkpt>
      <trkpt lat="43.53279" lon="5.98188">
        <ele>216</ele>
        <time>2010-01-01T02:08:13Z</time>
      </trkpt>
      <trkpt lat="43.53045" lon="5.98119">
        <ele>222</ele>
        <time>2010-01-01T02:09:01Z</time>
      </trkpt>
      <trkpt lat="43.5303" lon="5.98116">
        <ele>223</ele>
        <time>2010-01-01T02:09:04Z</time>
      </trkpt>
      <trkpt lat="43.52993" lon="5.98115">
        <ele>223</ele>
        <time>2010-01-01T02:09:11Z</time>
      </trkpt>
      <trkpt lat="43.52918" lon="5.98124">
        <ele>221</ele>
        <time>2010-01-01T02:09:26Z</time>
      </trkpt>
      <trkpt lat="43.52864" lon="5.98136">
        <ele>215</ele>
        <time>2010-01-01T02:09:37Z</time>
      </trkpt>
      <trkpt lat="43.52843" lon="5.98138">
        <ele>215</ele>
        <time>2010-01-01T02:09:41Z</time>
      </trkpt>
      <trkpt lat="43.52821" lon="5.98136">
        <ele>214</ele>
        <time>2010-01-01T02:09:46Z</time>
      </trkpt>
      <trkpt lat="43.52773" lon="5.98122">
        <ele>217</ele>
        <time>2010-01-01T02:09:55Z</time>
      </trkpt>
      <trkpt lat="43.52757" lon="5.98116">
        <ele>218</ele>
        <time>2010-01-01T02:09:59Z</time>
      </trkpt>
      <trkpt lat="43.52743" lon="5.98108">
        <ele>218</ele>
        <time>2010-01-01T02:10:02Z</time>
      </trkpt>
      <trkpt lat="43.527" lon="5.98074">
        <ele>216</ele>
        <time>2010-01-01T02:10:12Z</time>
      </trkpt>
      <trkpt lat="43.52667" lon="5.98057">
        <ele>213</ele>
        <time>2010-01-01T02:10:19Z</time>
      </trkpt>
      <trkpt lat="43.52616" lon="5.98001">
        <ele>220</ele>
        <time>2010-01-01T02:10:32Z</time>
      </trkpt>
      <trkpt lat="43.52557" lon="5.97957">
        <ele>217</ele>
        <time>2010-01-01T02:10:45Z</time>
      </trkpt>
      <trkpt lat="43.52527" lon="5.97943">
        <ele>220</ele>
        <time>2010-01-01T02:10:52Z</time>
      </trkpt>
      <trkpt lat="43.52485" lon="5.97935">
        <ele>219</ele>
        <time>2010-01-01T02:11:00Z</time>
      </trkpt>
      <trkpt lat="43.52472" lon="5.9793">
        <ele>218</ele>
        <time>2010-01-01T02:11:03Z</time>
      </trkpt>
      <trkpt lat="43.5246" lon="5.97922">
        <ele>217</ele>
        <time>2010-01-01T02:11:05Z</time>
      </trkpt>
      <trkpt lat="43.5245" lon="5.9791">
        <ele>218</ele>
        <time>2010-01-01T02:11:08Z</time>
      </trkpt>
      <trkpt lat="43.52417" lon="5.97828">
        <ele>215</ele>
        <time>2010-01-01T02:11:22Z</time>
      </trkpt>
      <trkpt lat="43.52417" lon="5.97827">
        <ele>215</ele>
        <time>2010-01-01T02:11:22Z</time>
      </trkpt>
      <trkpt lat="43.52411" lon="5.97804">
        <ele>214</ele>
        <time>2010-01-01T02:11:25Z</time>
      </trkpt>
      <trkpt lat="43.52409" lon="5.9779">
        <ele>214</ele>
        <time>2010-01-01T02:11:27Z</time>
      </trkpt>
      <trkpt lat="43.52411" lon="5.97776">
        <ele>214</ele>
        <time>2010-01-01T02:11:29Z</time>
      </trkpt>
      <trkpt lat="43.52417" lon="5.97766">
        <ele>215</ele>
        <time>2010-01-01T02:11:31Z</time>
      </trkpt>
      <trkpt lat="43.52426" lon="5.97759">
        <ele>215</ele>
        <time>2010-01-01T02:11:33Z</time>
      </trkpt>
      <trkpt lat="43.52486" lon="5.97729">
        <ele>217</ele>
        <time>2010-01-01T02:11:46Z</time>
      </trkpt>
      <trkpt lat="43.52498" lon="5.97721">
        <ele>216</ele>
        <time>2010-01-01T02:11:49Z</time>
      </trkpt>
      <trkpt lat="43.52542" lon="5.9767">
        <ele>217</ele>
        <time>2010-01-01T02:12:00Z</time>
      </trkpt>
      <trkpt lat="43.52554" lon="5.97662">
        <ele>219</ele>
        <time>2010-01-01T02:12:03Z</time>
      </trkpt>
      <trkpt lat="43.52567" lon="5.97659">
        <ele>221</ele>
        <time>2010-01-01T02:12:06Z</time>
      </trkpt>
      <trkpt lat="43.52579" lon="5.97661">
        <ele>223</ele>
        <time>2010-01-01T02:12:08Z</time>
      </trkpt>
      <trkpt lat="43.52604" lon="5.97672">
        <ele>223</ele>
        <time>2010-01-01T02:12:13Z</time>
      </trkpt>
      <trkpt lat="43.52618" lon="5.97676">
        <ele>223</ele>
        <time>2010-01-01T02:12:16Z</time>
      </trkpt>
      <trkpt lat="43.52632" lon="5.97677">
        <ele>224</ele>
        <time>2010-01-01T02:12:19Z</time>
      </trkpt>
      <trkpt lat="43.52648" lon="5.97674">
        <ele>224</ele>
        <time>2010-01-01T02:12:22Z</time>
      </trkpt>
      <trkpt lat="43.52663" lon="5.97669">
        <ele>224</ele>
        <time>2010-01-01T02:12:25Z</time>
      </trkpt>
      <trkpt lat="43.52753" lon="5.97623">
        <ele>226</ele>
        <time>2010-01-01T02:12:45Z</time>
      </trkpt>
      <trkpt lat="43.52766" lon="5.97612">
        <ele>226</ele>
        <time>2010-01-01T02:12:48Z</time>
      </trkpt>
      <trkpt lat="43.52777" lon="5.97599">
        <ele>226</ele>
        <time>2010-01-01T02:12:51Z</time>
      </trkpt>
      <trkpt lat="43.52785" lon="5.97582">
        <ele>227</ele>
        <time>2010-01-01T02:12:53Z</time>
      </trkpt>
      <trkpt lat="43.5279" lon="5.97564">
        <ele>226</ele>
        <time>2010-01-01T02:12:56Z</time>
      </trkpt>
      <trkpt lat="43.52792" lon="5.97543">
        <ele>225</ele>
        <time>2010-01-01T02:12:59Z</time>
      </trkpt>
      <trkpt lat="43.52791" lon="5.97522">
        <ele>224</ele>
        <time>2010-01-01T02:13:02Z</time>
      </trkpt>
      <trkpt lat="43.52787" lon="5.975">
        <ele>223</ele>
        <time>2010-01-01T02:13:06Z</time>
      </trkpt>
      <trkpt lat="43.5278" lon="5.97477">
        <ele>224</ele>
        <time>2010-01-01T02:13:09Z</time>
      </trkpt>
      <trkpt lat="43.52758" lon="5.97418">
        <ele>224</ele>
        <time>2010-01-01T02:13:19Z</time>
      </trkpt>
      <trkpt lat="43.52745" lon="5.97373">
        <ele>226</ele>
        <time>2010-01-01T02:13:26Z</time>
      </trkpt>
      <trkpt lat="43.52741" lon="5.9735">
        <ele>226</ele>
        <time>2010-01-01T02:13:29Z</time>
      </trkpt>
      <trkpt lat="43.52729" lon="5.97238">
        <ele>228</ele>
        <time>2010-01-01T02:13:46Z</time>
      </trkpt>
      <trkpt lat="43.52729" lon="5.97217">
        <ele>229</ele>
        <time>2010-01-01T02:13:49Z</time>
      </trkpt>
      <trkpt lat="43.52732" lon="5.97196">
        <ele>229</ele>
        <time>2010-01-01T02:13:52Z</time>
      </trkpt>
      <trkpt lat="43.52744" lon="5.97161">
        <ele>228</ele>
        <time>2010-01-01T02:13:58Z</time>
      </trkpt>
      <trkpt lat="43.52753" lon="5.97143">
        <ele>227</ele>
        <time>2010-01-01T02:14:01Z</time>
      </trkpt>
      <trkpt lat="43.52768" lon="5.9712">
        <ele>227</ele>
        <time>2010-01-01T02:14:05Z</time>
      </trkpt>
      <trkpt lat="43.52791" lon="5.97095">
        <ele>229</ele>
        <time>2010-01-01T02:14:11Z</time>
      </trkpt>
      <trkpt lat="43.52804" lon="5.97083">
        <ele>230</ele>
        <time>2010-01-01T02:14:14Z</time>
      </trkpt>
      <trkpt lat="43.52818" lon="5.97073">
        <ele>230</ele>
        <time>2010-01-01T02:14:17Z</time>
      </trkpt>
      <trkpt lat="43.52849" lon="5.97061">
        <ele>228</ele>
        <time>2010-01-01T02:14:24Z</time>
      </trkpt>
      <trkpt lat="43.52893" lon="5.97048">
        <ele>227</ele>
        <time>2010-01-01T02:14:33Z</time>
      </trkpt>
      <trkpt lat="43.52906" lon="5.9704">
        <ele>228</ele>
        <time>2010-01-01T02:14:36Z</time>
      </trkpt>
      <trkpt lat="43.52919" lon="5.9703">
        <ele>230</ele>
        <time>2010-01-01T02:14:39Z</time>
      </trkpt>
      <trkpt lat="43.52926" lon="5.97017">
        <ele>231</ele>
        <time>2010-01-01T02:14:41Z</time>
      </trkpt>
      <trkpt lat="43.5293" lon="5.96994">
        <ele>232</ele>
        <time>2010-01-01T02:14:44Z</time>
      </trkpt>
      <trkpt lat="43.5293" lon="5.96981">
        <ele>233</ele>
        <time>2010-01-01T02:14:46Z</time>
      </trkpt>
      <trkpt lat="43.52919" lon="5.96943">
        <ele>233</ele>
        <time>2010-01-01T02:14:52Z</time>
      </trkpt>
      <trkpt lat="43.5289" lon="5.96893">
        <ele>233</ele>
        <time>2010-01-01T02:15:02Z</time>
      </trkpt>
      <trkpt lat="43.52834" lon="5.96801">
        <ele>241</ele>
        <time>2010-01-01T02:15:19Z</time>
      </trkpt>
      <trkpt lat="43.52815" lon="5.96764">
        <ele>240</ele>
        <time>2010-01-01T02:15:26Z</time>
      </trkpt>
      <trkpt lat="43.52809" lon="5.96744">
        <ele>239</ele>
        <time>2010-01-01T02:15:29Z</time>
      </trkpt>
      <trkpt lat="43.52804" lon="5.96723">
        <ele>238</ele>
        <time>2010-01-01T02:15:32Z</time>
      </trkpt>
      <trkpt lat="43.52801" lon="5.96701">
        <ele>239</ele>
        <time>2010-01-01T02:15:35Z</time>
      </trkpt>
      <trkpt lat="43.528" lon="5.96657">
        <ele>241</ele>
        <time>2010-01-01T02:15:42Z</time>
      </trkpt>
      <trkpt lat="43.52796" lon="5.96633">
        <ele>242</ele>
        <time>2010-01-01T02:15:45Z</time>
      </trkpt>
      <trkpt lat="43.5279" lon="5.96612">
        <ele>243</ele>
        <time>2010-01-01T02:15:48Z</time>
      </trkpt>
      <trkpt lat="43.52782" lon="5.96586">
        <ele>244</ele>
        <time>2010-01-01T02:15:53Z</time>
      </trkpt>
      <trkpt lat="43.52765" lon="5.96543">
        <ele>244</ele>
        <time>2010-01-01T02:16:00Z</time>
      </trkpt>
      <trkpt lat="43.52726" lon="5.96464">
        <ele>238</ele>
        <time>2010-01-01T02:16:14Z</time>
      </trkpt>
      <trkpt lat="43.52714" lon="5.96444">
        <ele>240</ele>
        <time>2010-01-01T02:16:17Z</time>
      </trkpt>
      <trkpt lat="43.52701" lon="5.96425">
        <ele>244</ele>
        <time>2010-01-01T02:16:21Z</time>
      </trkpt>
      <trkpt lat="43.52674" lon="5.96404">
        <ele>245</ele>
        <time>2010-01-01T02:16:27Z</time>
      </trkpt>
      <trkpt lat="43.52658" lon="5.96397">
        <ele>244</ele>
        <time>2010-01-01T02:16:31Z</time>
      </trkpt>
      <trkpt lat="43.52641" lon="5.96392">
        <ele>242</ele>
        <time>2010-01-01T02:16:34Z</time>
      </trkpt>
      <trkpt lat="43.5257" lon="5.96379">
        <ele>238</ele>
        <time>2010-01-01T02:16:48Z</time>
      </trkpt>
      <trkpt lat="43.52542" lon="5.96371">
        <ele>236</ele>
        <time>2010-01-01T02:16:54Z</time>
      </trkpt>
      <trkpt lat="43.52517" lon="5.96357">
        <ele>236</ele>
        <time>2010-01-01T02:17:00Z</time>
      </trkpt>
      <trkpt lat="43.52509" lon="5.96346">
        <ele>237</ele>
        <time>2010-01-01T02:17:02Z</time>
      </trkpt>
      <trkpt lat="43.52505" lon="5.96333">
        <ele>237</ele>
        <time>2010-01-01T02:17:04Z</time>
      </trkpt>
      <trkpt lat="43.52504" lon="5.96317">
        <ele>239</ele>
        <time>2010-01-01T02:17:06Z</time>
      </trkpt>
      <trkpt lat="43.52507" lon="5.96297">
        <ele>241</ele>
        <time>2010-01-01T02:17:09Z</time>
      </trkpt>
      <trkpt lat="43.52519" lon="5.96264">
        <ele>245</ele>
        <time>2010-01-01T02:17:15Z</time>
      </trkpt>
      <trkpt lat="43.52534" lon="5.96232">
        <ele>248</ele>
        <time>2010-01-01T02:17:20Z</time>
      </trkpt>
      <trkpt lat="43.52565" lon="5.9619">
        <ele>249</ele>
        <time>2010-01-01T02:17:29Z</time>
      </trkpt>
      <trkpt lat="43.52595" lon="5.96143">
        <ele>250</ele>
        <time>2010-01-01T02:17:38Z</time>
      </trkpt>
      <trkpt lat="43.52604" lon="5.96125">
        <ele>249</ele>
        <time>2010-01-01T02:17:41Z</time>
      </trkpt>
      <trkpt lat="43.52608" lon="5.96107">
        <ele>247</ele>
        <time>2010-01-01T02:17:44Z</time>
      </trkpt>
      <trkpt lat="43.52608" lon="5.9609">
        <ele>247</ele>
        <time>2010-01-01T02:17:46Z</time>
      </trkpt>
      <trkpt lat="43.52604" lon="5.96078">
        <ele>248</ele>
        <time>2010-01-01T02:17:48Z</time>
      </trkpt>
      <trkpt lat="43.52595" lon="5.96061">
        <ele>249</ele>
        <time>2010-01-01T02:17:51Z</time>
      </trkpt>
      <trkpt lat="43.52573" lon="5.9603">
        <ele>250</ele>
        <time>2010-01-01T02:17:57Z</time>
      </trkpt>
      <trkpt lat="43.5256" lon="5.96016">
        <ele>249</ele>
        <time>2010-01-01T02:18:01Z</time>
      </trkpt>
      <trkpt lat="43.52492" lon="5.95956">
        <ele>250</ele>
        <time>2010-01-01T02:18:17Z</time>
      </trkpt>
      <trkpt lat="43.52445" lon="5.9591">
        <ele>249</ele>
        <time>2010-01-01T02:18:28Z</time>
      </trkpt>
      <trkpt lat="43.52429" lon="5.95893">
        <ele>250</ele>
        <time>2010-01-01T02:18:33Z</time>
      </trkpt>
      <trkpt lat="43.52425" lon="5.95882">
        <ele>250</ele>
        <time>2010-01-01T02:18:34Z</time>
      </trkpt>
      <trkpt lat="43.52425" lon="5.95872">
        <ele>250</ele>
        <time>2010-01-01T02:18:36Z</time>
      </trkpt>
      <trkpt lat="43.52428" lon="5.95864">
        <ele>250</ele>
        <time>2010-01-01T02:18:37Z</time>
      </trkpt>
      <trkpt lat="43.52432" lon="5.95856">
        <ele>251</ele>
        <time>2010-01-01T02:18:38Z</time>
      </trkpt>
      <trkpt lat="43.52439" lon="5.95848">
        <ele>251</ele>
        <time>2010-01-01T02:18:40Z</time>
      </trkpt>
      <trkpt lat="43.52457" lon="5.95838">
        <ele>252</ele>
        <time>2010-01-01T02:18:44Z</time>
      </trkpt>
      <trkpt lat="43.52478" lon="5.95829">
        <ele>252</ele>
        <time>2010-01-01T02:18:49Z</time>
      </trkpt>
      <trkpt lat="43.52508" lon="5.95827">
        <ele>253</ele>
        <time>2010-01-01T02:18:55Z</time>
      </trkpt>
      <trkpt lat="43.52566" lon="5.95841">
        <ele>256</ele>
        <time>2010-01-01T02:19:06Z</time>
      </trkpt>
      <trkpt lat="43.52577" lon="5.9584">
        <ele>257</ele>
        <time>2010-01-01T02:19:09Z</time>
      </trkpt>
      <trkpt lat="43.52599" lon="5.9583">
        <ele>260</ele>
        <time>2010-01-01T02:19:13Z</time>
      </trkpt>
      <trkpt lat="43.5261" lon="5.95821">
        <ele>261</ele>
        <time>2010-01-01T02:19:16Z</time>
      </trkpt>
      <trkpt lat="43.5262" lon="5.95809">
        <ele>263</ele>
        <time>2010-01-01T02:19:18Z</time>
      </trkpt>
      <trkpt lat="43.52635" lon="5.95781">
        <ele>264</ele>
        <time>2010-01-01T02:19:23Z</time>
      </trkpt>
      <trkpt lat="43.52641" lon="5.95764">
        <ele>264</ele>
        <time>2010-01-01T02:19:26Z</time>
      </trkpt>
      <trkpt lat="43.52645" lon="5.95746">
        <ele>264</ele>
        <time>2010-01-01T02:19:29Z</time>
      </trkpt>
      <trkpt lat="43.52647" lon="5.95726">
        <ele>264</ele>
        <time>2010-01-01T02:19:32Z</time>
      </trkpt>
      <trkpt lat="43.52647" lon="5.95705">
        <ele>264</ele>
        <time>2010-01-01T02:19:35Z</time>
      </trkpt>
      <trkpt lat="43.52641" lon="5.95662">
        <ele>264</ele>
        <time>2010-01-01T02:19:41Z</time>
      </trkpt>
      <trkpt lat="43.52617" lon="5.95553">
        <ele>264</ele>
        <time>2010-01-01T02:19:58Z</time>
      </trkpt>
      <trkpt lat="43.52571" lon="5.95403">
        <ele>262</ele>
        <time>2010-01-01T02:20:21Z</time>
      </trkpt>
      <trkpt lat="43.52568" lon="5.95383">
        <ele>261</ele>
        <time>2010-01-01T02:20:24Z</time>
      </trkpt>
      <trkpt lat="43.52568" lon="5.95364">
        <ele>262</ele>
        <time>2010-01-01T02:20:27Z</time>
      </trkpt>
      <trkpt lat="43.52573" lon="5.95345">
        <ele>261</ele>
        <time>2010-01-01T02:20:30Z</time>
      </trkpt>
      <trkpt lat="43.5258" lon="5.95328">
        <ele>260</ele>
        <time>2010-01-01T02:20:33Z</time>
      </trkpt>
      <trkpt lat="43.5263" lon="5.95252">
        <ele>257</ele>
        <time>2010-01-01T02:20:48Z</time>
      </trkpt>
      <trkpt lat="43.52644" lon="5.95222">
        <ele>257</ele>
        <time>2010-01-01T02:20:53Z</time>
      </trkpt>
      <trkpt lat="43.5265" lon="5.95178">
        <ele>255</ele>
        <time>2010-01-01T02:21:00Z</time>
      </trkpt>
      <trkpt lat="43.52679" lon="5.94943">
        <ele>259</ele>
        <time>2010-01-01T02:21:34Z</time>
      </trkpt>
      <trkpt lat="43.52682" lon="5.94931">
        <ele>259</ele>
        <time>2010-01-01T02:21:36Z</time>
      </trkpt>
      <trkpt lat="43.52688" lon="5.94916">
        <ele>259</ele>
        <time>2010-01-01T02:21:38Z</time>
      </trkpt>
      <trkpt lat="43.52695" lon="5.94905">
        <ele>260</ele>
        <time>2010-01-01T02:21:41Z</time>
      </trkpt>
      <trkpt lat="43.52733" lon="5.94862">
        <ele>264</ele>
        <time>2010-01-01T02:21:50Z</time>
      </trkpt>
      <trkpt lat="43.52742" lon="5.94849">
        <ele>265</ele>
        <time>2010-01-01T02:21:53Z</time>
      </trkpt>
      <trkpt lat="43.5275" lon="5.94836">
        <ele>266</ele>
        <time>2010-01-01T02:21:55Z</time>
      </trkpt>
      <trkpt lat="43.52756" lon="5.94821">
        <ele>266</ele>
        <time>2010-01-01T02:21:58Z</time>
      </trkpt>
      <trkpt lat="43.52759" lon="5.94806">
        <ele>266</ele>
        <time>2010-01-01T02:22:00Z</time>
      </trkpt>
      <trkpt lat="43.52769" lon="5.94718">
        <ele>266</ele>
        <time>2010-01-01T02:22:13Z</time>
      </trkpt>
      <trkpt lat="43.5278" lon="5.94593">
        <ele>266</ele>
        <time>2010-01-01T02:22:31Z</time>
      </trkpt>
      <trkpt lat="43.52778" lon="5.94583">
        <ele>267</ele>
        <time>2010-01-01T02:22:33Z</time>
      </trkpt>
      <trkpt lat="43.52759" lon="5.94539">
        <ele>267</ele>
        <time>2010-01-01T02:22:40Z</time>
      </trkpt>
      <trkpt lat="43.52759" lon="5.94538">
        <ele>267</ele>
        <time>2010-01-01T02:22:41Z</time>
      </trkpt>
      <trkpt lat="43.52744" lon="5.94501">
        <ele>268</ele>
        <time>2010-01-01T02:22:47Z</time>
      </trkpt>
      <trkpt lat="43.52709" lon="5.94427">
        <ele>266</ele>
        <time>2010-01-01T02:22:59Z</time>
      </trkpt>
      <trkpt lat="43.526" lon="5.94183">
        <ele>266</ele>
        <time>2010-01-01T02:23:41Z</time>
      </trkpt>
      <trkpt lat="43.52582" lon="5.94157">
        <ele>265</ele>
        <time>2010-01-01T02:23:46Z</time>
      </trkpt>
      <trkpt lat="43.52548" lon="5.94125">
        <ele>263</ele>
        <time>2010-01-01T02:23:55Z</time>
      </trkpt>
      <trkpt lat="43.52437" lon="5.93996">
        <ele>266</ele>
        <time>2010-01-01T02:24:24Z</time>
      </trkpt>
      <trkpt lat="43.52193" lon="5.9373">
        <ele>286</ele>
        <time>2010-01-01T02:25:26Z</time>
      </trkpt>
      <trkpt lat="43.52141" lon="5.93665">
        <ele>286</ele>
        <time>2010-01-01T02:25:40Z</time>
      </trkpt>
      <trkpt lat="43.52119" lon="5.93615">
        <ele>282</ele>
        <time>2010-01-01T02:25:48Z</time>
      </trkpt>
      <trkpt lat="43.52105" lon="5.93556">
        <ele>282</ele>
        <time>2010-01-01T02:25:57Z</time>
      </trkpt>
      <trkpt lat="43.52088" lon="5.93397">
        <ele>284</ele>
        <time>2010-01-01T02:26:21Z</time>
      </trkpt>
      <trkpt lat="43.52077" lon="5.93346">
        <ele>284</ele>
        <time>2010-01-01T02:26:28Z</time>
      </trkpt>
      <trkpt lat="43.52061" lon="5.93309">
        <ele>285</ele>
        <time>2010-01-01T02:26:35Z</time>
      </trkpt>
      <trkpt lat="43.52036" lon="5.93273">
        <ele>285</ele>
        <time>2010-01-01T02:26:42Z</time>
      </trkpt>
      <trkpt lat="43.51181" lon="5.92289">
        <ele>299</ele>
        <time>2010-01-01T02:30:25Z</time>
      </trkpt>
      <trkpt lat="43.50768" lon="5.93082">
        <ele>314</ele>
        <time>2010-01-01T02:32:47Z</time>
      </trkpt>
      <trkpt lat="43.50751" lon="5.9311">
        <ele>317</ele>
        <time>2010-01-01T02:32:52Z</time>
      </trkpt>
      <trkpt lat="43.50731" lon="5.93128">
        <ele>320</ele>
        <time>2010-01-01T02:32:57Z</time>
      </trkpt>
      <trkpt lat="43.50711" lon="5.93133">
        <ele>321</ele>
        <time>2010-01-01T02:33:01Z</time>
      </trkpt>
      <trkpt lat="43.50695" lon="5.93131">
        <ele>320</ele>
        <time>2010-01-01T02:33:04Z</time>
      </trkpt>
      <trkpt lat="43.50679" lon="5.93125">
        <ele>322</ele>
        <time>2010-01-01T02:33:07Z</time>
      </trkpt>
      <trkpt lat="43.50664" lon="5.93115">
        <ele>322</ele>
        <time>2010-01-01T02:33:11Z</time>
      </trkpt>
      <trkpt lat="43.50593" lon="5.93025">
        <ele>323</ele>
        <time>2010-01-01T02:33:30Z</time>
      </trkpt>
      <trkpt lat="43.50579" lon="5.93018">
        <ele>325</ele>
        <time>2010-01-01T02:33:33Z</time>
      </trkpt>
      <trkpt lat="43.5057" lon="5.93021">
        <ele>326</ele>
        <time>2010-01-01T02:33:35Z</time>
      </trkpt>
      <trkpt lat="43.50559" lon="5.93029">
        <ele>328</ele>
        <time>2010-01-01T02:33:37Z</time>
      </trkpt>
      <trkpt lat="43.50545" lon="5.93049">
        <ele>328</ele>
        <time>2010-01-01T02:33:41Z</time>
      </trkpt>
      <trkpt lat="43.50531" lon="5.93064">
        <ele>327</ele>
        <time>2010-01-01T02:33:45Z</time>
      </trkpt>
      <trkpt lat="43.50514" lon="5.93066">
        <ele>326</ele>
        <time>2010-01-01T02:33:48Z</time>
      </trkpt>
      <trkpt lat="43.50483" lon="5.93053">
        <ele>326</ele>
        <time>2010-01-01T02:33:55Z</time>
      </trkpt>
      <trkpt lat="43.50461" lon="5.93048">
        <ele>324</ele>
        <time>2010-01-01T02:33:59Z</time>
      </trkpt>
      <trkpt lat="43.5045" lon="5.93043">
        <ele>323</ele>
        <time>2010-01-01T02:34:01Z</time>
      </trkpt>
      <trkpt lat="43.50438" lon="5.93033">
        <ele>322</ele>
        <time>2010-01-01T02:34:04Z</time>
      </trkpt>
      <trkpt lat="43.50402" lon="5.92986">
        <ele>320</ele>
        <time>2010-01-01T02:34:14Z</time>
      </trkpt>
      <trkpt lat="43.50388" lon="5.9298">
        <ele>317</ele>
        <time>2010-01-01T02:34:17Z</time>
      </trkpt>
      <trkpt lat="43.50376" lon="5.92983">
        <ele>314</ele>
        <time>2010-01-01T02:34:20Z</time>
      </trkpt>
      <trkpt lat="43.5036" lon="5.92996">
        <ele>311</ele>
        <time>2010-01-01T02:34:23Z</time>
      </trkpt>
      <trkpt lat="43.50318" lon="5.93055">
        <ele>310</ele>
        <time>2010-01-01T02:34:35Z</time>
      </trkpt>
      <trkpt lat="43.50277" lon="5.93081">
        <ele>306</ele>
        <time>2010-01-01T02:34:44Z</time>
      </trkpt>
      <trkpt lat="43.50244" lon="5.93109">
        <ele>301</ele>
        <time>2010-01-01T02:34:52Z</time>
      </trkpt>
      <trkpt lat="43.50229" lon="5.93112">
        <ele>299</ele>
        <time>2010-01-01T02:34:55Z</time>
      </trkpt>
      <trkpt lat="43.50218" lon="5.93106">
        <ele>299</ele>
        <time>2010-01-01T02:34:57Z</time>
      </trkpt>
      <trkpt lat="43.50191" lon="5.9308">
        <ele>304</ele>
        <time>2010-01-01T02:35:04Z</time>
      </trkpt>
      <trkpt lat="43.50178" lon="5.9307">
        <ele>307</ele>
        <time>2010-01-01T02:35:07Z</time>
      </trkpt>
      <trkpt lat="43.50163" lon="5.9307">
        <ele>308</ele>
        <time>2010-01-01T02:35:10Z</time>
      </trkpt>
      <trkpt lat="43.50082" lon="5.93095">
        <ele>303</ele>
        <time>2010-01-01T02:35:27Z</time>
      </trkpt>
      <trkpt lat="43.50044" lon="5.93091">
        <ele>299</ele>
        <time>2010-01-01T02:35:34Z</time>
      </trkpt>
      <trkpt lat="43.50034" lon="5.93094">
        <ele>296</ele>
        <time>2010-01-01T02:35:36Z</time>
      </trkpt>
      <trkpt lat="43.50015" lon="5.93108">
        <ele>293</ele>
        <time>2010-01-01T02:35:41Z</time>
      </trkpt>
      <trkpt lat="43.50004" lon="5.93122">
        <ele>294</ele>
        <time>2010-01-01T02:35:44Z</time>
      </trkpt>
      <trkpt lat="43.5" lon="5.93132">
        <ele>295</ele>
        <time>2010-01-01T02:35:45Z</time>
      </trkpt>
      <trkpt lat="43.49995" lon="5.93154">
        <ele>297</ele>
        <time>2010-01-01T02:35:49Z</time>
      </trkpt>
      <trkpt lat="43.49994" lon="5.93293">
        <ele>293</ele>
        <time>2010-01-01T02:36:09Z</time>
      </trkpt>
      <trkpt lat="43.49991" lon="5.93354">
        <ele>291</ele>
        <time>2010-01-01T02:36:18Z</time>
      </trkpt>
      <trkpt lat="43.49983" lon="5.93418">
        <ele>290</ele>
        <time>2010-01-01T02:36:27Z</time>
      </trkpt>
      <trkpt lat="43.49962" lon="5.93493">
        <ele>290</ele>
        <time>2010-01-01T02:36:39Z</time>
      </trkpt>
      <trkpt lat="43.49933" lon="5.93577">
        <ele>283</ele>
        <time>2010-01-01T02:36:52Z</time>
      </trkpt>
      <trkpt lat="43.49923" lon="5.93595">
        <ele>283</ele>
        <time>2010-01-01T02:36:56Z</time>
      </trkpt>
      <trkpt lat="43.49907" lon="5.93609">
        <ele>283</ele>
        <time>2010-01-01T02:36:59Z</time>
      </trkpt>
      <trkpt lat="43.49816" lon="5.93648">
        <ele>279</ele>
        <time>2010-01-01T02:37:18Z</time>
      </trkpt>
      <trkpt lat="43.49791" lon="5.93669">
        <ele>279</ele>
        <time>2010-01-01T02:37:24Z</time>
      </trkpt>
      <trkpt lat="43.4977" lon="5.93693">
        <ele>278</ele>
        <time>2010-01-01T02:37:30Z</time>
      </trkpt>
      <trkpt lat="43.49759" lon="5.93719">
        <ele>279</ele>
        <time>2010-01-01T02:37:34Z</time>
      </trkpt>
      <trkpt lat="43.49737" lon="5.93866">
        <ele>278</ele>
        <time>2010-01-01T02:37:56Z</time>
      </trkpt>
      <trkpt lat="43.49713" lon="5.93961">
        <ele>275</ele>
        <time>2010-01-01T02:38:11Z</time>
      </trkpt>
      <trkpt lat="43.497" lon="5.93982">
        <ele>275</ele>
        <time>2010-01-01T02:38:15Z</time>
      </trkpt>
      <trkpt lat="43.49656" lon="5.9401">
        <ele>273</ele>
        <time>2010-01-01T02:38:24Z</time>
      </trkpt>
      <trkpt lat="43.49571" lon="5.94098">
        <ele>273</ele>
        <time>2010-01-01T02:38:46Z</time>
      </trkpt>
      <trkpt lat="43.4955" lon="5.94129">
        <ele>274</ele>
        <time>2010-01-01T02:38:52Z</time>
      </trkpt>
      <trkpt lat="43.49539" lon="5.94181">
        <ele>277</ele>
        <time>2010-01-01T02:39:00Z</time>
      </trkpt>
      <trkpt lat="43.49525" lon="5.94442">
        <ele>277</ele>
        <time>2010-01-01T02:39:38Z</time>
      </trkpt>
      <trkpt lat="43.49528" lon="5.94479">
        <ele>280</ele>
        <time>2010-01-01T02:39:43Z</time>
      </trkpt>
      <trkpt lat="43.49546" lon="5.94538">
        <ele>279</ele>
        <time>2010-01-01T02:39:52Z</time>
      </trkpt>
      <trkpt lat="43.4955" lon="5.94561">
        <ele>276</ele>
        <time>2010-01-01T02:39:56Z</time>
      </trkpt>
      <trkpt lat="43.49549" lon="5.94579">
        <ele>275</ele>
        <time>2010-01-01T02:39:58Z</time>
      </trkpt>
      <trkpt lat="43.49534" lon="5.94617">
        <ele>274</ele>
        <time>2010-01-01T02:40:05Z</time>
      </trkpt>
      <trkpt lat="43.4948" lon="5.94731">
        <ele>270</ele>
        <time>2010-01-01T02:40:24Z</time>
      </trkpt>
      <trkpt lat="43.49465" lon="5.94759">
        <ele>270</ele>
        <time>2010-01-01T02:40:29Z</time>
      </trkpt>
      <trkpt lat="43.49454" lon="5.94768">
        <ele>271</ele>
        <time>2010-01-01T02:40:32Z</time>
      </trkpt>
      <trkpt lat="43.49444" lon="5.94771">
        <ele>271</ele>
        <time>2010-01-01T02:40:34Z</time>
      </trkpt>
      <trkpt lat="43.49428" lon="5.94774">
        <ele>272</ele>
        <time>2010-01-01T02:40:37Z</time>
      </trkpt>
      <trkpt lat="43.49265" lon="5.94745">
        <ele>271</ele>
        <time>2010-01-01T02:41:10Z</time>
      </trkpt>
      <trkpt lat="43.49169" lon="5.94762">
        <ele>270</ele>
        <time>2010-01-01T02:41:30Z</time>
      </trkpt>
      <trkpt lat="43.4914" lon="5.94773">
        <ele>270</ele>
        <time>2010-01-01T02:41:36Z</time>
      </trkpt>
      <trkpt lat="43.49085" lon="5.94811">
        <ele>263</ele>
        <time>2010-01-01T02:41:48Z</time>
      </trkpt>
      <trkpt lat="43.49027" lon="5.94843">
        <ele>268</ele>
        <time>2010-01-01T02:42:00Z</time>
      </trkpt>
      <trkpt lat="43.48967" lon="5.9488">
        <ele>272</ele>
        <time>2010-01-01T02:42:14Z</time>
      </trkpt>
      <trkpt lat="43.48928" lon="5.94901">
        <ele>272</ele>
        <time>2010-01-01T02:42:22Z</time>
      </trkpt>
      <trkpt lat="43.48876" lon="5.94917">
        <ele>268</ele>
        <time>2010-01-01T02:42:33Z</time>
      </trkpt>
      <trkpt lat="43.48833" lon="5.94924">
        <ele>265</ele>
        <time>2010-01-01T02:42:41Z</time>
      </trkpt>
      <trkpt lat="43.48791" lon="5.94921">
        <ele>264</ele>
        <time>2010-01-01T02:42:50Z</time>
      </trkpt>
      <trkpt lat="43.48755" lon="5.94907">
        <ele>264</ele>
        <time>2010-01-01T02:42:57Z</time>
      </trkpt>
      <trkpt lat="43.48719" lon="5.94887">
        <ele>266</ele>
        <time>2010-01-01T02:43:05Z</time>
      </trkpt>
      <trkpt lat="43.48653" lon="5.94833">
        <ele>260</ele>
        <time>2010-01-01T02:43:20Z</time>
      </trkpt>
      <trkpt lat="43.48615" lon="5.9482">
        <ele>257</ele>
        <time>2010-01-01T02:43:28Z</time>
      </trkpt>
      <trkpt lat="43.48576" lon="5.94817">
        <ele>258</ele>
        <time>2010-01-01T02:43:36Z</time>
      </trkpt>
      <trkpt lat="43.48508" lon="5.94799">
        <ele>271</ele>
        <time>2010-01-01T02:43:50Z</time>
      </trkpt>
      <trkpt lat="43.48452" lon="5.94807">
        <ele>281</ele>
        <time>2010-01-01T02:44:01Z</time>
      </trkpt>
      <trkpt lat="43.4841" lon="5.94826">
        <ele>280</ele>
        <time>2010-01-01T02:44:10Z</time>
      </trkpt>
      <trkpt lat="43.48368" lon="5.94869">
        <ele>274</ele>
        <time>2010-01-01T02:44:20Z</time>
      </trkpt>
      <trkpt lat="43.48324" lon="5.94892">
        <ele>271</ele>
        <time>2010-01-01T02:44:30Z</time>
      </trkpt>
      <trkpt lat="43.48265" lon="5.94908">
        <ele>267</ele>
        <time>2010-01-01T02:44:42Z</time>
      </trkpt>
      <trkpt lat="43.48231" lon="5.94911">
        <ele>267</ele>
        <time>2010-01-01T02:44:49Z</time>
      </trkpt>
      <trkpt lat="43.48207" lon="5.94904">
        <ele>271</ele>
        <time>2010-01-01T02:44:54Z</time>
      </trkpt>
      <trkpt lat="43.48178" lon="5.94891">
        <ele>271</ele>
        <time>2010-01-01T02:45:00Z</time>
      </trkpt>
      <trkpt lat="43.48165" lon="5.94879">
        <ele>271</ele>
        <time>2010-01-01T02:45:03Z</time>
      </trkpt>
      <trkpt lat="43.48152" lon="5.94863">
        <ele>270</ele>
        <time>2010-01-01T02:45:06Z</time>
      </trkpt>
      <trkpt lat="43.48144" lon="5.94837">
        <ele>271</ele>
        <time>2010-01-01T02:45:10Z</time>
      </trkpt>
      <trkpt lat="43.48132" lon="5.9481">
        <ele>271</ele>
        <time>2010-01-01T02:45:15Z</time>
      </trkpt>
      <trkpt lat="43.48102" lon="5.94781">
        <ele>270</ele>
        <time>2010-01-01T02:45:22Z</time>
      </trkpt>
      <trkpt lat="43.48074" lon="5.9476">
        <ele>274</ele>
        <time>2010-01-01T02:45:29Z</time>
      </trkpt>
      <trkpt lat="43.48019" lon="5.94763">
        <ele>272</ele>
        <time>2010-01-01T02:45:40Z</time>
      </trkpt>
      <trkpt lat="43.47962" lon="5.94761">
        <ele>272</ele>
        <time>2010-01-01T02:45:51Z</time>
      </trkpt>
      <trkpt lat="43.47909" lon="5.94763">
        <ele>274</ele>
        <time>2010-01-01T02:46:02Z</time>
      </trkpt>
      <trkpt lat="43.47878" lon="5.94809">
        <ele>270</ele>
        <time>2010-01-01T02:46:11Z</time>
      </trkpt>
      <trkpt lat="43.47821" lon="5.94915">
        <ele>260</ele>
        <time>2010-01-01T02:46:30Z</time>
      </trkpt>
      <trkpt lat="43.47802" lon="5.9493">
        <ele>261</ele>
        <time>2010-01-01T02:46:34Z</time>
      </trkpt>
      <trkpt lat="43.47785" lon="5.94939">
        <ele>261</ele>
        <time>2010-01-01T02:46:38Z</time>
      </trkpt>
      <trkpt lat="43.47767" lon="5.94933">
        <ele>261</ele>
        <time>2010-01-01T02:46:42Z</time>
      </trkpt>
      <trkpt lat="43.47762" lon="5.9492">
        <ele>260</ele>
        <time>2010-01-01T02:46:44Z</time>
      </trkpt>
      <trkpt lat="43.47759" lon="5.94909">
        <ele>260</ele>
        <time>2010-01-01T02:46:46Z</time>
      </trkpt>
      <trkpt lat="43.47756" lon="5.94874">
        <ele>261</ele>
        <time>2010-01-01T02:46:51Z</time>
      </trkpt>
      <trkpt lat="43.47743" lon="5.94826">
        <ele>268</ele>
        <time>2010-01-01T02:46:58Z</time>
      </trkpt>
      <trkpt lat="43.47711" lon="5.94781">
        <ele>275</ele>
        <time>2010-01-01T02:47:07Z</time>
      </trkpt>
      <trkpt lat="43.47689" lon="5.94757">
        <ele>280</ele>
        <time>2010-01-01T02:47:13Z</time>
      </trkpt>
      <trkpt lat="43.47664" lon="5.94753">
        <ele>278</ele>
        <time>2010-01-01T02:47:18Z</time>
      </trkpt>
      <trkpt lat="43.47614" lon="5.94759">
        <ele>277</ele>
        <time>2010-01-01T02:47:28Z</time>
      </trkpt>
      <trkpt lat="43.47579" lon="5.94779">
        <ele>273</ele>
        <time>2010-01-01T02:47:36Z</time>
      </trkpt>
      <trkpt lat="43.47261" lon="5.9504">
        <ele>265</ele>
        <time>2010-01-01T02:48:50Z</time>
      </trkpt>
      <trkpt lat="43.47228" lon="5.95087">
        <ele>263</ele>
        <time>2010-01-01T02:48:59Z</time>
      </trkpt>
      <trkpt lat="43.47212" lon="5.95122">
        <ele>263</ele>
        <time>2010-01-01T02:49:05Z</time>
      </trkpt>
      <trkpt lat="43.47189" lon="5.95233">
        <ele>263</ele>
        <time>2010-01-01T02:49:22Z</time>
      </trkpt>
      <trkpt lat="43.47187" lon="5.95266">
        <ele>269</ele>
        <time>2010-01-01T02:49:27Z</time>
      </trkpt>
      <trkpt lat="43.47153" lon="5.95263">
        <ele>271</ele>
        <time>2010-01-01T02:49:34Z</time>
      </trkpt>
      <trkpt lat="43.47101" lon="5.95246">
        <ele>268</ele>
        <time>2010-01-01T02:49:44Z</time>
      </trkpt>
      <trkpt lat="43.4704" lon="5.95219">
        <ele>269</ele>
        <time>2010-01-01T02:49:57Z</time>
      </trkpt>
      <trkpt lat="43.47025" lon="5.95207">
        <ele>268</ele>
        <time>2010-01-01T02:50:01Z</time>
      </trkpt>
      <trkpt lat="43.4699" lon="5.95159">
        <ele>267</ele>
        <time>2010-01-01T02:50:10Z</time>
      </trkpt>
      <trkpt lat="43.46964" lon="5.95117">
        <ele>269</ele>
        <time>2010-01-01T02:50:18Z</time>
      </trkpt>
      <trkpt lat="43.46945" lon="5.95076">
        <ele>273</ele>
        <time>2010-01-01T02:50:26Z</time>
      </trkpt>
      <trkpt lat="43.46917" lon="5.94957">
        <ele>273</ele>
        <time>2010-01-01T02:50:44Z</time>
      </trkpt>
      <trkpt lat="43.46911" lon="5.94943">
        <ele>275</ele>
        <time>2010-01-01T02:50:46Z</time>
      </trkpt>
      <trkpt lat="43.46916" lon="5.94818">
        <ele>280</ele>
        <time>2010-01-01T02:51:04Z</time>
      </trkpt>
      <trkpt lat="43.46915" lon="5.94796">
        <ele>280</ele>
        <time>2010-01-01T02:51:07Z</time>
      </trkpt>
      <trkpt lat="43.46907" lon="5.94767">
        <ele>280</ele>
        <time>2010-01-01T02:51:12Z</time>
      </trkpt>
      <trkpt lat="43.46891" lon="5.94735">
        <ele>278</ele>
        <time>2010-01-01T02:51:18Z</time>
      </trkpt>
      <trkpt lat="43.46886" lon="5.94729">
        <ele>278</ele>
        <time>2010-01-01T02:51:19Z</time>
      </trkpt>
      <trkpt lat="43.46875" lon="5.94723">
        <ele>277</ele>
        <time>2010-01-01T02:51:21Z</time>
      </trkpt>
      <trkpt lat="43.46863" lon="5.94724">
        <ele>278</ele>
        <time>2010-01-01T02:51:24Z</time>
      </trkpt>
      <trkpt lat="43.46785" lon="5.9475">
        <ele>272</ele>
        <time>2010-01-01T02:51:40Z</time>
      </trkpt>
      <trkpt lat="43.46765" lon="5.94748">
        <ele>270</ele>
        <time>2010-01-01T02:51:44Z</time>
      </trkpt>
      <trkpt lat="43.46758" lon="5.94744">
        <ele>268</ele>
        <time>2010-01-01T02:51:45Z</time>
      </trkpt>
      <trkpt lat="43.46733" lon="5.94734">
        <ele>265</ele>
        <time>2010-01-01T02:51:50Z</time>
      </trkpt>
      <trkpt lat="43.46725" lon="5.94727">
        <ele>264</ele>
        <time>2010-01-01T02:51:52Z</time>
      </trkpt>
      <trkpt lat="43.4669" lon="5.94735">
        <ele>266</ele>
        <time>2010-01-01T02:51:59Z</time>
      </trkpt>
      <trkpt lat="43.46635" lon="5.94752">
        <ele>268</ele>
        <time>2010-01-01T02:52:11Z</time>
      </trkpt>
      <trkpt lat="43.46621" lon="5.9476">
        <ele>269</ele>
        <time>2010-01-01T02:52:14Z</time>
      </trkpt>
      <trkpt lat="43.46619" lon="5.94765">
        <ele>270</ele>
        <time>2010-01-01T02:52:15Z</time>
      </trkpt>
      <trkpt lat="43.46621" lon="5.9476">
        <ele>269</ele>
        <time>2010-01-01T02:52:15Z</time>
      </trkpt>
      <trkpt lat="43.46635" lon="5.94752">
        <ele>268</ele>
        <time>2010-01-01T02:52:18Z</time>
      </trkpt>
      <trkpt lat="43.46625" lon="5.94721">
        <ele>262</ele>
        <time>2010-01-01T02:52:23Z</time>
      </trkpt>
      <trkpt lat="43.46618" lon="5.94679">
        <ele>261</ele>
        <time>2010-01-01T02:52:30Z</time>
      </trkpt>
      <trkpt lat="43.46616" lon="5.94645">
        <ele>262</ele>
        <time>2010-01-01T02:52:35Z</time>
      </trkpt>
      <trkpt lat="43.46614" lon="5.94514">
        <ele>261</ele>
        <time>2010-01-01T02:52:54Z</time>
      </trkpt>
      <trkpt lat="43.4661" lon="5.94493">
        <ele>261</ele>
        <time>2010-01-01T02:52:57Z</time>
      </trkpt>
      <trkpt lat="43.46604" lon="5.94473">
        <ele>261</ele>
        <time>2010-01-01T02:53:00Z</time>
      </trkpt>
      <trkpt lat="43.46589" lon="5.94441">
        <ele>263</ele>
        <time>2010-01-01T02:53:05Z</time>
      </trkpt>
      <trkpt lat="43.46584" lon="5.94424">
        <ele>265</ele>
        <time>2010-01-01T02:53:08Z</time>
      </trkpt>
      <trkpt lat="43.46576" lon="5.94381">
        <ele>265</ele>
        <time>2010-01-01T02:53:15Z</time>
      </trkpt>
      <trkpt lat="43.46562" lon="5.94352">
        <ele>264</ele>
        <time>2010-01-01T02:53:20Z</time>
      </trkpt>
      <trkpt lat="43.46553" lon="5.94341">
        <ele>264</ele>
        <time>2010-01-01T02:53:22Z</time>
      </trkpt>
      <trkpt lat="43.46539" lon="5.9433">
        <ele>263</ele>
        <time>2010-01-01T02:53:25Z</time>
      </trkpt>
      <trkpt lat="43.46494" lon="5.9431">
        <ele>262</ele>
        <time>2010-01-01T02:53:35Z</time>
      </trkpt>
      <trkpt lat="43.4643" lon="5.94279">
        <ele>263</ele>
        <time>2010-01-01T02:53:48Z</time>
      </trkpt>
      <trkpt lat="43.46417" lon="5.94269">
        <ele>264</ele>
        <time>2010-01-01T02:53:51Z</time>
      </trkpt>
      <trkpt lat="43.46407" lon="5.94257">
        <ele>264</ele>
        <time>2010-01-01T02:53:54Z</time>
      </trkpt>
      <trkpt lat="43.46401" lon="5.94243">
        <ele>265</ele>
        <time>2010-01-01T02:53:56Z</time>
      </trkpt>
      <trkpt lat="43.46394" lon="5.94209">
        <ele>266</ele>
        <time>2010-01-01T02:54:01Z</time>
      </trkpt>
      <trkpt lat="43.46388" lon="5.94127">
        <ele>270</ele>
        <time>2010-01-01T02:54:13Z</time>
      </trkpt>
      <trkpt lat="43.46384" lon="5.94105">
        <ele>272</ele>
        <time>2010-01-01T02:54:17Z</time>
      </trkpt>
      <trkpt lat="43.46371" lon="5.94062">
        <ele>272</ele>
        <time>2010-01-01T02:54:24Z</time>
      </trkpt>
      <trkpt lat="43.46361" lon="5.94014">
        <ele>272</ele>
        <time>2010-01-01T02:54:31Z</time>
      </trkpt>
      <trkpt lat="43.46344" lon="5.93862">
        <ele>272</ele>
        <time>2010-01-01T02:54:53Z</time>
      </trkpt>
      <trkpt lat="43.4634" lon="5.93838">
        <ele>271</ele>
        <time>2010-01-01T02:54:57Z</time>
      </trkpt>
      <trkpt lat="43.46334" lon="5.93816">
        <ele>270</ele>
        <time>2010-01-01T02:55:00Z</time>
      </trkpt>
      <trkpt lat="43.46315" lon="5.93779">
        <ele>267</ele>
        <time>2010-01-01T02:55:07Z</time>
      </trkpt>
      <trkpt lat="43.46304" lon="5.93763">
        <ele>264</ele>
        <time>2010-01-01T02:55:10Z</time>
      </trkpt>
      <trkpt lat="43.46291" lon="5.93749">
        <ele>263</ele>
        <time>2010-01-01T02:55:13Z</time>
      </trkpt>
      <trkpt lat="43.46249" lon="5.93713">
        <ele>262</ele>
        <time>2010-01-01T02:55:23Z</time>
      </trkpt>
      <trkpt lat="43.46238" lon="5.937">
        <ele>264</ele>
        <time>2010-01-01T02:55:26Z</time>
      </trkpt>
      <trkpt lat="43.46231" lon="5.93685">
        <ele>265</ele>
        <time>2010-01-01T02:55:29Z</time>
      </trkpt>
      <trkpt lat="43.46228" lon="5.93671">
        <ele>266</ele>
        <time>2010-01-01T02:55:31Z</time>
      </trkpt>
      <trkpt lat="43.46227" lon="5.9365">
        <ele>268</ele>
        <time>2010-01-01T02:55:34Z</time>
      </trkpt>
      <trkpt lat="43.46236" lon="5.93562">
        <ele>268</ele>
        <time>2010-01-01T02:55:47Z</time>
      </trkpt>
      <trkpt lat="43.46236" lon="5.93538">
        <ele>268</ele>
        <time>2010-01-01T02:55:50Z</time>
      </trkpt>
      <trkpt lat="43.46234" lon="5.93516">
        <ele>269</ele>
        <time>2010-01-01T02:55:53Z</time>
      </trkpt>
      <trkpt lat="43.4623" lon="5.93496">
        <ele>270</ele>
        <time>2010-01-01T02:55:56Z</time>
      </trkpt>
      <trkpt lat="43.46224" lon="5.93477">
        <ele>270</ele>
        <time>2010-01-01T02:55:59Z</time>
      </trkpt>
      <trkpt lat="43.46202" lon="5.93433">
        <ele>268</ele>
        <time>2010-01-01T02:56:07Z</time>
      </trkpt>
      <trkpt lat="43.46188" lon="5.93399">
        <ele>267</ele>
        <time>2010-01-01T02:56:13Z</time>
      </trkpt>
      <trkpt lat="43.46179" lon="5.93343">
        <ele>268</ele>
        <time>2010-01-01T02:56:21Z</time>
      </trkpt>
      <trkpt lat="43.46176" lon="5.93325">
        <ele>268</ele>
        <time>2010-01-01T02:56:24Z</time>
      </trkpt>
      <trkpt lat="43.46168" lon="5.93309">
        <ele>268</ele>
        <time>2010-01-01T02:56:27Z</time>
      </trkpt>
      <trkpt lat="43.46159" lon="5.93296">
        <ele>268</ele>
        <time>2010-01-01T02:56:29Z</time>
      </trkpt>
      <trkpt lat="43.46041" lon="5.93174">
        <ele>273</ele>
        <time>2010-01-01T02:56:59Z</time>
      </trkpt>
      <trkpt lat="43.46032" lon="5.93159">
        <ele>273</ele>
        <time>2010-01-01T02:57:02Z</time>
      </trkpt>
      <trkpt lat="43.46009" lon="5.93111">
        <ele>275</ele>
        <time>2010-01-01T02:57:10Z</time>
      </trkpt>
      <trkpt lat="43.45989" lon="5.93085">
        <ele>273</ele>
        <time>2010-01-01T02:57:16Z</time>
      </trkpt>
      <trkpt lat="43.45981" lon="5.93071">
        <ele>272</ele>
        <time>2010-01-01T02:57:18Z</time>
      </trkpt>
      <trkpt lat="43.45976" lon="5.93056">
        <ele>271</ele>
        <time>2010-01-01T02:57:20Z</time>
      </trkpt>
      <trkpt lat="43.45975" lon="5.9304">
        <ele>271</ele>
        <time>2010-01-01T02:57:23Z</time>
      </trkpt>
      <trkpt lat="43.45978" lon="5.93026">
        <ele>271</ele>
        <time>2010-01-01T02:57:25Z</time>
      </trkpt>
      <trkpt lat="43.45984" lon="5.93014">
        <ele>272</ele>
        <time>2010-01-01T02:57:27Z</time>
      </trkpt>
      <trkpt lat="43.46004" lon="5.92997">
        <ele>274</ele>
        <time>2010-01-01T02:57:32Z</time>
      </trkpt>
      <trkpt lat="43.46013" lon="5.92986">
        <ele>275</ele>
        <time>2010-01-01T02:57:34Z</time>
      </trkpt>
      <trkpt lat="43.4602" lon="5.92971">
        <ele>275</ele>
        <time>2010-01-01T02:57:37Z</time>
      </trkpt>
      <trkpt lat="43.46023" lon="5.92954">
        <ele>274</ele>
        <time>2010-01-01T02:57:39Z</time>
      </trkpt>
      <trkpt lat="43.46022" lon="5.92879">
        <ele>274</ele>
        <time>2010-01-01T02:57:50Z</time>
      </trkpt>
      <trkpt lat="43.46024" lon="5.9286">
        <ele>274</ele>
        <time>2010-01-01T02:57:53Z</time>
      </trkpt>
      <trkpt lat="43.46039" lon="5.92805">
        <ele>278</ele>
        <time>2010-01-01T02:58:02Z</time>
      </trkpt>
      <trkpt lat="43.46042" lon="5.92784">
        <ele>279</ele>
        <time>2010-01-01T02:58:05Z</time>
      </trkpt>
      <trkpt lat="43.46042" lon="5.92763">
        <ele>279</ele>
        <time>2010-01-01T02:58:08Z</time>
      </trkpt>
      <trkpt lat="43.46038" lon="5.92672">
        <ele>276</ele>
        <time>2010-01-01T02:58:21Z</time>
      </trkpt>
      <trkpt lat="43.46041" lon="5.92627">
        <ele>276</ele>
        <time>2010-01-01T02:58:28Z</time>
      </trkpt>
      <trkpt lat="43.46063" lon="5.92516">
        <ele>278</ele>
        <time>2010-01-01T02:58:44Z</time>
      </trkpt>
      <trkpt lat="43.46088" lon="5.92407">
        <ele>278</ele>
        <time>2010-01-01T02:59:01Z</time>
      </trkpt>
      <trkpt lat="43.46092" lon="5.92387">
        <ele>281</ele>
        <time>2010-01-01T02:59:04Z</time>
      </trkpt>
      <trkpt lat="43.46091" lon="5.92367">
        <ele>282</ele>
        <time>2010-01-01T02:59:07Z</time>
      </trkpt>
      <trkpt lat="43.46087" lon="5.92348">
        <ele>281</ele>
        <time>2010-01-01T02:59:10Z</time>
      </trkpt>
      <trkpt lat="43.46067" lon="5.92297">
        <ele>280</ele>
        <time>2010-01-01T02:59:18Z</time>
      </trkpt>
      <trkpt lat="43.46045" lon="5.92219">
        <ele>281</ele>
        <time>2010-01-01T02:59:30Z</time>
      </trkpt>
      <trkpt lat="43.46037" lon="5.92202">
        <ele>281</ele>
        <time>2010-01-01T02:59:33Z</time>
      </trkpt>
      <trkpt lat="43.46027" lon="5.92187">
        <ele>280</ele>
        <time>2010-01-01T02:59:36Z</time>
      </trkpt>
      <trkpt lat="43.45965" lon="5.92129">
        <ele>280</ele>
        <time>2010-01-01T02:59:51Z</time>
      </trkpt>
      <trkpt lat="43.45957" lon="5.92115">
        <ele>280</ele>
        <time>2010-01-01T02:59:54Z</time>
      </trkpt>
      <trkpt lat="43.4595" lon="5.921">
        <ele>279</ele>
        <time>2010-01-01T02:59:56Z</time>
      </trkpt>
      <trkpt lat="43.45946" lon="5.92084">
        <ele>279</ele>
        <time>2010-01-01T02:59:59Z</time>
      </trkpt>
      <trkpt lat="43.45945" lon="5.92067">
        <ele>280</ele>
        <time>2010-01-01T03:00:01Z</time>
      </trkpt>
      <trkpt lat="43.45947" lon="5.92049">
        <ele>281</ele>
        <time>2010-01-01T03:00:04Z</time>
      </trkpt>
      <trkpt lat="43.45959" lon="5.91987">
        <ele>283</ele>
        <time>2010-01-01T03:00:13Z</time>
      </trkpt>
      <trkpt lat="43.45968" lon="5.91922">
        <ele>282</ele>
        <time>2010-01-01T03:00:23Z</time>
      </trkpt>
      <trkpt lat="43.45968" lon="5.91901">
        <ele>282</ele>
        <time>2010-01-01T03:00:26Z</time>
      </trkpt>
      <trkpt lat="43.45957" lon="5.9184">
        <ele>284</ele>
        <time>2010-01-01T03:00:35Z</time>
      </trkpt>
      <trkpt lat="43.45952" lon="5.91774">
        <ele>284</ele>
        <time>2010-01-01T03:00:45Z</time>
      </trkpt>
      <trkpt lat="43.45944" lon="5.91709">
        <ele>284</ele>
        <time>2010-01-01T03:00:54Z</time>
      </trkpt>
      <trkpt lat="43.45946" lon="5.91688">
        <ele>284</ele>
        <time>2010-01-01T03:00:57Z</time>
      </trkpt>
      <trkpt lat="43.45949" lon="5.91666">
        <ele>284</ele>
        <time>2010-01-01T03:01:01Z</time>
      </trkpt>
      <trkpt lat="43.45959" lon="5.91625">
        <ele>286</ele>
        <time>2010-01-01T03:01:07Z</time>
      </trkpt>
      <trkpt lat="43.45968" lon="5.91581">
        <ele>287</ele>
        <time>2010-01-01T03:01:13Z</time>
      </trkpt>
      <trkpt lat="43.45973" lon="5.9151">
        <ele>292</ele>
        <time>2010-01-01T03:01:24Z</time>
      </trkpt>
      <trkpt lat="43.45973" lon="5.91485">
        <ele>292</ele>
        <time>2010-01-01T03:01:27Z</time>
      </trkpt>
      <trkpt lat="43.45968" lon="5.91437">
        <ele>291</ele>
        <time>2010-01-01T03:01:35Z</time>
      </trkpt>
      <trkpt lat="43.45953" lon="5.91368">
        <ele>292</ele>
        <time>2010-01-01T03:01:45Z</time>
      </trkpt>
      <trkpt lat="43.45949" lon="5.91345">
        <ele>291</ele>
        <time>2010-01-01T03:01:48Z</time>
      </trkpt>
      <trkpt lat="43.45948" lon="5.91322">
        <ele>291</ele>
        <time>2010-01-01T03:01:52Z</time>
      </trkpt>
      <trkpt lat="43.4595" lon="5.91299">
        <ele>293</ele>
        <time>2010-01-01T03:01:55Z</time>
      </trkpt>
      <trkpt lat="43.45954" lon="5.91254">
        <ele>295</ele>
        <time>2010-01-01T03:02:02Z</time>
      </trkpt>
      <trkpt lat="43.45957" lon="5.9119">
        <ele>295</ele>
        <time>2010-01-01T03:02:11Z</time>
      </trkpt>
      <trkpt lat="43.45962" lon="5.91155">
        <ele>295</ele>
        <time>2010-01-01T03:02:16Z</time>
      </trkpt>
      <trkpt lat="43.45967" lon="5.91138">
        <ele>294</ele>
        <time>2010-01-01T03:02:19Z</time>
      </trkpt>
      <trkpt lat="43.45982" lon="5.91104">
        <ele>295</ele>
        <time>2010-01-01T03:02:25Z</time>
      </trkpt>
      <trkpt lat="43.46008" lon="5.91061">
        <ele>294</ele>
        <time>2010-01-01T03:02:33Z</time>
      </trkpt>
      <trkpt lat="43.46013" lon="5.91047">
        <ele>293</ele>
        <time>2010-01-01T03:02:35Z</time>
      </trkpt>
      <trkpt lat="43.46015" lon="5.91032">
        <ele>292</ele>
        <time>2010-01-01T03:02:37Z</time>
      </trkpt>
      <trkpt lat="43.46014" lon="5.91017">
        <ele>291</ele>
        <time>2010-01-01T03:02:39Z</time>
      </trkpt>
      <trkpt lat="43.4601" lon="5.91002">
        <ele>290</ele>
        <time>2010-01-01T03:02:42Z</time>
      </trkpt>
      <trkpt lat="43.46004" lon="5.90988">
        <ele>290</ele>
        <time>2010-01-01T03:02:44Z</time>
      </trkpt>
      <trkpt lat="43.45977" lon="5.90937">
        <ele>292</ele>
        <time>2010-01-01T03:02:53Z</time>
      </trkpt>
      <trkpt lat="43.45898" lon="5.90746">
        <ele>290</ele>
        <time>2010-01-01T03:03:25Z</time>
      </trkpt>
      <trkpt lat="43.4589" lon="5.90722">
        <ele>291</ele>
        <time>2010-01-01T03:03:29Z</time>
      </trkpt>
      <trkpt lat="43.45871" lon="5.90622">
        <ele>289</ele>
        <time>2010-01-01T03:03:44Z</time>
      </trkpt>
      <trkpt lat="43.45847" lon="5.90517">
        <ele>286</ele>
        <time>2010-01-01T03:04:00Z</time>
      </trkpt>
      <trkpt lat="43.45831" lon="5.90435">
        <ele>290</ele>
        <time>2010-01-01T03:04:12Z</time>
      </trkpt>
      <trkpt lat="43.45824" lon="5.90383">
        <ele>289</ele>
        <time>2010-01-01T03:04:20Z</time>
      </trkpt>
      <trkpt lat="43.45819" lon="5.90358">
        <ele>290</ele>
        <time>2010-01-01T03:04:24Z</time>
      </trkpt>
      <trkpt lat="43.45804" lon="5.90315">
        <ele>289</ele>
        <time>2010-01-01T03:04:31Z</time>
      </trkpt>
      <trkpt lat="43.45778" lon="5.90252">
        <ele>289</ele>
        <time>2010-01-01T03:04:41Z</time>
      </trkpt>
      <trkpt lat="43.45729" lon="5.90097">
        <ele>292</ele>
        <time>2010-01-01T03:05:06Z</time>
      </trkpt>
      <trkpt lat="43.45706" lon="5.90033">
        <ele>291</ele>
        <time>2010-01-01T03:05:16Z</time>
      </trkpt>
      <trkpt lat="43.45675" lon="5.89954">
        <ele>293</ele>
        <time>2010-01-01T03:05:29Z</time>
      </trkpt>
      <trkpt lat="43.45648" lon="5.8989">
        <ele>293</ele>
        <time>2010-01-01T03:05:40Z</time>
      </trkpt>
      <trkpt lat="43.45563" lon="5.89737">
        <ele>296</ele>
        <time>2010-01-01T03:06:08Z</time>
      </trkpt>
      <trkpt lat="43.45557" lon="5.8972">
        <ele>297</ele>
        <time>2010-01-01T03:06:11Z</time>
      </trkpt>
      <trkpt lat="43.45553" lon="5.89681">
        <ele>295</ele>
        <time>2010-01-01T03:06:17Z</time>
      </trkpt>
      <trkpt lat="43.45548" lon="5.89661">
        <ele>295</ele>
        <time>2010-01-01T03:06:20Z</time>
      </trkpt>
      <trkpt lat="43.45522" lon="5.89587">
        <ele>296</ele>
        <time>2010-01-01T03:06:32Z</time>
      </trkpt>
      <trkpt lat="43.45514" lon="5.89529">
        <ele>297</ele>
        <time>2010-01-01T03:06:40Z</time>
      </trkpt>
      <trkpt lat="43.45508" lon="5.89508">
        <ele>297</ele>
        <time>2010-01-01T03:06:43Z</time>
      </trkpt>
      <trkpt lat="43.4549" lon="5.89469">
        <ele>299</ele>
        <time>2010-01-01T03:06:50Z</time>
      </trkpt>
      <trkpt lat="43.45469" lon="5.89434">
        <ele>301</ele>
        <time>2010-01-01T03:06:57Z</time>
      </trkpt>
      <trkpt lat="43.45351" lon="5.89301">
        <ele>297</ele>
        <time>2010-01-01T03:07:27Z</time>
      </trkpt>
      <trkpt lat="43.45344" lon="5.89286">
        <ele>297</ele>
        <time>2010-01-01T03:07:30Z</time>
      </trkpt>
      <trkpt lat="43.45341" lon="5.89269">
        <ele>298</ele>
        <time>2010-01-01T03:07:32Z</time>
      </trkpt>
      <trkpt lat="43.45322" lon="5.89108">
        <ele>300</ele>
        <time>2010-01-01T03:07:56Z</time>
      </trkpt>
      <trkpt lat="43.45309" lon="5.89011">
        <ele>302</ele>
        <time>2010-01-01T03:08:10Z</time>
      </trkpt>
      <trkpt lat="43.45308" lon="5.88988">
        <ele>303</ele>
        <time>2010-01-01T03:08:14Z</time>
      </trkpt>
      <trkpt lat="43.45313" lon="5.88942">
        <ele>302</ele>
        <time>2010-01-01T03:08:21Z</time>
      </trkpt>
      <trkpt lat="43.45329" lon="5.8888">
        <ele>302</ele>
        <time>2010-01-01T03:08:30Z</time>
      </trkpt>
      <trkpt lat="43.45331" lon="5.88858">
        <ele>301</ele>
        <time>2010-01-01T03:08:33Z</time>
      </trkpt>
      <trkpt lat="43.4533" lon="5.8879">
        <ele>295</ele>
        <time>2010-01-01T03:08:43Z</time>
      </trkpt>
      <trkpt lat="43.45335" lon="5.88687">
        <ele>296</ele>
        <time>2010-01-01T03:08:58Z</time>
      </trkpt>
      <trkpt lat="43.45334" lon="5.88669">
        <ele>296</ele>
        <time>2010-01-01T03:09:01Z</time>
      </trkpt>
      <trkpt lat="43.45315" lon="5.88567">
        <ele>293</ele>
        <time>2010-01-01T03:09:16Z</time>
      </trkpt>
      <trkpt lat="43.45313" lon="5.88539">
        <ele>293</ele>
        <time>2010-01-01T03:09:20Z</time>
      </trkpt>
      <trkpt lat="43.45317" lon="5.8848">
        <ele>291</ele>
        <time>2010-01-01T03:09:29Z</time>
      </trkpt>
      <trkpt lat="43.45332" lon="5.88358">
        <ele>294</ele>
        <time>2010-01-01T03:09:47Z</time>
      </trkpt>
      <trkpt lat="43.45344" lon="5.88235">
        <ele>296</ele>
        <time>2010-01-01T03:10:05Z</time>
      </trkpt>
      <trkpt lat="43.45352" lon="5.88176">
        <ele>298</ele>
        <time>2010-01-01T03:10:14Z</time>
      </trkpt>
      <trkpt lat="43.45363" lon="5.88124">
        <ele>298</ele>
        <time>2010-01-01T03:10:21Z</time>
      </trkpt>
      <trkpt lat="43.45386" lon="5.88045">
        <ele>299</ele>
        <time>2010-01-01T03:10:34Z</time>
      </trkpt>
      <trkpt lat="43.45389" lon="5.88015">
        <ele>300</ele>
        <time>2010-01-01T03:10:38Z</time>
      </trkpt>
      <trkpt lat="43.45388" lon="5.8798">
        <ele>298</ele>
        <time>2010-01-01T03:10:43Z</time>
      </trkpt>
      <trkpt lat="43.45384" lon="5.87958">
        <ele>297</ele>
        <time>2010-01-01T03:10:47Z</time>
      </trkpt>
      <trkpt lat="43.45336" lon="5.87802">
        <ele>295</ele>
        <time>2010-01-01T03:11:11Z</time>
      </trkpt>
      <trkpt lat="43.45328" lon="5.87765">
        <ele>292</ele>
        <time>2010-01-01T03:11:17Z</time>
      </trkpt>
      <trkpt lat="43.45328" lon="5.87726">
        <ele>289</ele>
        <time>2010-01-01T03:11:22Z</time>
      </trkpt>
      <trkpt lat="43.45329" lon="5.87717">
        <ele>289</ele>
        <time>2010-01-01T03:11:24Z</time>
      </trkpt>
      <trkpt lat="43.45335" lon="5.87703">
        <ele>288</ele>
        <time>2010-01-01T03:11:26Z</time>
      </trkpt>
      <trkpt lat="43.45336" lon="5.87689">
        <ele>288</ele>
        <time>2010-01-01T03:11:28Z</time>
      </trkpt>
      <trkpt lat="43.45331" lon="5.87674">
        <ele>287</ele>
        <time>2010-01-01T03:11:31Z</time>
      </trkpt>
      <trkpt lat="43.45321" lon="5.87664">
        <ele>287</ele>
        <time>2010-01-01T03:11:33Z</time>
      </trkpt>
      <trkpt lat="43.4531" lon="5.87629">
        <ele>288</ele>
        <time>2010-01-01T03:11:39Z</time>
      </trkpt>
      <trkpt lat="43.45308" lon="5.87602">
        <ele>290</ele>
        <time>2010-01-01T03:11:43Z</time>
      </trkpt>
      <trkpt lat="43.45297" lon="5.87552">
        <ele>290</ele>
        <time>2010-01-01T03:11:50Z</time>
      </trkpt>
      <trkpt lat="43.45275" lon="5.87479">
        <ele>290</ele>
        <time>2010-01-01T03:12:02Z</time>
      </trkpt>
      <trkpt lat="43.4527" lon="5.87455">
        <ele>291</ele>
        <time>2010-01-01T03:12:05Z</time>
      </trkpt>
      <trkpt lat="43.45266" lon="5.8743">
        <ele>292</ele>
        <time>2010-01-01T03:12:09Z</time>
      </trkpt>
      <trkpt lat="43.45266" lon="5.87399">
        <ele>292</ele>
        <time>2010-01-01T03:12:13Z</time>
      </trkpt>
      <trkpt lat="43.45274" lon="5.87305">
        <ele>292</ele>
        <time>2010-01-01T03:12:27Z</time>
      </trkpt>
      <trkpt lat="43.45283" lon="5.87218">
        <ele>294</ele>
        <time>2010-01-01T03:12:40Z</time>
      </trkpt>
      <trkpt lat="43.45291" lon="5.87088">
        <ele>295</ele>
        <time>2010-01-01T03:12:59Z</time>
      </trkpt>
      <trkpt lat="43.45294" lon="5.86943">
        <ele>295</ele>
        <time>2010-01-01T03:13:20Z</time>
      </trkpt>
      <trkpt lat="43.45302" lon="5.86743">
        <ele>295</ele>
        <time>2010-01-01T03:13:49Z</time>
      </trkpt>
      <trkpt lat="43.45307" lon="5.86529">
        <ele>298</ele>
        <time>2010-01-01T03:14:20Z</time>
      </trkpt>
      <trkpt lat="43.45317" lon="5.86488">
        <ele>300</ele>
        <time>2010-01-01T03:14:27Z</time>
      </trkpt>
      <trkpt lat="43.45336" lon="5.86455">
        <ele>301</ele>
        <time>2010-01-01T03:14:33Z</time>
      </trkpt>
      <trkpt lat="43.45366" lon="5.86327">
        <ele>302</ele>
        <time>2010-01-01T03:14:52Z</time>
      </trkpt>
      <trkpt lat="43.45362" lon="5.86273">
        <ele>303</ele>
        <time>2010-01-01T03:15:00Z</time>
      </trkpt>
      <trkpt lat="43.45364" lon="5.86246">
        <ele>304</ele>
        <time>2010-01-01T03:15:04Z</time>
      </trkpt>
      <trkpt lat="43.45375" lon="5.86137">
        <ele>301</ele>
        <time>2010-01-01T03:15:20Z</time>
      </trkpt>
      <trkpt lat="43.45376" lon="5.86101">
        <ele>302</ele>
        <time>2010-01-01T03:15:25Z</time>
      </trkpt>
      <trkpt lat="43.45383" lon="5.8606">
        <ele>302</ele>
        <time>2010-01-01T03:15:31Z</time>
      </trkpt>
      <trkpt lat="43.45325" lon="5.86032">
        <ele>302</ele>
        <time>2010-01-01T03:15:44Z</time>
      </trkpt>
      <trkpt lat="43.45318" lon="5.8601">
        <ele>302</ele>
        <time>2010-01-01T03:15:47Z</time>
      </trkpt>
      <trkpt lat="43.45323" lon="5.86004">
        <ele>302</ele>
        <time>2010-01-01T03:15:48Z</time>
      </trkpt>
      <trkpt lat="43.45354" lon="5.85862">
        <ele>300</ele>
        <time>2010-01-01T03:16:10Z</time>
      </trkpt>
      <trkpt lat="43.45363" lon="5.85844">
        <ele>299</ele>
        <time>2010-01-01T03:16:13Z</time>
      </trkpt>
      <trkpt lat="43.45478" lon="5.85489">
        <ele>291</ele>
        <time>2010-01-01T03:17:10Z</time>
      </trkpt>
      <trkpt lat="43.4549" lon="5.85464">
        <ele>291</ele>
        <time>2010-01-01T03:17:14Z</time>
      </trkpt>
      <trkpt lat="43.45503" lon="5.85443">
        <ele>291</ele>
        <time>2010-01-01T03:17:18Z</time>
      </trkpt>
      <trkpt lat="43.45532" lon="5.85407">
        <ele>292</ele>
        <time>2010-01-01T03:17:26Z</time>
      </trkpt>
      <trkpt lat="43.45548" lon="5.85397">
        <ele>292</ele>
        <time>2010-01-01T03:17:29Z</time>
      </trkpt>
      <trkpt lat="43.4556" lon="5.85391">
        <ele>292</ele>
        <time>2010-01-01T03:17:32Z</time>
      </trkpt>
      <trkpt lat="43.45574" lon="5.85388">
        <ele>292</ele>
        <time>2010-01-01T03:17:35Z</time>
      </trkpt>
      <trkpt lat="43.4558" lon="5.85389">
        <ele>292</ele>
        <time>2010-01-01T03:17:36Z</time>
      </trkpt>
      <trkpt lat="43.45585" lon="5.85386">
        <ele>292</ele>
        <time>2010-01-01T03:17:37Z</time>
      </trkpt>
      <trkpt lat="43.45589" lon="5.85378">
        <ele>292</ele>
        <time>2010-01-01T03:17:38Z</time>
      </trkpt>
      <trkpt lat="43.45589" lon="5.85369">
        <ele>292</ele>
        <time>2010-01-01T03:17:40Z</time>
      </trkpt>
      <trkpt lat="43.45598" lon="5.85349">
        <ele>291</ele>
        <time>2010-01-01T03:17:43Z</time>
      </trkpt>
      <trkpt lat="43.45604" lon="5.85331">
        <ele>290</ele>
        <time>2010-01-01T03:17:46Z</time>
      </trkpt>
      <trkpt lat="43.45618" lon="5.85274">
        <ele>288</ele>
        <time>2010-01-01T03:17:55Z</time>
      </trkpt>
      <trkpt lat="43.45623" lon="5.85265">
        <ele>289</ele>
        <time>2010-01-01T03:17:56Z</time>
      </trkpt>
      <trkpt lat="43.45631" lon="5.85259">
        <ele>289</ele>
        <time>2010-01-01T03:17:58Z</time>
      </trkpt>
      <trkpt lat="43.45633" lon="5.85254">
        <ele>289</ele>
        <time>2010-01-01T03:17:59Z</time>
      </trkpt>
      <trkpt lat="43.45633" lon="5.85243">
        <ele>290</ele>
        <time>2010-01-01T03:18:01Z</time>
      </trkpt>
      <trkpt lat="43.4563" lon="5.85235">
        <ele>290</ele>
        <time>2010-01-01T03:18:02Z</time>
      </trkpt>
      <trkpt lat="43.45624" lon="5.85231">
        <ele>290</ele>
        <time>2010-01-01T03:18:03Z</time>
      </trkpt>
      <trkpt lat="43.45624" lon="5.8522">
        <ele>290</ele>
        <time>2010-01-01T03:18:05Z</time>
      </trkpt>
      <trkpt lat="43.45652" lon="5.85081">
        <ele>288</ele>
        <time>2010-01-01T03:18:26Z</time>
      </trkpt>
      <trkpt lat="43.45614" lon="5.85008">
        <ele>287</ele>
        <time>2010-01-01T03:18:39Z</time>
      </trkpt>
      <trkpt lat="43.45603" lon="5.84992">
        <ele>287</ele>
        <time>2010-01-01T03:18:42Z</time>
      </trkpt>
      <trkpt lat="43.45597" lon="5.84985">
        <ele>287</ele>
        <time>2010-01-01T03:18:44Z</time>
      </trkpt>
      <trkpt lat="43.4557" lon="5.84975">
        <ele>289</ele>
        <time>2010-01-01T03:18:49Z</time>
      </trkpt>
      <trkpt lat="43.4556" lon="5.85014">
        <ele>289</ele>
        <time>2010-01-01T03:18:55Z</time>
      </trkpt>
      <trkpt lat="43.45555" lon="5.85022">
        <ele>289</ele>
        <time>2010-01-01T03:18:57Z</time>
      </trkpt>
      <trkpt lat="43.45555" lon="5.85012">
        <ele>289</ele>
        <time>2010-01-01T03:18:58Z</time>
      </trkpt>
    </trkseg>
  </trk>
</gpx>